Time,TemperatureF,DewpointF,PressureIn,WindDirection,WindDirectionDegrees,WindSpeedMPH,WindSpeedGustMPH,Humidity,HourlyPrecipIn,Conditions,Clouds,dailyrainin,SoftwareType,DateUTC
2013-03-29 00:00:00,65.0,61.0,30.11,SE,131,8.0,11.0,87,0.00,,---,0.00,VWS V14.00,2013-03-29 05:00:00,
2013-03-29 00:01:00,65.1,61.1,30.11,SE,131,7.0,11.0,87,0.00,,---,0.00,VWS V14.00,2013-03-29 05:01:00,
2013-03-29 00:02:00,65.0,61.0,30.11,SE,131,8.0,9.0,87,0.00,,---,0.00,VWS V14.00,2013-03-29 05:02:00,
2013-03-29 00:03:00,65.0,61.0,30.11,SE,131,6.0,11.0,87,0.00,,---,0.00,VWS V14.00,2013-03-29 05:03:00,
2013-03-29 00:04:00,65.0,61.0,30.11,SE,130,8.0,11.0,87,0.00,,---,0.00,VWS V14.00,2013-03-29 05:04:00,
2013-03-29 00:05:00,64.9,60.9,30.11,SE,130,9.0,9.0,87,0.00,,---,0.00,VWS V14.00,2013-03-29 05:05:00,
2013-03-29 00:06:00,65.0,61.0,30.11,SE,130,8.0,11.0,87,0.00,,---,0.00,VWS V14.00,2013-03-29 05:06:00,
2013-03-29 00:07:00,64.9,60.9,30.11,SE,130,7.0,9.0,87,0.00,,---,0.00,VWS V14.00,2013-03-29 05:07:00,
2013-03-29 00:08:00,64.9,60.9,30.11,SE,130,9.0,11.0,87,0.00,,---,0.00,VWS V14.00,2013-03-29 05:08:00,
2013-03-29 00:09:00,64.9,60.9,30.11,SE,130,8.0,11.0,87,0.00,,---,0.00,VWS V14.00,2013-03-29 05:09:00,
2013-03-29 00:10:00,64.8,60.8,30.11,SE,130,11.0,11.0,87,0.00,,---,0.00,VWS V14.00,2013-03-29 05:10:00,
2013-03-29 00:11:00,64.8,60.8,30.11,SE,130,9.0,12.0,87,0.00,,---,0.00,VWS V14.00,2013-03-29 05:11:00,
2013-03-29 00:12:00,64.8,60.8,30.11,SE,130,9.0,12.0,87,0.00,,---,0.00,VWS V14.00,2013-03-29 05:12:00,
2013-03-29 00:13:00,64.8,60.8,30.11,SE,130,9.0,11.0,87,0.00,,---,0.00,VWS V14.00,2013-03-29 05:13:00,
2013-03-29 00:14:00,64.8,60.8,30.11,SE,130,11.0,11.0,87,0.00,,---,0.00,VWS V14.00,2013-03-29 05:14:00,
2013-03-29 00:15:00,64.8,60.8,30.11,SE,130,8.0,9.0,87,0.00,,---,0.00,VWS V14.00,2013-03-29 05:15:00,
2013-03-29 00:16:00,64.8,60.8,30.11,SE,130,11.0,12.0,87,0.00,,---,0.00,VWS V14.00,2013-03-29 05:16:00,
2013-03-29 00:17:00,64.8,60.8,30.11,SE,130,9.0,11.0,87,0.00,,---,0.00,VWS V14.00,2013-03-29 05:17:00,
2013-03-29 00:18:00,64.8,60.8,30.11,SE,130,7.0,9.0,87,0.00,,---,0.00,VWS V14.00,2013-03-29 05:18:00,
2013-03-29 00:19:00,64.7,60.8,30.11,SE,130,7.0,11.0,87,0.00,,---,0.00,VWS V14.00,2013-03-29 05:19:00,
2013-03-29 00:20:00,64.6,60.7,30.10,SE,130,9.0,11.0,87,0.00,,---,0.00,VWS V14.00,2013-03-29 05:20:00,
2013-03-29 00:21:00,64.7,60.8,30.10,SE,130,7.0,9.0,87,0.00,,---,0.00,VWS V14.00,2013-03-29 05:21:00,
2013-03-29 00:22:00,64.6,60.7,30.10,SE,130,7.0,11.0,87,0.00,,---,0.00,VWS V14.00,2013-03-29 05:22:00,
2013-03-29 00:23:00,64.6,60.7,30.10,SE,130,9.0,11.0,87,0.00,,---,0.00,VWS V14.00,2013-03-29 05:23:00,
2013-03-29 00:24:00,64.6,60.7,30.10,SE,130,11.0,11.0,87,0.00,,---,0.00,VWS V14.00,2013-03-29 05:24:00,
2013-03-29 00:25:00,64.6,61.0,30.10,SE,130,7.0,11.0,88,0.00,,---,0.00,VWS V14.00,2013-03-29 05:25:00,
2013-03-29 00:26:00,64.6,60.7,30.10,SE,130,8.0,9.0,87,0.00,,---,0.00,VWS V14.00,2013-03-29 05:26:00,
2013-03-29 00:27:00,64.6,61.0,30.10,SE,130,8.0,11.0,88,0.00,,---,0.00,VWS V14.00,2013-03-29 05:27:00,
2013-03-29 00:28:00,64.6,61.0,30.10,SE,130,7.0,11.0,88,0.00,,---,0.00,VWS V14.00,2013-03-29 05:28:00,
2013-03-29 00:29:00,64.6,61.0,30.10,SE,130,8.0,11.0,88,0.00,,---,0.00,VWS V14.00,2013-03-29 05:29:00,
2013-03-29 00:30:00,64.6,61.0,30.11,SE,131,7.0,9.0,88,0.00,,---,0.00,VWS V14.00,2013-03-29 05:30:00,
2013-03-29 00:31:00,64.6,61.0,30.11,SE,130,8.0,11.0,88,0.00,,---,0.00,VWS V14.00,2013-03-29 05:31:00,
2013-03-29 00:32:00,64.6,61.0,30.11,SE,131,8.0,11.0,88,0.00,,---,0.00,VWS V14.00,2013-03-29 05:32:00,
2013-03-29 00:33:00,64.6,61.0,30.11,SE,131,5.0,9.0,88,0.00,,---,0.00,VWS V14.00,2013-03-29 05:33:00,
2013-03-29 00:34:00,64.6,61.0,30.11,SE,131,7.0,9.0,88,0.00,,---,0.00,VWS V14.00,2013-03-29 05:34:00,
2013-03-29 00:35:00,64.4,60.8,30.10,SE,131,8.0,8.0,88,0.00,,---,0.00,VWS V14.00,2013-03-29 05:35:00,
2013-03-29 00:36:00,64.5,60.9,30.11,SE,131,7.0,9.0,88,0.00,,---,0.00,VWS V14.00,2013-03-29 05:36:00,
2013-03-29 00:37:00,64.5,60.9,30.10,SE,131,6.0,8.0,88,0.00,,---,0.00,VWS V14.00,2013-03-29 05:37:00,
2013-03-29 00:38:00,64.4,60.8,30.10,SE,131,8.0,8.0,88,0.00,,---,0.00,VWS V14.00,2013-03-29 05:38:00,
2013-03-29 00:39:00,64.4,60.8,30.10,SE,131,9.0,11.0,88,0.00,,---,0.00,VWS V14.00,2013-03-29 05:39:00,
2013-03-29 00:40:00,64.4,60.8,30.10,SE,133,7.0,7.0,88,0.00,,---,0.00,VWS V14.00,2013-03-29 05:40:00,
2013-03-29 00:41:00,64.4,60.8,30.10,SE,133,7.0,9.0,88,0.00,,---,0.00,VWS V14.00,2013-03-29 05:41:00,
2013-03-29 00:42:00,64.4,60.8,30.10,SE,133,7.0,9.0,88,0.00,,---,0.00,VWS V14.00,2013-03-29 05:42:00,
2013-03-29 00:43:00,64.4,60.8,30.10,SE,133,6.0,8.0,88,0.00,,---,0.00,VWS V14.00,2013-03-29 05:43:00,
2013-03-29 00:44:00,64.4,60.8,30.10,SE,133,8.0,8.0,88,0.00,,---,0.00,VWS V14.00,2013-03-29 05:44:00,
2013-03-29 00:45:00,64.4,60.8,30.11,SE,135,8.0,10.0,88,0.00,,---,0.00,VWS V14.00,2013-03-29 05:45:00,
2013-03-29 00:46:00,64.4,60.8,30.11,SE,134,5.0,8.0,88,0.00,,---,0.00,VWS V14.00,2013-03-29 05:46:00,
2013-03-29 00:47:00,64.4,60.8,30.11,SE,135,5.0,8.0,88,0.00,,---,0.00,VWS V14.00,2013-03-29 05:47:00,
2013-03-29 00:48:00,64.5,60.9,30.11,SE,135,9.0,10.0,88,0.00,,---,0.00,VWS V14.00,2013-03-29 05:48:00,
2013-03-29 00:49:00,64.5,60.9,30.10,SE,135,8.0,10.0,88,0.00,,---,0.00,VWS V14.00,2013-03-29 05:49:00,
2013-03-29 00:50:00,64.7,61.1,30.10,SE,146,12.0,12.0,88,0.00,,---,0.00,VWS V14.00,2013-03-29 05:50:00,
2013-03-29 00:51:00,64.7,61.1,30.10,SE,136,6.0,10.0,88,0.00,,---,0.00,VWS V14.00,2013-03-29 05:51:00,
2013-03-29 00:52:00,64.7,61.1,30.10,SE,145,9.0,12.0,88,0.00,,---,0.00,VWS V14.00,2013-03-29 05:52:00,
2013-03-29 00:53:00,64.7,61.1,30.10,SE,146,7.0,13.0,88,0.00,,---,0.00,VWS V14.00,2013-03-29 05:53:00,
2013-03-29 00:54:00,64.7,61.1,30.10,SSE,153,10.0,13.0,88,0.00,,---,0.00,VWS V14.00,2013-03-29 05:54:00,
2013-03-29 00:55:00,64.9,61.3,30.10,SSE,153,9.0,10.0,88,0.00,,---,0.00,VWS V14.00,2013-03-29 05:55:00,
2013-03-29 00:56:00,64.9,61.3,30.10,SSE,153,6.0,10.0,88,0.00,,---,0.00,VWS V14.00,2013-03-29 05:56:00,
2013-03-29 00:57:00,64.9,61.3,30.10,SSE,153,8.0,12.0,88,0.00,,---,0.00,VWS V14.00,2013-03-29 05:57:00,
2013-03-29 00:58:00,64.9,61.3,30.10,SSE,153,7.0,10.0,88,0.00,,---,0.00,VWS V14.00,2013-03-29 05:58:00,
2013-03-29 00:59:00,64.9,61.3,30.10,SSE,153,8.0,9.0,88,0.00,,---,0.00,VWS V14.00,2013-03-29 05:59:00,
2013-03-29 01:00:00,65.0,61.4,30.10,SSE,152,9.0,10.0,88,0.00,,---,0.00,VWS V14.00,2013-03-29 06:00:00,
2013-03-29 01:01:00,64.9,61.3,30.10,SSE,152,8.0,10.0,88,0.00,,---,0.00,VWS V14.00,2013-03-29 06:01:00,
2013-03-29 01:02:00,65.0,61.4,30.10,SSE,152,8.0,10.0,88,0.00,,---,0.00,VWS V14.00,2013-03-29 06:02:00,
2013-03-29 01:03:00,65.0,61.4,30.10,SSE,152,9.0,10.0,88,0.00,,---,0.00,VWS V14.00,2013-03-29 06:03:00,
2013-03-29 01:04:00,64.9,61.3,30.10,SSE,152,10.0,10.0,88,0.00,,---,0.00,VWS V14.00,2013-03-29 06:04:00,
2013-03-29 01:05:00,64.9,61.3,30.10,SSE,152,8.0,9.0,88,0.00,,---,0.00,VWS V14.00,2013-03-29 06:05:00,
2013-03-29 01:08:00,64.8,61.2,30.10,SSE,152,7.0,9.0,88,0.00,,---,0.00,VWS V14.00,2013-03-29 06:08:00,
2013-03-29 01:09:00,64.8,61.2,30.10,SSE,152,8.0,8.0,88,0.00,,---,0.00,VWS V14.00,2013-03-29 06:09:00,
2013-03-29 01:10:00,64.7,61.1,30.10,SSE,152,8.0,10.0,88,0.00,,---,0.00,VWS V14.00,2013-03-29 06:10:00,
2013-03-29 01:11:00,64.7,61.1,30.10,SSE,152,8.0,9.0,88,0.00,,---,0.00,VWS V14.00,2013-03-29 06:11:00,
2013-03-29 01:12:00,64.7,61.1,30.10,SSE,152,8.0,10.0,88,0.00,,---,0.00,VWS V14.00,2013-03-29 06:12:00,
2013-03-29 01:13:00,64.7,61.1,30.10,SSE,152,7.0,10.0,88,0.00,,---,0.00,VWS V14.00,2013-03-29 06:13:00,
2013-03-29 01:14:00,64.6,61.0,30.10,SSE,152,6.0,9.0,88,0.00,,---,0.00,VWS V14.00,2013-03-29 06:14:00,
2013-03-29 01:15:00,64.5,60.9,30.10,SSE,152,5.0,9.0,88,0.00,,---,0.00,VWS V14.00,2013-03-29 06:15:00,
2013-03-29 01:16:00,64.5,60.9,30.10,SSE,152,8.0,9.0,88,0.00,,---,0.00,VWS V14.00,2013-03-29 06:16:00,
2013-03-29 01:17:00,64.5,60.9,30.10,SSE,152,7.0,9.0,88,0.00,,---,0.00,VWS V14.00,2013-03-29 06:17:00,
2013-03-29 01:18:00,64.5,60.9,30.10,SSE,152,7.0,9.0,88,0.00,,---,0.00,VWS V14.00,2013-03-29 06:18:00,
2013-03-29 01:19:00,64.5,60.9,30.10,SSE,152,7.0,9.0,88,0.00,,---,0.00,VWS V14.00,2013-03-29 06:19:00,
2013-03-29 01:20:00,64.4,60.8,30.10,SSE,152,7.0,8.0,88,0.00,,---,0.00,VWS V14.00,2013-03-29 06:20:00,
2013-03-29 01:21:00,64.4,60.8,30.10,SSE,152,8.0,10.0,88,0.00,,---,0.00,VWS V14.00,2013-03-29 06:21:00,
2013-03-29 01:22:00,64.4,60.8,30.10,SSE,152,8.0,8.0,88,0.00,,---,0.00,VWS V14.00,2013-03-29 06:22:00,
2013-03-29 01:23:00,64.3,60.7,30.10,SSE,152,7.0,8.0,88,0.00,,---,0.00,VWS V14.00,2013-03-29 06:23:00,
2013-03-29 01:24:00,64.3,60.7,30.10,SSE,152,6.0,9.0,88,0.00,,---,0.00,VWS V14.00,2013-03-29 06:24:00,
2013-03-29 01:25:00,64.3,60.7,30.10,SSE,152,5.0,8.0,88,0.00,,---,0.00,VWS V14.00,2013-03-29 06:25:00,
2013-03-29 01:26:00,64.3,60.7,30.10,SSE,152,6.0,7.0,88,0.00,,---,0.00,VWS V14.00,2013-03-29 06:26:00,
2013-03-29 01:27:00,64.3,60.7,30.10,SSE,152,5.0,8.0,88,0.00,,---,0.00,VWS V14.00,2013-03-29 06:27:00,
2013-03-29 01:28:00,64.2,60.6,30.10,SSE,152,5.0,8.0,88,0.00,,---,0.00,VWS V14.00,2013-03-29 06:28:00,
2013-03-29 01:29:00,64.2,60.6,30.10,SSE,152,6.0,7.0,88,0.00,,---,0.00,VWS V14.00,2013-03-29 06:29:00,
2013-03-29 01:30:00,64.1,60.8,30.10,SSE,152,8.0,8.0,89,0.00,,---,0.00,VWS V14.00,2013-03-29 06:30:00,
2013-03-29 01:31:00,64.2,60.9,30.10,SSE,152,6.0,8.0,89,0.00,,---,0.00,VWS V14.00,2013-03-29 06:31:00,
2013-03-29 01:32:00,64.1,60.8,30.10,SSE,152,7.0,8.0,89,0.00,,---,0.00,VWS V14.00,2013-03-29 06:32:00,
2013-03-29 01:33:00,64.1,60.8,30.10,SSE,152,7.0,8.0,89,0.00,,---,0.00,VWS V14.00,2013-03-29 06:33:00,
2013-03-29 01:34:00,64.1,60.8,30.10,SSE,152,6.0,9.0,89,0.00,,---,0.00,VWS V14.00,2013-03-29 06:34:00,
2013-03-29 01:35:00,64.0,60.7,30.10,SSE,152,6.0,7.0,89,0.00,,---,0.00,VWS V14.00,2013-03-29 06:35:00,
2013-03-29 01:36:00,64.1,60.8,30.10,SSE,152,6.0,7.0,89,0.00,,---,0.00,VWS V14.00,2013-03-29 06:36:00,
2013-03-29 01:37:00,64.0,60.7,30.10,SSE,152,7.0,8.0,89,0.00,,---,0.00,VWS V14.00,2013-03-29 06:37:00,
2013-03-29 01:38:00,64.0,60.7,30.10,SSE,152,4.0,7.0,89,0.00,,---,0.00,VWS V14.00,2013-03-29 06:38:00,
2013-03-29 01:39:00,64.0,60.7,30.10,SSE,152,6.0,6.0,89,0.00,,---,0.00,VWS V14.00,2013-03-29 06:39:00,
2013-03-29 01:40:00,63.9,60.6,30.10,SSE,152,7.0,7.0,89,0.00,,---,0.00,VWS V14.00,2013-03-29 06:40:00,
2013-03-29 01:41:00,63.9,60.6,30.10,SSE,152,5.0,9.0,89,0.00,,---,0.00,VWS V14.00,2013-03-29 06:41:00,
2013-03-29 01:42:00,63.9,60.6,30.10,SSE,152,6.0,8.0,89,0.00,,---,0.00,VWS V14.00,2013-03-29 06:42:00,
2013-03-29 01:43:00,63.9,60.6,30.10,SSE,152,6.0,8.0,89,0.00,,---,0.00,VWS V14.00,2013-03-29 06:43:00,
2013-03-29 01:44:00,63.9,60.6,30.10,SSE,152,6.0,8.0,89,0.00,,---,0.00,VWS V14.00,2013-03-29 06:44:00,
2013-03-29 01:45:00,63.9,60.6,30.10,SSE,152,5.0,7.0,89,0.00,,---,0.00,VWS V14.00,2013-03-29 06:45:00,
2013-03-29 01:46:00,63.9,60.6,30.10,SSE,152,7.0,8.0,89,0.00,,---,0.00,VWS V14.00,2013-03-29 06:46:00,
2013-03-29 01:47:00,63.9,60.6,30.10,SSE,152,7.0,7.0,89,0.00,,---,0.00,VWS V14.00,2013-03-29 06:47:00,
2013-03-29 01:48:00,63.9,60.6,30.10,SSE,152,5.0,7.0,89,0.00,,---,0.00,VWS V14.00,2013-03-29 06:48:00,
2013-03-29 01:49:00,63.9,60.6,30.10,SSE,152,6.0,7.0,89,0.00,,---,0.00,VWS V14.00,2013-03-29 06:49:00,
2013-03-29 01:50:00,64.0,61.0,30.10,SSE,152,7.0,7.0,90,0.00,,---,0.00,VWS V14.00,2013-03-29 06:50:00,
2013-03-29 01:51:00,63.9,60.6,30.10,SSE,152,7.0,7.0,89,0.00,,---,0.00,VWS V14.00,2013-03-29 06:51:00,
2013-03-29 01:52:00,63.9,60.6,30.10,SSE,152,6.0,7.0,89,0.00,,---,0.00,VWS V14.00,2013-03-29 06:52:00,
2013-03-29 01:53:00,64.0,61.0,30.10,SSE,152,6.0,7.0,90,0.00,,---,0.00,VWS V14.00,2013-03-29 06:53:00,
2013-03-29 01:54:00,64.0,61.0,30.10,SSE,152,6.0,7.0,90,0.00,,---,0.00,VWS V14.00,2013-03-29 06:54:00,
2013-03-29 01:55:00,64.1,61.1,30.10,SSE,152,7.0,8.0,90,0.00,,---,0.00,VWS V14.00,2013-03-29 06:55:00,
2013-03-29 01:56:00,64.1,60.8,30.10,SSE,152,6.0,6.0,89,0.00,,---,0.00,VWS V14.00,2013-03-29 06:56:00,
2013-03-29 01:57:00,64.1,61.1,30.10,SSE,152,8.0,8.0,90,0.00,,---,0.00,VWS V14.00,2013-03-29 06:57:00,
2013-03-29 01:58:00,64.1,61.1,30.10,SSE,152,5.0,8.0,90,0.00,,---,0.00,VWS V14.00,2013-03-29 06:58:00,
2013-03-29 01:59:00,64.2,61.2,30.10,SSE,152,5.0,6.0,90,0.00,,---,0.00,VWS V14.00,2013-03-29 06:59:00,
2013-03-29 02:00:00,64.2,61.2,30.10,SSE,152,4.0,5.0,90,0.00,,---,0.00,VWS V14.00,2013-03-29 07:00:00,
2013-03-29 02:01:00,64.2,61.2,30.10,SSE,152,4.0,6.0,90,0.00,,---,0.00,VWS V14.00,2013-03-29 07:01:00,
2013-03-29 02:02:00,64.2,61.2,30.10,SSE,152,4.0,7.0,90,0.00,,---,0.00,VWS V14.00,2013-03-29 07:02:00,
2013-03-29 02:03:00,64.3,61.3,30.10,SSE,152,4.0,5.0,90,0.00,,---,0.00,VWS V14.00,2013-03-29 07:03:00,
2013-03-29 02:04:00,64.3,61.3,30.10,SSE,152,6.0,6.0,90,0.00,,---,0.00,VWS V14.00,2013-03-29 07:04:00,
2013-03-29 02:05:00,64.3,61.3,30.10,SSE,152,9.0,9.0,90,0.00,,---,0.00,VWS V14.00,2013-03-29 07:05:00,
2013-03-29 02:06:00,64.3,61.3,30.10,SSE,152,4.0,6.0,90,0.00,,---,0.00,VWS V14.00,2013-03-29 07:06:00,
2013-03-29 02:07:00,64.3,61.3,30.10,SSE,152,8.0,8.0,90,0.00,,---,0.00,VWS V14.00,2013-03-29 07:07:00,
2013-03-29 02:08:00,64.3,61.3,30.10,SSE,152,7.0,9.0,90,0.00,,---,0.00,VWS V14.00,2013-03-29 07:08:00,
2013-03-29 02:09:00,64.4,61.4,30.10,SSE,152,6.0,9.0,90,0.00,,---,0.00,VWS V14.00,2013-03-29 07:09:00,
2013-03-29 02:10:00,64.4,61.4,30.10,SSE,152,4.0,6.0,90,0.00,,---,0.00,VWS V14.00,2013-03-29 07:10:00,
2013-03-29 02:11:00,64.5,61.5,30.10,SSE,152,7.0,7.0,90,0.00,,---,0.00,VWS V14.00,2013-03-29 07:11:00,
2013-03-29 02:12:00,64.4,61.4,30.10,SSE,152,5.0,7.0,90,0.00,,---,0.00,VWS V14.00,2013-03-29 07:12:00,
2013-03-29 02:13:00,64.4,61.1,30.10,SSE,152,5.0,6.0,89,0.00,,---,0.00,VWS V14.00,2013-03-29 07:13:00,
2013-03-29 02:14:00,64.4,61.1,30.10,SSE,152,7.0,7.0,89,0.00,,---,0.00,VWS V14.00,2013-03-29 07:14:00,
2013-03-29 02:15:00,64.4,61.1,30.10,SSE,152,6.0,7.0,89,0.00,,---,0.00,VWS V14.00,2013-03-29 07:15:00,
2013-03-29 02:16:00,64.4,61.4,30.10,SSE,152,6.0,8.0,90,0.00,,---,0.00,VWS V14.00,2013-03-29 07:16:00,
2013-03-29 02:17:00,64.4,61.1,30.10,SSE,152,6.0,7.0,89,0.00,,---,0.00,VWS V14.00,2013-03-29 07:17:00,
2013-03-29 02:18:00,64.3,61.0,30.10,SSE,152,6.0,7.0,89,0.00,,---,0.00,VWS V14.00,2013-03-29 07:18:00,
2013-03-29 02:19:00,64.3,61.0,30.10,SSE,152,6.0,7.0,89,0.00,,---,0.00,VWS V14.00,2013-03-29 07:19:00,
2013-03-29 02:20:00,64.4,61.4,30.10,SSE,152,7.0,7.0,90,0.00,,---,0.00,VWS V14.00,2013-03-29 07:20:00,
2013-03-29 02:21:00,64.4,61.4,30.10,SSE,152,4.0,7.0,90,0.00,,---,0.00,VWS V14.00,2013-03-29 07:21:00,
2013-03-29 02:22:00,64.4,61.4,30.10,SSE,152,6.0,7.0,90,0.00,,---,0.00,VWS V14.00,2013-03-29 07:22:00,
2013-03-29 02:23:00,64.4,61.4,30.10,SSE,152,6.0,7.0,90,0.00,,---,0.00,VWS V14.00,2013-03-29 07:23:00,
2013-03-29 02:24:00,64.4,61.4,30.10,SSE,152,6.0,6.0,90,0.00,,---,0.00,VWS V14.00,2013-03-29 07:24:00,
2013-03-29 02:25:00,64.4,61.4,30.10,SSE,152,6.0,7.0,90,0.00,,---,0.00,VWS V14.00,2013-03-29 07:25:00,
2013-03-29 02:26:00,64.4,61.1,30.10,SSE,152,4.0,6.0,89,0.00,,---,0.00,VWS V14.00,2013-03-29 07:26:00,
2013-03-29 02:27:00,64.4,61.1,30.10,SSE,152,7.0,8.0,89,0.00,,---,0.00,VWS V14.00,2013-03-29 07:27:00,
2013-03-29 02:28:00,64.4,61.4,30.10,SSE,152,5.0,7.0,90,0.00,,---,0.00,VWS V14.00,2013-03-29 07:28:00,
2013-03-29 02:29:00,64.4,61.4,30.10,SSE,152,4.0,6.0,90,0.00,,---,0.00,VWS V14.00,2013-03-29 07:29:00,
2013-03-29 02:30:00,64.5,61.5,30.10,SSE,152,6.0,7.0,90,0.00,,---,0.00,VWS V14.00,2013-03-29 07:30:00,
2013-03-29 02:31:00,64.4,61.4,30.10,SSE,152,4.0,7.0,90,0.00,,---,0.00,VWS V14.00,2013-03-29 07:31:00,
2013-03-29 02:32:00,64.5,61.5,30.10,SSE,152,4.0,9.0,90,0.00,,---,0.00,VWS V14.00,2013-03-29 07:32:00,
2013-03-29 02:33:00,64.5,61.5,30.10,SSE,152,4.0,7.0,90,0.00,,---,0.00,VWS V14.00,2013-03-29 07:33:00,
2013-03-29 02:34:00,64.6,61.6,30.10,SSE,152,5.0,7.0,90,0.00,,---,0.00,VWS V14.00,2013-03-29 07:34:00,
2013-03-29 02:35:00,64.6,61.6,30.10,SSE,152,4.0,5.0,90,0.00,,---,0.00,VWS V14.00,2013-03-29 07:35:00,
2013-03-29 02:36:00,64.6,61.6,30.10,SSE,152,5.0,6.0,90,0.00,,---,0.00,VWS V14.00,2013-03-29 07:36:00,
2013-03-29 02:37:00,64.6,61.6,30.10,SSE,152,5.0,6.0,90,0.00,,---,0.00,VWS V14.00,2013-03-29 07:37:00,
2013-03-29 02:38:00,64.6,61.6,30.10,SSE,152,4.0,5.0,90,0.00,,---,0.00,VWS V14.00,2013-03-29 07:38:00,
2013-03-29 02:39:00,64.7,61.7,30.10,SSE,152,5.0,7.0,90,0.00,,---,0.00,VWS V14.00,2013-03-29 07:39:00,
2013-03-29 02:40:00,64.7,61.7,30.10,SSE,152,4.0,6.0,90,0.00,,---,0.00,VWS V14.00,2013-03-29 07:40:00,
2013-03-29 02:41:00,64.7,61.7,30.10,SSE,152,5.0,7.0,90,0.00,,---,0.00,VWS V14.00,2013-03-29 07:41:00,
2013-03-29 02:42:00,64.7,61.7,30.10,SSE,152,5.0,6.0,90,0.00,,---,0.00,VWS V14.00,2013-03-29 07:42:00,
2013-03-29 02:44:00,64.7,61.7,30.10,SSE,152,7.0,8.0,90,0.00,,---,0.00,VWS V14.00,2013-03-29 07:44:00,
2013-03-29 02:45:00,64.7,61.7,30.10,SSE,152,2.0,6.0,90,0.00,,---,0.00,VWS V14.00,2013-03-29 07:45:00,
2013-03-29 02:46:00,64.7,61.7,30.10,SSE,152,6.0,6.0,90,0.00,,---,0.00,VWS V14.00,2013-03-29 07:46:00,
2013-03-29 02:47:00,64.7,61.7,30.10,SSE,152,4.0,6.0,90,0.00,,---,0.00,VWS V14.00,2013-03-29 07:47:00,
2013-03-29 02:49:00,64.7,61.7,30.10,SSE,152,6.0,6.0,90,0.00,,---,0.00,VWS V14.00,2013-03-29 07:49:00,
2013-03-29 02:50:00,64.7,61.7,30.10,SSE,152,4.0,5.0,90,0.00,,---,0.00,VWS V14.00,2013-03-29 07:50:00,
2013-03-29 02:51:00,64.7,61.7,30.10,SSE,152,4.0,7.0,90,0.00,,---,0.00,VWS V14.00,2013-03-29 07:51:00,
2013-03-29 02:53:00,64.7,61.4,30.10,SSE,152,2.0,5.0,89,0.00,,---,0.00,VWS V14.00,2013-03-29 07:53:00,
2013-03-29 02:54:00,64.6,61.3,30.10,SSE,152,1.0,2.0,89,0.00,,---,0.00,VWS V14.00,2013-03-29 07:54:00,
2013-03-29 02:55:00,64.4,61.1,30.10,SSE,152,2.0,4.0,89,0.00,,---,0.00,VWS V14.00,2013-03-29 07:55:00,
2013-03-29 02:56:00,64.5,61.2,30.10,SSE,152,2.0,4.0,89,0.00,,---,0.00,VWS V14.00,2013-03-29 07:56:00,
2013-03-29 02:57:00,64.5,61.2,30.10,SSE,152,2.0,4.0,89,0.00,,---,0.00,VWS V14.00,2013-03-29 07:57:00,
2013-03-29 02:58:00,64.4,61.1,30.10,SSE,152,2.0,4.0,89,0.00,,---,0.00,VWS V14.00,2013-03-29 07:58:00,
2013-03-29 02:59:00,64.4,61.1,30.10,SSE,152,2.0,4.0,89,0.00,,---,0.00,VWS V14.00,2013-03-29 07:59:00,
2013-03-29 03:00:00,64.2,60.9,30.10,SSE,152,0.0,0.0,89,0.00,,---,0.00,VWS V14.00,2013-03-29 08:00:00,
2013-03-29 03:01:00,64.3,61.0,30.10,SSE,152,0.0,0.0,89,0.00,,---,0.00,VWS V14.00,2013-03-29 08:01:00,
2013-03-29 03:02:00,64.2,60.9,30.10,SSE,152,0.0,0.0,89,0.00,,---,0.00,VWS V14.00,2013-03-29 08:02:00,
2013-03-29 03:03:00,64.1,60.8,30.10,SSE,152,0.0,0.0,89,0.00,,---,0.00,VWS V14.00,2013-03-29 08:03:00,
2013-03-29 03:04:00,64.1,60.8,30.10,SSE,152,0.0,0.0,89,0.00,,---,0.00,VWS V14.00,2013-03-29 08:04:00,
2013-03-29 03:05:00,64.1,60.8,30.10,SSE,152,0.0,0.0,89,0.00,,---,0.00,VWS V14.00,2013-03-29 08:05:00,
2013-03-29 03:06:00,64.1,60.8,30.10,SSE,152,0.0,0.0,89,0.00,,---,0.00,VWS V14.00,2013-03-29 08:06:00,
2013-03-29 03:07:00,64.1,60.8,30.10,SSE,152,0.0,0.0,89,0.00,,---,0.00,VWS V14.00,2013-03-29 08:07:00,
2013-03-29 03:08:00,64.1,60.8,30.10,SSE,152,0.0,0.0,89,0.00,,---,0.00,VWS V14.00,2013-03-29 08:08:00,
2013-03-29 03:09:00,64.1,60.8,30.10,SSE,152,0.0,0.0,89,0.00,,---,0.00,VWS V14.00,2013-03-29 08:09:00,
2013-03-29 03:10:00,63.9,60.6,30.09,SSE,152,0.0,0.0,89,0.00,,---,0.00,VWS V14.00,2013-03-29 08:10:00,
2013-03-29 03:11:00,64.0,60.7,30.10,SSE,152,0.0,0.0,89,0.00,,---,0.00,VWS V14.00,2013-03-29 08:11:00,
2013-03-29 03:12:00,63.9,60.6,30.10,SSE,152,0.0,0.0,89,0.00,,---,0.00,VWS V14.00,2013-03-29 08:12:00,
2013-03-29 03:13:00,63.9,60.6,30.09,SSE,152,0.0,0.0,89,0.00,,---,0.00,VWS V14.00,2013-03-29 08:13:00,
2013-03-29 03:14:00,63.9,60.6,30.10,SSE,152,0.0,0.0,89,0.00,,---,0.00,VWS V14.00,2013-03-29 08:14:00,
2013-03-29 03:15:00,63.7,60.4,30.10,SSE,152,0.0,0.0,89,0.00,,---,0.00,VWS V14.00,2013-03-29 08:15:00,
2013-03-29 03:16:00,63.8,60.5,30.10,SSE,152,0.0,0.0,89,0.00,,---,0.00,VWS V14.00,2013-03-29 08:16:00,
2013-03-29 03:17:00,63.8,60.5,30.10,SSE,152,0.0,0.0,89,0.00,,---,0.00,VWS V14.00,2013-03-29 08:17:00,
2013-03-29 03:18:00,63.7,60.4,30.10,SSE,152,0.0,0.0,89,0.00,,---,0.00,VWS V14.00,2013-03-29 08:18:00,
2013-03-29 03:19:00,63.7,60.4,30.09,SSE,152,0.0,0.0,89,0.00,,---,0.00,VWS V14.00,2013-03-29 08:19:00,
2013-03-29 03:20:00,63.5,60.2,30.09,SSE,152,0.0,0.0,89,0.00,,---,0.00,VWS V14.00,2013-03-29 08:20:00,
2013-03-29 03:21:00,63.6,60.3,30.09,SSE,152,0.0,0.0,89,0.00,,---,0.00,VWS V14.00,2013-03-29 08:21:00,
2013-03-29 03:22:00,63.5,60.2,30.09,SSE,152,0.0,0.0,89,0.00,,---,0.00,VWS V14.00,2013-03-29 08:22:00,
2013-03-29 03:23:00,63.4,60.1,30.09,SSE,152,0.0,0.0,89,0.00,,---,0.00,VWS V14.00,2013-03-29 08:23:00,
2013-03-29 03:24:00,63.4,60.1,30.09,SSE,152,0.0,0.0,89,0.00,,---,0.00,VWS V14.00,2013-03-29 08:24:00,
2013-03-29 03:25:00,63.3,60.0,30.09,SSE,152,0.0,0.0,89,0.00,,---,0.00,VWS V14.00,2013-03-29 08:25:00,
2013-03-29 03:26:00,63.2,59.9,30.09,SSE,152,0.0,0.0,89,0.00,,---,0.00,VWS V14.00,2013-03-29 08:26:00,
2013-03-29 03:27:00,63.2,59.9,30.09,SSE,152,0.0,0.0,89,0.00,,---,0.00,VWS V14.00,2013-03-29 08:27:00,
2013-03-29 03:28:00,63.1,59.8,30.09,SSE,152,0.0,0.0,89,0.00,,---,0.00,VWS V14.00,2013-03-29 08:28:00,
2013-03-29 03:29:00,63.0,59.7,30.09,SSE,152,0.0,0.0,89,0.00,,---,0.00,VWS V14.00,2013-03-29 08:29:00,
2013-03-29 03:30:00,63.0,59.7,30.09,SSE,152,0.0,0.0,89,0.00,,---,0.00,VWS V14.00,2013-03-29 08:30:00,
2013-03-29 03:31:00,62.9,59.6,30.09,SSE,152,0.0,0.0,89,0.00,,---,0.00,VWS V14.00,2013-03-29 08:31:00,
2013-03-29 03:32:00,62.9,59.6,30.09,SSE,152,0.0,0.0,89,0.00,,---,0.00,VWS V14.00,2013-03-29 08:32:00,
2013-03-29 03:33:00,62.8,59.5,30.09,SSE,152,0.0,0.0,89,0.00,,---,0.00,VWS V14.00,2013-03-29 08:33:00,
2013-03-29 03:34:00,62.7,59.4,30.08,SSE,152,0.0,0.0,89,0.00,,---,0.00,VWS V14.00,2013-03-29 08:34:00,
2013-03-29 03:35:00,62.6,59.3,30.09,SSE,152,0.0,0.0,89,0.00,,---,0.00,VWS V14.00,2013-03-29 08:35:00,
2013-03-29 03:36:00,62.6,59.3,30.09,SSE,152,0.0,0.0,89,0.00,,---,0.00,VWS V14.00,2013-03-29 08:36:00,
2013-03-29 03:37:00,62.6,59.3,30.08,SSE,152,0.0,0.0,89,0.00,,---,0.00,VWS V14.00,2013-03-29 08:37:00,
2013-03-29 03:38:00,62.6,59.3,30.08,SSE,152,0.0,0.0,89,0.00,,---,0.00,VWS V14.00,2013-03-29 08:38:00,
2013-03-29 03:39:00,62.5,59.2,30.08,SSE,152,0.0,0.0,89,0.00,,---,0.00,VWS V14.00,2013-03-29 08:39:00,
2013-03-29 03:40:00,62.5,59.2,30.08,SSE,152,0.0,0.0,89,0.00,,---,0.00,VWS V14.00,2013-03-29 08:40:00,
2013-03-29 03:41:00,62.5,59.2,30.08,SSE,152,0.0,0.0,89,0.00,,---,0.00,VWS V14.00,2013-03-29 08:41:00,
2013-03-29 03:42:00,62.5,59.2,30.08,SSE,152,0.0,0.0,89,0.00,,---,0.00,VWS V14.00,2013-03-29 08:42:00,
2013-03-29 03:43:00,62.5,59.2,30.08,SSE,152,0.0,0.0,89,0.00,,---,0.00,VWS V14.00,2013-03-29 08:43:00,
2013-03-29 03:44:00,62.4,59.1,30.08,SSE,152,0.0,0.0,89,0.00,,---,0.00,VWS V14.00,2013-03-29 08:44:00,
2013-03-29 03:45:00,62.3,59.0,30.08,SSE,152,0.0,0.0,89,0.00,,---,0.00,VWS V14.00,2013-03-29 08:45:00,
2013-03-29 03:46:00,62.4,59.1,30.08,SSE,152,0.0,0.0,89,0.00,,---,0.00,VWS V14.00,2013-03-29 08:46:00,
2013-03-29 03:47:00,62.3,59.0,30.08,SSE,152,0.0,0.0,89,0.00,,---,0.00,VWS V14.00,2013-03-29 08:47:00,
2013-03-29 03:48:00,62.3,59.0,30.08,SSE,152,0.0,0.0,89,0.00,,---,0.00,VWS V14.00,2013-03-29 08:48:00,
2013-03-29 03:49:00,62.3,59.0,30.08,SSE,152,0.0,0.0,89,0.00,,---,0.00,VWS V14.00,2013-03-29 08:49:00,
2013-03-29 03:50:00,62.2,58.9,30.08,SSE,152,0.0,0.0,89,0.00,,---,0.00,VWS V14.00,2013-03-29 08:50:00,
2013-03-29 03:51:00,62.2,58.9,30.08,SSE,152,0.0,0.0,89,0.00,,---,0.00,VWS V14.00,2013-03-29 08:51:00,
2013-03-29 03:52:00,62.1,59.1,30.08,SSE,152,0.0,0.0,90,0.00,,---,0.00,VWS V14.00,2013-03-29 08:52:00,
2013-03-29 03:53:00,62.1,59.1,30.08,SSE,152,0.0,0.0,90,0.00,,---,0.00,VWS V14.00,2013-03-29 08:53:00,
2013-03-29 03:54:00,62.1,59.1,30.08,SSE,152,0.0,0.0,90,0.00,,---,0.00,VWS V14.00,2013-03-29 08:54:00,
2013-03-29 03:55:00,62.1,59.1,30.08,SSE,152,0.0,0.0,90,0.00,,---,0.00,VWS V14.00,2013-03-29 08:55:00,
2013-03-29 03:56:00,62.0,59.0,30.08,SSE,152,0.0,0.0,90,0.00,,---,0.00,VWS V14.00,2013-03-29 08:56:00,
2013-03-29 03:57:00,62.0,59.0,30.08,SSE,152,0.0,0.0,90,0.00,,---,0.00,VWS V14.00,2013-03-29 08:57:00,
2013-03-29 03:58:00,62.0,59.0,30.08,SSE,152,0.0,0.0,90,0.00,,---,0.00,VWS V14.00,2013-03-29 08:58:00,
2013-03-29 03:59:00,62.0,59.0,30.08,SSE,152,0.0,0.0,90,0.00,,---,0.00,VWS V14.00,2013-03-29 08:59:00,
2013-03-29 04:00:00,62.0,59.0,30.08,SSE,152,0.0,0.0,90,0.00,,---,0.00,VWS V14.00,2013-03-29 09:00:00,
2013-03-29 04:01:00,61.9,58.9,30.08,SSE,152,0.0,0.0,90,0.00,,---,0.00,VWS V14.00,2013-03-29 09:01:00,
2013-03-29 04:02:00,61.8,58.8,30.08,SSE,152,0.0,0.0,90,0.00,,---,0.00,VWS V14.00,2013-03-29 09:02:00,
2013-03-29 04:03:00,61.8,58.8,30.08,SSE,152,0.0,0.0,90,0.00,,---,0.00,VWS V14.00,2013-03-29 09:03:00,
2013-03-29 04:04:00,61.8,58.8,30.08,SSE,152,0.0,0.0,90,0.00,,---,0.00,VWS V14.00,2013-03-29 09:04:00,
2013-03-29 04:05:00,61.8,58.8,30.08,SSE,152,0.0,0.0,90,0.00,,---,0.00,VWS V14.00,2013-03-29 09:05:00,
2013-03-29 04:06:00,61.9,58.9,30.08,SSE,152,0.0,0.0,90,0.00,,---,0.00,VWS V14.00,2013-03-29 09:06:00,
2013-03-29 04:07:00,61.9,58.9,30.08,SSE,152,0.0,0.0,90,0.00,,---,0.00,VWS V14.00,2013-03-29 09:07:00,
2013-03-29 04:08:00,61.9,58.9,30.08,SSE,152,0.0,0.0,90,0.00,,---,0.00,VWS V14.00,2013-03-29 09:08:00,
2013-03-29 04:09:00,61.9,58.9,30.08,SSE,152,0.0,0.0,90,0.00,,---,0.00,VWS V14.00,2013-03-29 09:09:00,
2013-03-29 04:10:00,61.8,58.8,30.07,SSE,152,0.0,0.0,90,0.00,,---,0.00,VWS V14.00,2013-03-29 09:10:00,
2013-03-29 04:11:00,61.9,58.9,30.07,SSE,152,0.0,0.0,90,0.00,,---,0.00,VWS V14.00,2013-03-29 09:11:00,
2013-03-29 04:12:00,62.0,59.3,30.07,SSE,152,0.0,0.0,91,0.00,,---,0.00,VWS V14.00,2013-03-29 09:12:00,
2013-03-29 04:13:00,62.0,59.3,30.07,SSE,152,0.0,0.0,91,0.00,,---,0.00,VWS V14.00,2013-03-29 09:13:00,
2013-03-29 04:14:00,61.9,58.9,30.07,SSE,152,0.0,0.0,90,0.00,,---,0.00,VWS V14.00,2013-03-29 09:14:00,
2013-03-29 04:15:00,61.8,58.8,30.07,SSE,152,0.0,0.0,90,0.00,,---,0.00,VWS V14.00,2013-03-29 09:15:00,
2013-03-29 04:16:00,61.8,58.8,30.07,SSE,152,0.0,0.0,90,0.00,,---,0.00,VWS V14.00,2013-03-29 09:16:00,
2013-03-29 04:17:00,61.8,58.8,30.07,SSE,152,0.0,0.0,90,0.00,,---,0.00,VWS V14.00,2013-03-29 09:17:00,
2013-03-29 04:18:00,61.7,58.7,30.07,SSE,152,0.0,0.0,90,0.00,,---,0.00,VWS V14.00,2013-03-29 09:18:00,
2013-03-29 04:19:00,61.7,58.7,30.07,SSE,152,0.0,0.0,90,0.00,,---,0.00,VWS V14.00,2013-03-29 09:19:00,
2013-03-29 04:20:00,61.6,58.6,30.07,SSE,152,0.0,0.0,90,0.00,,---,0.00,VWS V14.00,2013-03-29 09:20:00,
2013-03-29 04:21:00,61.6,58.6,30.07,SSE,152,0.0,0.0,90,0.00,,---,0.00,VWS V14.00,2013-03-29 09:21:00,
2013-03-29 04:22:00,61.6,58.6,30.07,SSE,152,0.0,0.0,90,0.00,,---,0.00,VWS V14.00,2013-03-29 09:22:00,
2013-03-29 04:23:00,61.5,58.5,30.07,SSE,152,0.0,0.0,90,0.00,,---,0.00,VWS V14.00,2013-03-29 09:23:00,
2013-03-29 04:24:00,61.5,58.8,30.07,SSE,152,0.0,0.0,91,0.00,,---,0.00,VWS V14.00,2013-03-29 09:24:00,
2013-03-29 04:25:00,61.5,58.8,30.07,SSE,152,0.0,0.0,91,0.00,,---,0.00,VWS V14.00,2013-03-29 09:25:00,
2013-03-29 04:26:00,61.5,58.8,30.07,SSE,152,0.0,0.0,91,0.00,,---,0.00,VWS V14.00,2013-03-29 09:26:00,
2013-03-29 04:27:00,61.4,58.8,30.07,SSE,152,0.0,0.0,91,0.00,,---,0.00,VWS V14.00,2013-03-29 09:27:00,
2013-03-29 04:28:00,61.4,58.8,30.07,SSE,152,0.0,0.0,91,0.00,,---,0.00,VWS V14.00,2013-03-29 09:28:00,
2013-03-29 04:29:00,61.5,58.8,30.07,SSE,152,0.0,0.0,91,0.00,,---,0.00,VWS V14.00,2013-03-29 09:29:00,
2013-03-29 04:30:00,61.5,58.8,30.07,SSE,152,0.0,0.0,91,0.00,,---,0.00,VWS V14.00,2013-03-29 09:30:00,
2013-03-29 04:31:00,61.5,58.8,30.07,SSE,152,0.0,0.0,91,0.00,,---,0.00,VWS V14.00,2013-03-29 09:31:00,
2013-03-29 04:32:00,61.5,58.8,30.07,SSE,152,0.0,0.0,91,0.00,,---,0.00,VWS V14.00,2013-03-29 09:32:00,
2013-03-29 04:33:00,61.6,59.0,30.07,SSE,152,0.0,0.0,91,0.00,,---,0.00,VWS V14.00,2013-03-29 09:33:00,
2013-03-29 04:34:00,61.6,59.0,30.07,SSE,152,0.0,0.0,91,0.00,,---,0.00,VWS V14.00,2013-03-29 09:34:00,
2013-03-29 04:35:00,61.8,59.2,30.07,SSE,152,0.0,0.0,91,0.00,,---,0.00,VWS V14.00,2013-03-29 09:35:00,
2013-03-29 04:36:00,61.8,59.2,30.07,SSE,152,0.0,0.0,91,0.00,,---,0.00,VWS V14.00,2013-03-29 09:36:00,
2013-03-29 04:37:00,61.8,59.2,30.07,SSE,152,0.0,0.0,91,0.00,,---,0.00,VWS V14.00,2013-03-29 09:37:00,
2013-03-29 04:38:00,61.7,59.0,30.07,SSE,152,0.0,0.0,91,0.00,,---,0.00,VWS V14.00,2013-03-29 09:38:00,
2013-03-29 04:39:00,61.7,59.0,30.07,SSE,152,0.0,0.0,91,0.00,,---,0.00,VWS V14.00,2013-03-29 09:39:00,
2013-03-29 04:40:00,61.7,59.0,30.07,SSE,152,0.0,0.0,91,0.00,,---,0.00,VWS V14.00,2013-03-29 09:40:00,
2013-03-29 04:41:00,61.7,59.0,30.07,SSE,152,0.0,0.0,91,0.00,,---,0.00,VWS V14.00,2013-03-29 09:41:00,
2013-03-29 04:42:00,61.6,59.0,30.07,SSE,152,0.0,0.0,91,0.00,,---,0.00,VWS V14.00,2013-03-29 09:42:00,
2013-03-29 04:43:00,61.6,59.0,30.07,SSE,152,0.0,0.0,91,0.00,,---,0.00,VWS V14.00,2013-03-29 09:43:00,
2013-03-29 04:44:00,61.6,59.0,30.07,SSE,152,0.0,0.0,91,0.00,,---,0.00,VWS V14.00,2013-03-29 09:44:00,
2013-03-29 04:45:00,61.6,59.0,30.07,SSE,152,0.0,0.0,91,0.00,,---,0.00,VWS V14.00,2013-03-29 09:45:00,
2013-03-29 04:46:00,61.5,58.8,30.07,SSE,152,0.0,0.0,91,0.00,,---,0.00,VWS V14.00,2013-03-29 09:46:00,
2013-03-29 04:47:00,61.5,58.8,30.07,SSE,152,0.0,0.0,91,0.00,,---,0.00,VWS V14.00,2013-03-29 09:47:00,
2013-03-29 04:48:00,61.4,58.8,30.07,SSE,152,0.0,0.0,91,0.00,,---,0.00,VWS V14.00,2013-03-29 09:48:00,
2013-03-29 04:49:00,61.4,58.8,30.07,SSE,152,0.0,0.0,91,0.00,,---,0.00,VWS V14.00,2013-03-29 09:49:00,
2013-03-29 04:50:00,61.3,58.7,30.07,SSE,152,0.0,0.0,91,0.00,,---,0.00,VWS V14.00,2013-03-29 09:50:00,
2013-03-29 04:51:00,61.3,58.7,30.07,SSE,152,0.0,0.0,91,0.00,,---,0.00,VWS V14.00,2013-03-29 09:51:00,
2013-03-29 04:52:00,61.3,58.7,30.07,SSE,152,0.0,0.0,91,0.00,,---,0.00,VWS V14.00,2013-03-29 09:52:00,
2013-03-29 04:53:00,61.2,58.6,30.07,SSE,152,0.0,0.0,91,0.00,,---,0.00,VWS V14.00,2013-03-29 09:53:00,
2013-03-29 04:54:00,61.1,58.5,30.07,SSE,152,0.0,0.0,91,0.00,,---,0.00,VWS V14.00,2013-03-29 09:54:00,
2013-03-29 04:55:00,61.1,58.5,30.07,SSE,152,0.0,0.0,91,0.00,,---,0.00,VWS V14.00,2013-03-29 09:55:00,
2013-03-29 04:56:00,61.0,58.4,30.07,SSE,152,0.0,0.0,91,0.00,,---,0.00,VWS V14.00,2013-03-29 09:56:00,
2013-03-29 04:57:00,61.1,58.5,30.07,SSE,152,0.0,0.0,91,0.00,,---,0.00,VWS V14.00,2013-03-29 09:57:00,
2013-03-29 04:58:00,61.1,58.5,30.07,SSE,152,0.0,0.0,91,0.00,,---,0.00,VWS V14.00,2013-03-29 09:58:00,
2013-03-29 04:59:00,61.1,58.5,30.07,SSE,152,0.0,0.0,91,0.00,,---,0.00,VWS V14.00,2013-03-29 09:59:00,
2013-03-29 05:00:00,61.1,58.5,30.07,SSE,152,0.0,0.0,91,0.00,,---,0.00,VWS V14.00,2013-03-29 10:00:00,
2013-03-29 05:01:00,61.1,58.5,30.07,SSE,152,0.0,0.0,91,0.00,,---,0.00,VWS V14.00,2013-03-29 10:01:00,
2013-03-29 05:02:00,61.1,58.5,30.07,SSE,152,0.0,0.0,91,0.00,,---,0.00,VWS V14.00,2013-03-29 10:02:00,
2013-03-29 05:03:00,61.2,58.6,30.07,SSE,152,0.0,0.0,91,0.00,,---,0.00,VWS V14.00,2013-03-29 10:03:00,
2013-03-29 05:04:00,61.2,58.6,30.07,SSE,152,0.0,0.0,91,0.00,,---,0.00,VWS V14.00,2013-03-29 10:04:00,
2013-03-29 05:05:00,61.1,58.5,30.07,SSE,152,0.0,0.0,91,0.00,,---,0.00,VWS V14.00,2013-03-29 10:05:00,
2013-03-29 05:06:00,61.1,58.5,30.07,SSE,152,0.0,0.0,91,0.00,,---,0.00,VWS V14.00,2013-03-29 10:06:00,
2013-03-29 05:07:00,61.1,58.5,30.07,SSE,152,0.0,0.0,91,0.00,,---,0.00,VWS V14.00,2013-03-29 10:07:00,
2013-03-29 05:08:00,61.0,58.4,30.07,SSE,152,0.0,0.0,91,0.00,,---,0.00,VWS V14.00,2013-03-29 10:08:00,
2013-03-29 05:09:00,60.9,58.3,30.07,SSE,152,0.0,0.0,91,0.00,,---,0.00,VWS V14.00,2013-03-29 10:09:00,
2013-03-29 05:10:00,60.9,58.6,30.07,SSE,152,0.0,0.0,92,0.00,,---,0.00,VWS V14.00,2013-03-29 10:10:00,
2013-03-29 05:11:00,61.0,58.7,30.07,SSE,152,0.0,0.0,92,0.00,,---,0.00,VWS V14.00,2013-03-29 10:11:00,
2013-03-29 05:12:00,60.9,58.6,30.07,SSE,152,0.0,0.0,92,0.00,,---,0.00,VWS V14.00,2013-03-29 10:12:00,
2013-03-29 05:13:00,60.9,58.6,30.07,SSE,152,0.0,0.0,92,0.00,,---,0.00,VWS V14.00,2013-03-29 10:13:00,
2013-03-29 05:14:00,61.0,58.7,30.07,SSE,152,0.0,0.0,92,0.00,,---,0.00,VWS V14.00,2013-03-29 10:14:00,
2013-03-29 05:15:00,60.9,58.6,30.07,SSE,152,0.0,0.0,92,0.00,,---,0.00,VWS V14.00,2013-03-29 10:15:00,
2013-03-29 05:16:00,60.9,58.6,30.07,SSE,152,0.0,0.0,92,0.00,,---,0.00,VWS V14.00,2013-03-29 10:16:00,
2013-03-29 05:17:00,60.9,58.6,30.07,SSE,152,0.0,0.0,92,0.00,,---,0.00,VWS V14.00,2013-03-29 10:17:00,
2013-03-29 05:18:00,60.9,58.6,30.07,SSE,152,0.0,0.0,92,0.00,,---,0.00,VWS V14.00,2013-03-29 10:18:00,
2013-03-29 05:19:00,61.0,58.7,30.07,SSE,152,0.0,0.0,92,0.00,,---,0.00,VWS V14.00,2013-03-29 10:19:00,
2013-03-29 05:20:00,61.0,58.7,30.07,SSE,152,0.0,0.0,92,0.00,,---,0.00,VWS V14.00,2013-03-29 10:20:00,
2013-03-29 05:21:00,61.0,58.7,30.07,SSE,152,0.0,0.0,92,0.00,,---,0.00,VWS V14.00,2013-03-29 10:21:00,
2013-03-29 05:22:00,61.0,58.7,30.07,SSE,152,0.0,0.0,92,0.00,,---,0.00,VWS V14.00,2013-03-29 10:22:00,
2013-03-29 05:23:00,61.0,58.7,30.07,SSE,152,0.0,0.0,92,0.00,,---,0.00,VWS V14.00,2013-03-29 10:23:00,
2013-03-29 05:24:00,61.1,58.8,30.07,SSE,152,0.0,0.0,92,0.00,,---,0.00,VWS V14.00,2013-03-29 10:24:00,
2013-03-29 05:25:00,61.1,58.8,30.07,SSE,152,0.0,0.0,92,0.00,,---,0.00,VWS V14.00,2013-03-29 10:25:00,
2013-03-29 05:26:00,61.1,58.8,30.07,SSE,152,0.0,0.0,92,0.00,,---,0.00,VWS V14.00,2013-03-29 10:26:00,
2013-03-29 05:27:00,61.1,58.8,30.07,SSE,152,0.0,0.0,92,0.00,,---,0.00,VWS V14.00,2013-03-29 10:27:00,
2013-03-29 05:28:00,61.1,58.8,30.07,SSE,152,0.0,0.0,92,0.00,,---,0.00,VWS V14.00,2013-03-29 10:28:00,
2013-03-29 05:29:00,61.1,58.8,30.08,SSE,152,0.0,0.0,92,0.00,,---,0.00,VWS V14.00,2013-03-29 10:29:00,
2013-03-29 05:30:00,61.1,58.8,30.08,SSE,152,0.0,0.0,92,0.00,,---,0.00,VWS V14.00,2013-03-29 10:30:00,
2013-03-29 05:31:00,61.1,58.8,30.08,SSE,152,0.0,0.0,92,0.00,,---,0.00,VWS V14.00,2013-03-29 10:31:00,
2013-03-29 05:32:00,61.1,58.8,30.08,SSE,152,0.0,0.0,92,0.00,,---,0.00,VWS V14.00,2013-03-29 10:32:00,
2013-03-29 05:33:00,61.1,58.8,30.08,SSE,152,0.0,0.0,92,0.00,,---,0.00,VWS V14.00,2013-03-29 10:33:00,
2013-03-29 05:34:00,61.1,58.8,30.08,SSE,152,0.0,0.0,92,0.00,,---,0.00,VWS V14.00,2013-03-29 10:34:00,
2013-03-29 05:35:00,61.0,58.7,30.08,SSE,152,0.0,0.0,92,0.00,,---,0.00,VWS V14.00,2013-03-29 10:35:00,
2013-03-29 05:36:00,61.0,58.7,30.08,SSE,152,0.0,0.0,92,0.00,,---,0.00,VWS V14.00,2013-03-29 10:36:00,
2013-03-29 05:37:00,61.0,58.7,30.08,SSE,152,0.0,0.0,92,0.00,,---,0.00,VWS V14.00,2013-03-29 10:37:00,
2013-03-29 05:38:00,61.0,58.7,30.08,SSE,152,0.0,0.0,92,0.00,,---,0.00,VWS V14.00,2013-03-29 10:38:00,
2013-03-29 05:39:00,61.1,59.1,30.08,SSE,152,0.0,0.0,93,0.00,,---,0.00,VWS V14.00,2013-03-29 10:39:00,
2013-03-29 05:40:00,61.1,58.8,30.08,SSE,152,0.0,0.0,92,0.00,,---,0.00,VWS V14.00,2013-03-29 10:40:00,
2013-03-29 05:41:00,61.1,58.8,30.08,SSE,152,0.0,0.0,92,0.00,,---,0.00,VWS V14.00,2013-03-29 10:41:00,
2013-03-29 05:42:00,61.1,58.8,30.08,SSE,152,0.0,0.0,92,0.00,,---,0.00,VWS V14.00,2013-03-29 10:42:00,
2013-03-29 05:43:00,61.1,59.1,30.08,SSE,152,0.0,0.0,93,0.00,,---,0.00,VWS V14.00,2013-03-29 10:43:00,
2013-03-29 05:44:00,61.2,59.2,30.08,SSE,152,0.0,0.0,93,0.00,,---,0.00,VWS V14.00,2013-03-29 10:44:00,
2013-03-29 05:45:00,61.2,59.2,30.07,SSE,152,0.0,0.0,93,0.00,,---,0.00,VWS V14.00,2013-03-29 10:45:00,
2013-03-29 05:46:00,61.3,59.3,30.07,SSE,152,0.0,0.0,93,0.00,,---,0.00,VWS V14.00,2013-03-29 10:46:00,
2013-03-29 05:47:00,61.3,59.3,30.07,SSE,152,0.0,0.0,93,0.00,,---,0.00,VWS V14.00,2013-03-29 10:47:00,
2013-03-29 05:48:00,61.3,59.3,30.07,SSE,152,0.0,0.0,93,0.00,,---,0.00,VWS V14.00,2013-03-29 10:48:00,
2013-03-29 05:49:00,61.4,59.4,30.07,SSE,152,0.0,0.0,93,0.00,,---,0.00,VWS V14.00,2013-03-29 10:49:00,
2013-03-29 05:50:00,61.4,59.4,30.07,SSE,152,0.0,0.0,93,0.00,,---,0.00,VWS V14.00,2013-03-29 10:50:00,
2013-03-29 05:51:00,61.5,59.5,30.07,SSE,152,0.0,0.0,93,0.00,,---,0.00,VWS V14.00,2013-03-29 10:51:00,
2013-03-29 05:52:00,61.5,59.5,30.07,SSE,152,0.0,0.0,93,0.00,,---,0.00,VWS V14.00,2013-03-29 10:52:00,
2013-03-29 05:53:00,61.6,59.6,30.07,SSE,152,0.0,0.0,93,0.00,,---,0.00,VWS V14.00,2013-03-29 10:53:00,
2013-03-29 05:54:00,61.6,59.6,30.07,SSE,152,0.0,0.0,93,0.00,,---,0.00,VWS V14.00,2013-03-29 10:54:00,
2013-03-29 05:55:00,61.7,59.7,30.07,SSE,152,5.0,6.0,93,0.00,,---,0.00,VWS V14.00,2013-03-29 10:55:00,
2013-03-29 05:56:00,61.8,59.8,30.07,SSE,152,4.0,6.0,93,0.00,,---,0.00,VWS V14.00,2013-03-29 10:56:00,
2013-03-29 05:57:00,61.8,59.8,30.07,SSE,152,5.0,6.0,93,0.00,,---,0.00,VWS V14.00,2013-03-29 10:57:00,
2013-03-29 05:58:00,61.8,59.8,30.07,SSE,152,6.0,6.0,93,0.00,,---,0.00,VWS V14.00,2013-03-29 10:58:00,
2013-03-29 05:59:00,62.0,60.0,30.07,SSE,152,5.0,6.0,93,0.00,,---,0.00,VWS V14.00,2013-03-29 10:59:00,
2013-03-29 06:00:00,62.0,60.0,30.07,SSE,152,4.0,6.0,93,0.00,,---,0.00,VWS V14.00,2013-03-29 11:00:00,
2013-03-29 06:01:00,62.0,60.0,30.07,SSE,152,6.0,6.0,93,0.00,,---,0.00,VWS V14.00,2013-03-29 11:01:00,
2013-03-29 06:02:00,62.0,60.0,30.07,SSE,152,5.0,6.0,93,0.00,,---,0.00,VWS V14.00,2013-03-29 11:02:00,
2013-03-29 06:03:00,62.1,60.1,30.07,SSE,152,6.0,7.0,93,0.00,,---,0.00,VWS V14.00,2013-03-29 11:03:00,
2013-03-29 06:04:00,62.1,60.1,30.07,SSE,152,5.0,7.0,93,0.00,,---,0.00,VWS V14.00,2013-03-29 11:04:00,
2013-03-29 06:05:00,62.1,60.1,30.07,SSE,152,5.0,6.0,93,0.00,,---,0.00,VWS V14.00,2013-03-29 11:05:00,
2013-03-29 06:06:00,62.1,60.1,30.07,SSE,152,5.0,6.0,93,0.00,,---,0.00,VWS V14.00,2013-03-29 11:06:00,
2013-03-29 06:07:00,62.2,60.2,30.07,SSE,152,7.0,7.0,93,0.00,,---,0.00,VWS V14.00,2013-03-29 11:07:00,
2013-03-29 06:08:00,62.2,60.2,30.07,SSE,152,6.0,7.0,93,0.00,,---,0.00,VWS V14.00,2013-03-29 11:08:00,
2013-03-29 06:09:00,62.2,60.2,30.07,SSE,152,7.0,7.0,93,0.00,,---,0.00,VWS V14.00,2013-03-29 11:09:00,
2013-03-29 06:10:00,62.2,60.2,30.07,SSE,152,5.0,7.0,93,0.00,,---,0.00,VWS V14.00,2013-03-29 11:10:00,
2013-03-29 06:11:00,62.2,60.2,30.07,SSE,152,6.0,7.0,93,0.00,,---,0.00,VWS V14.00,2013-03-29 11:11:00,
2013-03-29 06:12:00,62.3,60.2,30.07,SSE,152,6.0,7.0,93,0.00,,---,0.00,VWS V14.00,2013-03-29 11:12:00,
2013-03-29 06:13:00,62.3,60.2,30.07,SSE,152,6.0,7.0,93,0.00,,---,0.00,VWS V14.00,2013-03-29 11:13:00,
2013-03-29 06:14:00,62.3,60.2,30.07,SSE,152,6.0,7.0,93,0.00,,---,0.00,VWS V14.00,2013-03-29 11:14:00,
2013-03-29 06:15:00,62.4,60.3,30.07,SSE,152,6.0,7.0,93,0.00,,---,0.00,VWS V14.00,2013-03-29 11:15:00,
2013-03-29 06:16:00,62.4,60.3,30.07,SSE,152,6.0,7.0,93,0.00,,---,0.00,VWS V14.00,2013-03-29 11:16:00,
2013-03-29 06:17:00,62.4,60.3,30.07,SSE,152,6.0,7.0,93,0.00,,---,0.00,VWS V14.00,2013-03-29 11:17:00,
2013-03-29 06:18:00,62.4,60.3,30.07,SSE,152,6.0,7.0,93,0.00,,---,0.00,VWS V14.00,2013-03-29 11:18:00,
2013-03-29 06:19:00,62.4,60.3,30.07,SSE,152,6.0,7.0,93,0.00,,---,0.00,VWS V14.00,2013-03-29 11:19:00,
2013-03-29 06:20:00,62.4,60.3,30.07,SSE,152,6.0,7.0,93,0.00,,---,0.00,VWS V14.00,2013-03-29 11:20:00,
2013-03-29 06:21:00,62.4,60.3,30.07,SSE,152,6.0,7.0,93,0.00,,---,0.00,VWS V14.00,2013-03-29 11:21:00,
2013-03-29 06:22:00,62.5,60.5,30.07,SSE,152,7.0,8.0,93,0.00,,---,0.00,VWS V14.00,2013-03-29 11:22:00,
2013-03-29 06:23:00,62.5,60.5,30.07,SSE,152,6.0,8.0,93,0.00,,---,0.00,VWS V14.00,2013-03-29 11:23:00,
2013-03-29 06:24:00,62.5,60.5,30.07,SSE,152,6.0,7.0,93,0.00,,---,0.00,VWS V14.00,2013-03-29 11:24:00,
2013-03-29 06:25:00,62.5,60.5,30.07,SSE,152,5.0,7.0,93,0.00,,---,0.00,VWS V14.00,2013-03-29 11:25:00,
2013-03-29 06:26:00,62.5,60.5,30.07,SSE,152,6.0,7.0,93,0.00,,---,0.00,VWS V14.00,2013-03-29 11:26:00,
2013-03-29 06:27:00,62.5,60.5,30.07,SSE,152,7.0,8.0,93,0.00,,---,0.00,VWS V14.00,2013-03-29 11:27:00,
2013-03-29 06:28:00,62.6,60.5,30.07,SSE,152,7.0,8.0,93,0.00,,---,0.00,VWS V14.00,2013-03-29 11:28:00,
2013-03-29 06:29:00,62.6,60.5,30.07,SSE,152,7.0,8.0,93,0.00,,---,0.00,VWS V14.00,2013-03-29 11:29:00,
2013-03-29 06:30:00,62.6,60.5,30.07,SSE,152,7.0,9.0,93,0.00,,---,0.00,VWS V14.00,2013-03-29 11:30:00,
2013-03-29 06:31:00,62.6,60.5,30.07,SSE,152,6.0,9.0,93,0.00,,---,0.00,VWS V14.00,2013-03-29 11:31:00,
2013-03-29 06:32:00,62.7,60.7,30.07,SSE,152,8.0,8.0,93,0.00,,---,0.00,VWS V14.00,2013-03-29 11:32:00,
2013-03-29 06:33:00,62.7,60.7,30.07,SSE,152,8.0,8.0,93,0.00,,---,0.00,VWS V14.00,2013-03-29 11:33:00,
2013-03-29 06:34:00,62.7,60.7,30.07,SSE,152,7.0,8.0,93,0.00,,---,0.00,VWS V14.00,2013-03-29 11:34:00,
2013-03-29 06:35:00,62.7,60.7,30.07,SSE,152,8.0,9.0,93,0.00,,---,0.00,VWS V14.00,2013-03-29 11:35:00,
2013-03-29 06:36:00,62.7,60.7,30.07,SSE,152,8.0,9.0,93,0.00,,---,0.00,VWS V14.00,2013-03-29 11:36:00,
2013-03-29 06:37:00,62.8,60.8,30.07,SSE,152,7.0,9.0,93,0.00,,---,0.00,VWS V14.00,2013-03-29 11:37:00,
2013-03-29 06:38:00,62.8,60.8,30.07,SSE,152,8.0,8.0,93,0.00,,---,0.00,VWS V14.00,2013-03-29 11:38:00,
2013-03-29 06:39:00,62.8,60.8,30.07,SSE,152,7.0,9.0,93,0.00,,---,0.00,VWS V14.00,2013-03-29 11:39:00,
2013-03-29 06:40:00,62.8,60.8,30.07,SSE,152,6.0,8.0,93,0.00,,---,0.00,VWS V14.00,2013-03-29 11:40:00,
2013-03-29 06:41:00,62.8,60.8,30.07,SSE,152,6.0,7.0,93,0.00,,---,0.00,VWS V14.00,2013-03-29 11:41:00,
2013-03-29 06:42:00,62.8,60.8,30.07,SSE,152,7.0,8.0,93,0.00,,---,0.00,VWS V14.00,2013-03-29 11:42:00,
2013-03-29 06:43:00,62.8,60.8,30.07,SSE,152,7.0,7.0,93,0.00,,---,0.00,VWS V14.00,2013-03-29 11:43:00,
2013-03-29 06:44:00,62.8,60.8,30.07,SSE,152,7.0,8.0,93,0.00,,---,0.00,VWS V14.00,2013-03-29 11:44:00,
2013-03-29 06:45:00,62.8,60.8,30.07,SSE,152,8.0,8.0,93,0.00,,---,0.00,VWS V14.00,2013-03-29 11:45:00,
2013-03-29 06:46:00,62.8,60.8,30.07,SSE,152,6.0,8.0,93,0.00,,---,0.00,VWS V14.00,2013-03-29 11:46:00,
2013-03-29 06:47:00,62.8,60.8,30.07,SSE,152,7.0,8.0,93,0.00,,---,0.00,VWS V14.00,2013-03-29 11:47:00,
2013-03-29 06:48:00,62.8,60.8,30.07,SSE,152,7.0,8.0,93,0.00,,---,0.00,VWS V14.00,2013-03-29 11:48:00,
2013-03-29 06:49:00,62.8,60.8,30.07,SSE,152,8.0,8.0,93,0.00,,---,0.00,VWS V14.00,2013-03-29 11:49:00,
2013-03-29 06:50:00,62.9,60.8,30.07,SSE,152,8.0,9.0,93,0.00,,---,0.00,VWS V14.00,2013-03-29 11:50:00,
2013-03-29 06:51:00,62.8,60.8,30.07,SSE,152,7.0,9.0,93,0.00,,---,0.00,VWS V14.00,2013-03-29 11:51:00,
2013-03-29 06:52:00,62.9,60.8,30.07,SSE,152,6.0,8.0,93,0.00,,---,0.00,VWS V14.00,2013-03-29 11:52:00,
2013-03-29 06:54:00,62.9,60.5,30.07,SSE,152,7.0,8.0,92,0.00,,---,0.00,VWS V14.00,2013-03-29 11:54:00,
2013-03-29 06:55:00,62.7,60.3,30.07,SSE,152,6.0,8.0,92,0.00,,---,0.00,VWS V14.00,2013-03-29 11:55:00,
2013-03-29 06:56:00,62.8,60.5,30.07,SSE,152,8.0,9.0,92,0.00,,---,0.00,VWS V14.00,2013-03-29 11:56:00,
2013-03-29 06:57:00,62.8,60.5,30.07,SSE,152,6.0,8.0,92,0.00,,---,0.00,VWS V14.00,2013-03-29 11:57:00,
2013-03-29 06:58:00,62.7,60.3,30.07,SSE,152,6.0,8.0,92,0.00,,---,0.00,VWS V14.00,2013-03-29 11:58:00,
2013-03-29 07:00:00,62.5,60.2,30.08,SSE,152,7.0,8.0,92,0.00,,---,0.00,VWS V14.00,2013-03-29 12:00:00,
2013-03-29 07:01:00,62.6,60.2,30.07,SSE,152,5.0,7.0,92,0.00,,---,0.00,VWS V14.00,2013-03-29 12:01:00,
2013-03-29 07:02:00,62.5,60.2,30.07,SSE,152,6.0,7.0,92,0.00,,---,0.00,VWS V14.00,2013-03-29 12:02:00,
2013-03-29 07:03:00,62.5,60.2,30.08,SSE,152,7.0,8.0,92,0.00,,---,0.00,VWS V14.00,2013-03-29 12:03:00,
2013-03-29 07:04:00,62.6,60.5,30.08,SSE,152,7.0,8.0,93,0.00,,---,0.00,VWS V14.00,2013-03-29 12:04:00,
2013-03-29 07:05:00,62.5,60.2,30.08,SSE,152,6.0,7.0,92,0.00,,---,0.00,VWS V14.00,2013-03-29 12:05:00,
2013-03-29 07:06:00,62.6,60.2,30.08,SSE,152,6.0,7.0,92,0.00,,---,0.00,VWS V14.00,2013-03-29 12:06:00,
2013-03-29 07:07:00,62.5,60.2,30.08,SSE,152,6.0,7.0,92,0.00,,---,0.00,VWS V14.00,2013-03-29 12:07:00,
2013-03-29 07:08:00,62.5,60.2,30.08,SSE,152,6.0,7.0,92,0.00,,---,0.00,VWS V14.00,2013-03-29 12:08:00,
2013-03-29 07:09:00,62.5,60.5,30.08,SSE,152,7.0,8.0,93,0.00,,---,0.00,VWS V14.00,2013-03-29 12:09:00,
2013-03-29 07:10:00,62.5,60.5,30.08,SSE,152,6.0,6.0,93,0.00,,---,0.00,VWS V14.00,2013-03-29 12:10:00,
2013-03-29 07:11:00,62.5,60.5,30.08,SSE,152,6.0,8.0,93,0.00,,---,0.00,VWS V14.00,2013-03-29 12:11:00,
2013-03-29 07:12:00,62.5,60.2,30.08,SSE,152,6.0,7.0,92,0.00,,---,0.00,VWS V14.00,2013-03-29 12:12:00,
2013-03-29 07:13:00,62.5,60.5,30.08,SSE,152,6.0,6.0,93,0.00,,---,0.00,VWS V14.00,2013-03-29 12:13:00,
2013-03-29 07:14:00,62.5,60.2,30.08,SE,128,6.0,7.0,92,0.00,,---,0.00,VWS V14.00,2013-03-29 12:14:00,
2013-03-29 07:15:00,62.6,60.2,30.08,SE,128,7.0,7.0,92,0.00,,---,0.00,VWS V14.00,2013-03-29 12:15:00,
2013-03-29 07:16:00,62.6,60.5,30.08,SE,128,6.0,7.0,93,0.00,,---,0.00,VWS V14.00,2013-03-29 12:16:00,
2013-03-29 07:17:00,62.6,60.5,30.08,SE,128,6.0,7.0,93,0.00,,---,0.00,VWS V14.00,2013-03-29 12:17:00,
2013-03-29 07:18:00,62.6,60.2,30.08,SE,128,7.0,7.0,92,0.00,,---,0.00,VWS V14.00,2013-03-29 12:18:00,
2013-03-29 07:19:00,62.6,60.5,30.08,SE,128,6.0,7.0,93,0.00,,---,0.00,VWS V14.00,2013-03-29 12:19:00,
2013-03-29 07:20:00,62.7,60.3,30.08,SE,128,6.0,6.0,92,0.00,,---,0.00,VWS V14.00,2013-03-29 12:20:00,
2013-03-29 07:21:00,62.6,60.5,30.08,SE,128,8.0,8.0,93,0.00,,---,0.00,VWS V14.00,2013-03-29 12:21:00,
2013-03-29 07:22:00,62.7,60.7,30.08,SE,128,5.0,8.0,93,0.00,,---,0.00,VWS V14.00,2013-03-29 12:22:00,
2013-03-29 07:23:00,62.7,60.3,30.08,SE,128,6.0,7.0,92,0.00,,---,0.00,VWS V14.00,2013-03-29 12:23:00,
2013-03-29 07:24:00,62.7,60.3,30.08,SE,128,6.0,7.0,92,0.00,,---,0.00,VWS V14.00,2013-03-29 12:24:00,
2013-03-29 07:25:00,62.5,60.2,30.08,SE,128,4.0,5.0,92,0.00,,---,0.00,VWS V14.00,2013-03-29 12:25:00,
2013-03-29 07:26:00,62.6,60.2,30.08,SE,128,5.0,7.0,92,0.00,,---,0.00,VWS V14.00,2013-03-29 12:26:00,
2013-03-29 07:27:00,62.6,60.2,30.08,SE,128,4.0,7.0,92,0.00,,---,0.00,VWS V14.00,2013-03-29 12:27:00,
2013-03-29 07:28:00,62.5,60.2,30.08,SE,128,5.0,7.0,92,0.00,,---,0.00,VWS V14.00,2013-03-29 12:28:00,
2013-03-29 07:29:00,62.5,60.2,30.08,SE,128,6.0,7.0,92,0.00,,---,0.00,VWS V14.00,2013-03-29 12:29:00,
2013-03-29 07:30:00,62.6,60.5,30.08,SE,128,6.0,7.0,93,0.00,,---,0.00,VWS V14.00,2013-03-29 12:30:00,
2013-03-29 07:31:00,62.6,60.5,30.08,SE,128,5.0,8.0,93,0.00,,---,0.00,VWS V14.00,2013-03-29 12:31:00,
2013-03-29 07:32:00,62.6,60.5,30.08,SE,128,6.0,7.0,93,0.00,,---,0.00,VWS V14.00,2013-03-29 12:32:00,
2013-03-29 07:33:00,62.6,60.5,30.08,SE,128,7.0,7.0,93,0.00,,---,0.00,VWS V14.00,2013-03-29 12:33:00,
2013-03-29 07:34:00,62.6,60.5,30.08,SE,128,7.0,9.0,93,0.00,,---,0.00,VWS V14.00,2013-03-29 12:34:00,
2013-03-29 07:35:00,62.7,60.3,30.08,SE,128,6.0,7.0,92,0.00,,---,0.00,VWS V14.00,2013-03-29 12:35:00,
2013-03-29 07:36:00,62.7,60.3,30.08,SE,128,6.0,7.0,92,0.00,,---,0.00,VWS V14.00,2013-03-29 12:36:00,
2013-03-29 07:37:00,62.7,60.7,30.08,SE,128,7.0,8.0,93,0.00,,---,0.00,VWS V14.00,2013-03-29 12:37:00,
2013-03-29 07:38:00,62.7,60.3,30.08,SE,128,6.0,7.0,92,0.00,,---,0.00,VWS V14.00,2013-03-29 12:38:00,
2013-03-29 07:39:00,62.7,60.3,30.08,SE,128,7.0,7.0,92,0.00,,---,0.00,VWS V14.00,2013-03-29 12:39:00,
2013-03-29 07:40:00,62.9,60.8,30.09,SE,128,7.0,11.0,93,0.00,,---,0.00,VWS V14.00,2013-03-29 12:40:00,
2013-03-29 07:41:00,62.7,60.3,30.08,SE,128,6.0,7.0,92,0.00,,---,0.00,VWS V14.00,2013-03-29 12:41:00,
2013-03-29 07:42:00,62.8,60.8,30.08,SE,128,7.0,8.0,93,0.00,,---,0.00,VWS V14.00,2013-03-29 12:42:00,
2013-03-29 07:43:00,62.8,60.8,30.08,SE,128,8.0,9.0,93,0.00,,---,0.00,VWS V14.00,2013-03-29 12:43:00,
2013-03-29 07:44:00,63.0,61.0,30.09,SE,128,6.0,11.0,93,0.00,,---,0.00,VWS V14.00,2013-03-29 12:44:00,
2013-03-29 07:45:00,63.0,61.0,30.09,SE,128,7.0,7.0,93,0.00,,---,0.00,VWS V14.00,2013-03-29 12:45:00,
2013-03-29 07:46:00,63.2,61.2,30.09,SE,128,7.0,8.0,93,0.00,,---,0.00,VWS V14.00,2013-03-29 12:46:00,
2013-03-29 07:47:00,63.1,61.0,30.09,SE,128,6.0,9.0,93,0.00,,---,0.00,VWS V14.00,2013-03-29 12:47:00,
2013-03-29 07:48:00,63.2,61.2,30.09,SE,128,7.0,8.0,93,0.00,,---,0.00,VWS V14.00,2013-03-29 12:48:00,
2013-03-29 07:49:00,63.2,61.2,30.09,SE,128,8.0,8.0,93,0.00,,---,0.00,VWS V14.00,2013-03-29 12:49:00,
2013-03-29 07:50:00,63.2,61.2,30.09,SE,128,6.0,8.0,93,0.00,,---,0.00,VWS V14.00,2013-03-29 12:50:00,
2013-03-29 07:51:00,63.4,61.3,30.09,SE,128,8.0,8.0,93,0.00,,---,0.00,VWS V14.00,2013-03-29 12:51:00,
2013-03-29 07:52:00,63.3,61.2,30.09,SE,128,7.0,9.0,93,0.00,,---,0.00,VWS V14.00,2013-03-29 12:52:00,
2013-03-29 07:53:00,63.4,61.3,30.09,SE,128,6.0,8.0,93,0.00,,---,0.00,VWS V14.00,2013-03-29 12:53:00,
2013-03-29 07:54:00,63.4,61.3,30.09,SE,128,7.0,11.0,93,0.00,,---,0.00,VWS V14.00,2013-03-29 12:54:00,
2013-03-29 07:55:00,63.5,61.4,30.09,SE,128,6.0,8.0,93,0.00,,---,0.00,VWS V14.00,2013-03-29 12:55:00,
2013-03-29 07:56:00,63.8,61.7,30.09,SE,128,7.0,8.0,93,0.00,,---,0.00,VWS V14.00,2013-03-29 12:56:00,
2013-03-29 07:57:00,63.7,61.6,30.09,SE,128,6.0,8.0,93,0.00,,---,0.00,VWS V14.00,2013-03-29 12:57:00,
2013-03-29 07:58:00,63.8,61.7,30.09,SE,128,7.0,8.0,93,0.00,,---,0.00,VWS V14.00,2013-03-29 12:58:00,
2013-03-29 07:59:00,63.8,61.7,30.09,SE,128,8.0,8.0,93,0.00,,---,0.00,VWS V14.00,2013-03-29 12:59:00,
2013-03-29 08:00:00,64.0,61.9,30.09,SE,128,7.0,9.0,93,0.00,,---,0.00,VWS V14.00,2013-03-29 13:00:00,
2013-03-29 08:01:00,64.3,62.2,30.09,SE,130,8.0,9.0,93,0.00,,---,0.00,VWS V14.00,2013-03-29 13:01:00,
2013-03-29 08:02:00,64.1,62.0,30.09,ESE,122,7.0,9.0,93,0.00,,---,0.00,VWS V14.00,2013-03-29 13:02:00,
2013-03-29 08:03:00,64.3,62.2,30.09,SE,127,7.0,11.0,93,0.00,,---,0.00,VWS V14.00,2013-03-29 13:03:00,
2013-03-29 08:04:00,64.3,62.2,30.09,SE,130,8.0,9.0,93,0.00,,---,0.00,VWS V14.00,2013-03-29 13:04:00,
2013-03-29 08:05:00,64.5,62.4,30.09,SE,130,8.0,11.0,93,0.00,,---,0.00,VWS V14.00,2013-03-29 13:05:00,
2013-03-29 08:06:00,64.8,62.7,30.09,SE,130,8.0,8.0,93,0.00,,---,0.00,VWS V14.00,2013-03-29 13:06:00,
2013-03-29 08:07:00,64.6,62.5,30.09,SE,130,8.0,9.0,93,0.00,,---,0.00,VWS V14.00,2013-03-29 13:07:00,
2013-03-29 08:08:00,64.7,62.6,30.09,SE,130,9.0,9.0,93,0.00,,---,0.00,VWS V14.00,2013-03-29 13:08:00,
2013-03-29 08:09:00,64.8,62.7,30.09,SE,130,7.0,11.0,93,0.00,,---,0.00,VWS V14.00,2013-03-29 13:09:00,
2013-03-29 08:10:00,64.9,62.8,30.09,SE,130,7.0,9.0,93,0.00,,---,0.00,VWS V14.00,2013-03-29 13:10:00,
2013-03-29 08:11:00,65.2,62.8,30.09,SE,130,7.0,8.0,92,0.00,,---,0.00,VWS V14.00,2013-03-29 13:11:00,
2013-03-29 08:12:00,65.1,62.7,30.09,SE,130,9.0,12.0,92,0.00,,---,0.00,VWS V14.00,2013-03-29 13:12:00,
2013-03-29 08:13:00,65.1,63.0,30.09,SE,130,8.0,11.0,93,0.00,,---,0.00,VWS V14.00,2013-03-29 13:13:00,
2013-03-29 08:14:00,65.2,62.8,30.10,SE,130,8.0,9.0,92,0.00,,---,0.00,VWS V14.00,2013-03-29 13:14:00,
2013-03-29 08:15:00,65.3,62.9,30.09,SE,130,9.0,9.0,92,0.00,,---,0.00,VWS V14.00,2013-03-29 13:15:00,
2013-03-29 08:16:00,65.4,63.0,30.10,SE,130,8.0,8.0,92,0.00,,---,0.00,VWS V14.00,2013-03-29 13:16:00,
2013-03-29 08:17:00,65.3,62.9,30.10,SE,130,6.0,11.0,92,0.00,,---,0.00,VWS V14.00,2013-03-29 13:17:00,
2013-03-29 08:20:00,65.5,63.1,30.10,SE,130,6.0,11.0,92,0.00,,---,0.00,VWS V14.00,2013-03-29 13:20:00,
2013-03-29 08:21:00,65.8,63.4,30.10,SE,130,8.0,9.0,92,0.00,,---,0.00,VWS V14.00,2013-03-29 13:21:00,
2013-03-29 08:22:00,65.6,63.2,30.10,SE,130,9.0,11.0,92,0.00,,---,0.00,VWS V14.00,2013-03-29 13:22:00,
2013-03-29 08:23:00,65.7,63.3,30.10,SE,130,9.0,12.0,92,0.00,,---,0.00,VWS V14.00,2013-03-29 13:23:00,
2013-03-29 08:24:00,65.8,63.4,30.10,SE,130,8.0,9.0,92,0.00,,---,0.00,VWS V14.00,2013-03-29 13:24:00,
2013-03-29 08:25:00,65.9,63.5,30.10,SE,130,9.0,12.0,92,0.00,,---,0.00,VWS V14.00,2013-03-29 13:25:00,
2013-03-29 08:26:00,66.4,64.0,30.10,SE,130,9.0,11.0,92,0.00,,---,0.00,VWS V14.00,2013-03-29 13:26:00,
2013-03-29 08:27:00,66.1,63.7,30.10,SE,130,7.0,8.0,92,0.00,,---,0.00,VWS V14.00,2013-03-29 13:27:00,
2013-03-29 08:28:00,66.2,63.8,30.10,SE,130,8.0,8.0,92,0.00,,---,0.00,VWS V14.00,2013-03-29 13:28:00,
2013-03-29 08:29:00,66.3,63.9,30.10,SE,130,11.0,11.0,92,0.00,,---,0.00,VWS V14.00,2013-03-29 13:29:00,
2013-03-29 08:30:00,66.4,64.0,30.10,SE,130,6.0,11.0,92,0.00,,---,0.00,VWS V14.00,2013-03-29 13:30:00,
2013-03-29 08:31:00,66.8,64.1,30.10,SE,130,11.0,11.0,91,0.00,,---,0.00,VWS V14.00,2013-03-29 13:31:00,
2013-03-29 08:32:00,66.7,64.3,30.10,SE,130,8.0,11.0,92,0.00,,---,0.00,VWS V14.00,2013-03-29 13:32:00,
2013-03-29 08:33:00,66.8,64.1,30.10,SE,130,11.0,13.0,91,0.00,,---,0.00,VWS V14.00,2013-03-29 13:33:00,
2013-03-29 08:34:00,66.8,64.1,30.10,SE,130,8.0,12.0,91,0.00,,---,0.00,VWS V14.00,2013-03-29 13:34:00,
2013-03-29 08:35:00,66.9,64.2,30.10,SE,130,9.0,12.0,91,0.00,,---,0.00,VWS V14.00,2013-03-29 13:35:00,
2013-03-29 08:36:00,67.4,64.7,30.10,SE,130,12.0,12.0,91,0.00,,---,0.00,VWS V14.00,2013-03-29 13:36:00,
2013-03-29 08:37:00,67.1,64.4,30.10,SE,130,9.0,12.0,91,0.00,,---,0.00,VWS V14.00,2013-03-29 13:37:00,
2013-03-29 08:38:00,67.1,64.4,30.10,SE,130,8.0,13.0,91,0.00,,---,0.00,VWS V14.00,2013-03-29 13:38:00,
2013-03-29 08:39:00,67.3,64.6,30.10,SE,130,8.0,9.0,91,0.00,,---,0.00,VWS V14.00,2013-03-29 13:39:00,
2013-03-29 08:40:00,67.4,64.4,30.10,SE,130,11.0,12.0,90,0.00,,---,0.00,VWS V14.00,2013-03-29 13:40:00,
2013-03-29 08:41:00,67.5,64.5,30.10,SE,130,11.0,14.0,90,0.00,,---,0.00,VWS V14.00,2013-03-29 13:41:00,
2013-03-29 08:42:00,67.7,64.7,30.10,SE,130,11.0,14.0,90,0.00,,---,0.00,VWS V14.00,2013-03-29 13:42:00,
2013-03-29 08:43:00,67.6,64.6,30.10,SE,130,9.0,12.0,90,0.00,,---,0.00,VWS V14.00,2013-03-29 13:43:00,
2013-03-29 08:44:00,67.7,64.7,30.10,SE,130,12.0,14.0,90,0.00,,---,0.00,VWS V14.00,2013-03-29 13:44:00,
2013-03-29 08:45:00,67.7,64.7,30.10,SE,130,12.0,14.0,90,0.00,,---,0.00,VWS V14.00,2013-03-29 13:45:00,
2013-03-29 08:46:00,67.9,64.9,30.10,SE,130,11.0,12.0,90,0.00,,---,0.00,VWS V14.00,2013-03-29 13:46:00,
2013-03-29 08:47:00,68.3,64.9,30.10,SE,130,11.0,14.0,89,0.00,,---,0.00,VWS V14.00,2013-03-29 13:47:00,
2013-03-29 08:48:00,68.1,64.7,30.10,SE,130,8.0,13.0,89,0.00,,---,0.00,VWS V14.00,2013-03-29 13:48:00,
2013-03-29 08:49:00,68.3,65.3,30.10,SE,130,9.0,14.0,90,0.00,,---,0.00,VWS V14.00,2013-03-29 13:49:00,
2013-03-29 08:50:00,68.3,64.9,30.10,SE,130,12.0,14.0,89,0.00,,---,0.00,VWS V14.00,2013-03-29 13:50:00,
2013-03-29 08:51:00,68.5,65.1,30.10,SE,130,12.0,13.0,89,0.00,,---,0.00,VWS V14.00,2013-03-29 13:51:00,
2013-03-29 08:52:00,68.8,65.1,30.10,SE,132,11.0,13.0,88,0.00,,---,0.00,VWS V14.00,2013-03-29 13:52:00,
2013-03-29 08:53:00,68.7,65.3,30.10,SE,130,8.0,14.0,89,0.00,,---,0.00,VWS V14.00,2013-03-29 13:53:00,
2013-03-29 08:54:00,68.8,65.4,30.10,SE,132,9.0,13.0,89,0.00,,---,0.00,VWS V14.00,2013-03-29 13:54:00,
2013-03-29 08:55:00,68.8,65.1,30.10,SE,132,13.0,13.0,88,0.00,,---,0.00,VWS V14.00,2013-03-29 13:55:00,
2013-03-29 08:56:00,68.9,65.2,30.10,SE,134,11.0,14.0,88,0.00,,---,0.00,VWS V14.00,2013-03-29 13:56:00,
2013-03-29 08:57:00,69.1,65.1,30.10,SE,133,12.0,13.0,87,0.00,,---,0.00,VWS V14.00,2013-03-29 13:57:00,
2013-03-29 08:58:00,69.0,65.3,30.10,SE,134,9.0,14.0,88,0.00,,---,0.00,VWS V14.00,2013-03-29 13:58:00,
2013-03-29 08:59:00,69.0,65.0,30.10,SE,133,8.0,12.0,87,0.00,,---,0.00,VWS V14.00,2013-03-29 13:59:00,
2013-03-29 09:00:00,69.1,65.1,30.10,SE,133,9.0,13.0,87,0.00,,---,0.00,VWS V14.00,2013-03-29 14:00:00,
2013-03-29 09:01:00,69.2,65.2,30.10,SE,134,9.0,13.0,87,0.00,,---,0.00,VWS V14.00,2013-03-29 14:01:00,
2013-03-29 09:02:00,69.1,64.7,30.10,SE,136,11.0,15.0,86,0.00,,---,0.00,VWS V14.00,2013-03-29 14:02:00,
2013-03-29 09:03:00,69.2,64.8,30.10,SE,133,12.0,14.0,86,0.00,,---,0.00,VWS V14.00,2013-03-29 14:03:00,
2013-03-29 09:04:00,69.1,64.7,30.10,SE,135,12.0,14.0,86,0.00,,---,0.00,VWS V14.00,2013-03-29 14:04:00,
2013-03-29 09:05:00,69.1,64.7,30.10,SE,136,8.0,15.0,86,0.00,,---,0.00,VWS V14.00,2013-03-29 14:05:00,
2013-03-29 09:06:00,69.2,64.8,30.10,SE,136,10.0,12.0,86,0.00,,---,0.00,VWS V14.00,2013-03-29 14:06:00,
2013-03-29 09:07:00,69.5,65.1,30.10,SE,134,13.0,14.0,86,0.00,,---,0.00,VWS V14.00,2013-03-29 14:07:00,
2013-03-29 09:08:00,69.3,64.9,30.10,SE,136,12.0,12.0,86,0.00,,---,0.00,VWS V14.00,2013-03-29 14:08:00,
2013-03-29 09:09:00,69.3,64.6,30.10,SE,134,11.0,13.0,85,0.00,,---,0.00,VWS V14.00,2013-03-29 14:09:00,
2013-03-29 09:10:00,69.5,65.1,30.10,SE,134,13.0,14.0,86,0.00,,---,0.00,VWS V14.00,2013-03-29 14:10:00,
2013-03-29 09:11:00,69.6,64.9,30.10,SE,135,12.0,14.0,85,0.00,,---,0.00,VWS V14.00,2013-03-29 14:11:00,
2013-03-29 09:12:00,70.0,64.9,30.10,SE,144,11.0,14.0,84,0.00,,---,0.00,VWS V14.00,2013-03-29 14:12:00,
2013-03-29 09:13:00,69.9,65.2,30.10,SE,136,11.0,13.0,85,0.00,,---,0.00,VWS V14.00,2013-03-29 14:13:00,
2013-03-29 09:14:00,70.0,64.9,30.10,SE,137,13.0,14.0,84,0.00,,---,0.00,VWS V14.00,2013-03-29 14:14:00,
2013-03-29 09:15:00,70.0,64.9,30.10,SE,144,11.0,14.0,84,0.00,,---,0.00,VWS V14.00,2013-03-29 14:15:00,
2013-03-29 09:16:00,70.1,65.1,30.10,SE,144,8.0,13.0,84,0.00,,---,0.00,VWS V14.00,2013-03-29 14:16:00,
2013-03-29 09:17:00,70.4,64.7,30.10,SSE,147,8.0,15.0,82,0.00,,---,0.00,VWS V14.00,2013-03-29 14:17:00,
2013-03-29 09:18:00,70.2,64.8,30.10,SE,140,11.0,14.0,83,0.00,,---,0.00,VWS V14.00,2013-03-29 14:18:00,
2013-03-29 09:19:00,70.3,64.9,30.10,SE,146,14.0,15.0,83,0.00,,---,0.00,VWS V14.00,2013-03-29 14:19:00,
2013-03-29 09:20:00,70.4,64.7,30.10,SSE,147,8.0,15.0,82,0.00,,---,0.00,VWS V14.00,2013-03-29 14:20:00,
2013-03-29 09:21:00,70.4,64.7,30.10,SE,139,12.0,13.0,82,0.00,,---,0.00,VWS V14.00,2013-03-29 14:21:00,
2013-03-29 09:22:00,70.8,65.0,30.10,SE,139,12.0,13.0,82,0.00,,---,0.00,VWS V14.00,2013-03-29 14:22:00,
2013-03-29 09:23:00,70.6,64.8,30.10,SE,141,10.0,12.0,82,0.00,,---,0.00,VWS V14.00,2013-03-29 14:23:00,
2013-03-29 09:24:00,70.7,64.9,30.10,SE,144,12.0,12.0,82,0.00,,---,0.00,VWS V14.00,2013-03-29 14:24:00,
2013-03-29 09:25:00,70.8,65.0,30.10,SE,139,12.0,13.0,82,0.00,,---,0.00,VWS V14.00,2013-03-29 14:25:00,
2013-03-29 09:26:00,70.8,64.7,30.10,SE,140,11.0,12.0,81,0.00,,---,0.00,VWS V14.00,2013-03-29 14:26:00,
2013-03-29 09:27:00,70.8,64.3,30.10,SE,144,11.0,13.0,80,0.00,,---,0.00,VWS V14.00,2013-03-29 14:27:00,
2013-03-29 09:28:00,70.8,64.3,30.10,SSE,149,12.0,15.0,80,0.00,,---,0.00,VWS V14.00,2013-03-29 14:28:00,
2013-03-29 09:29:00,70.8,64.3,30.10,SE,142,12.0,15.0,80,0.00,,---,0.00,VWS V14.00,2013-03-29 14:29:00,
2013-03-29 09:30:00,70.8,64.3,30.10,SE,144,13.0,13.0,80,0.00,,---,0.00,VWS V14.00,2013-03-29 14:30:00,
2013-03-29 09:31:00,70.8,64.3,30.10,SE,143,11.0,14.0,80,0.00,,---,0.00,VWS V14.00,2013-03-29 14:31:00,
2013-03-29 09:32:00,71.0,64.2,30.10,SE,142,15.0,17.0,79,0.00,,---,0.00,VWS V14.00,2013-03-29 14:32:00,
2013-03-29 09:33:00,70.9,64.4,30.11,SE,140,12.0,12.0,80,0.00,,---,0.00,VWS V14.00,2013-03-29 14:33:00,
2013-03-29 09:34:00,71.0,64.5,30.10,SE,138,14.0,17.0,80,0.00,,---,0.00,VWS V14.00,2013-03-29 14:34:00,
2013-03-29 09:35:00,71.0,64.2,30.10,SE,142,15.0,17.0,79,0.00,,---,0.00,VWS V14.00,2013-03-29 14:35:00,
2013-03-29 09:36:00,71.0,64.2,30.10,SSE,147,11.0,15.0,79,0.00,,---,0.00,VWS V14.00,2013-03-29 14:36:00,
2013-03-29 09:37:00,71.3,64.5,30.10,SSE,153,15.0,15.0,79,0.00,,---,0.00,VWS V14.00,2013-03-29 14:37:00,
2013-03-29 09:38:00,71.2,64.4,30.10,SE,143,10.0,14.0,79,0.00,,---,0.00,VWS V14.00,2013-03-29 14:38:00,
2013-03-29 09:39:00,71.3,64.5,30.10,SSE,150,13.0,16.0,79,0.00,,---,0.00,VWS V14.00,2013-03-29 14:39:00,
2013-03-29 09:40:00,71.3,64.5,30.10,SSE,151,14.0,15.0,79,0.00,,---,0.00,VWS V14.00,2013-03-29 14:40:00,
2013-03-29 09:41:00,71.3,64.1,30.10,SSE,155,12.0,15.0,78,0.00,,---,0.00,VWS V14.00,2013-03-29 14:41:00,
2013-03-29 09:42:00,71.7,64.5,30.10,SE,144,14.0,14.0,78,0.00,,---,0.00,VWS V14.00,2013-03-29 14:42:00,
2013-03-29 09:43:00,71.5,64.3,30.10,SE,145,11.0,14.0,78,0.00,,---,0.00,VWS V14.00,2013-03-29 14:43:00,
2013-03-29 09:44:00,71.7,64.8,30.10,SE,144,13.0,14.0,79,0.00,,---,0.00,VWS V14.00,2013-03-29 14:44:00,
2013-03-29 09:45:00,71.7,64.5,30.10,SE,144,14.0,15.0,78,0.00,,---,0.00,VWS V14.00,2013-03-29 14:45:00,
2013-03-29 09:46:00,71.7,64.5,30.10,SE,140,14.0,18.0,78,0.00,,---,0.00,VWS V14.00,2013-03-29 14:46:00,
2013-03-29 09:47:00,71.9,64.3,30.10,SE,138,15.0,15.0,77,0.00,,---,0.00,VWS V14.00,2013-03-29 14:47:00,
2013-03-29 09:48:00,71.8,64.2,30.10,SSE,151,13.0,15.0,77,0.00,,---,0.00,VWS V14.00,2013-03-29 14:48:00,
2013-03-29 09:49:00,71.9,64.3,30.10,SSE,150,11.0,16.0,77,0.00,,---,0.00,VWS V14.00,2013-03-29 14:49:00,
2013-03-29 09:50:00,71.9,64.3,30.10,SE,138,14.0,17.0,77,0.00,,---,0.00,VWS V14.00,2013-03-29 14:50:00,
2013-03-29 09:51:00,71.9,64.3,30.10,SE,137,15.0,18.0,77,0.00,,---,0.00,VWS V14.00,2013-03-29 14:51:00,
2013-03-29 09:52:00,72.0,64.4,30.10,SSE,148,14.0,17.0,77,0.00,,---,0.00,VWS V14.00,2013-03-29 14:52:00,
2013-03-29 09:53:00,71.9,64.3,30.11,SE,131,15.0,17.0,77,0.00,,---,0.00,VWS V14.00,2013-03-29 14:53:00,
2013-03-29 09:54:00,72.0,64.4,30.11,SE,143,11.0,16.0,77,0.00,,---,0.00,VWS V14.00,2013-03-29 14:54:00,
2013-03-29 09:55:00,72.0,64.4,30.10,SSE,150,10.0,16.0,77,0.00,,---,0.00,VWS V14.00,2013-03-29 14:55:00,
2013-03-29 09:56:00,72.2,64.6,30.10,SE,140,12.0,17.0,77,0.00,,---,0.00,VWS V14.00,2013-03-29 14:56:00,
2013-03-29 09:57:00,72.7,64.7,30.10,SE,140,13.0,17.0,76,0.00,,---,0.00,VWS V14.00,2013-03-29 14:57:00,
2013-03-29 09:58:00,72.6,65.0,30.10,SE,142,13.0,14.0,77,0.00,,---,0.00,VWS V14.00,2013-03-29 14:58:00,
2013-03-29 09:59:00,72.8,65.2,30.10,SSE,150,13.0,14.0,77,0.00,,---,0.00,VWS V14.00,2013-03-29 14:59:00,
2013-03-29 10:00:00,72.7,64.7,30.10,SE,143,11.0,14.0,76,0.00,,---,0.00,VWS V14.00,2013-03-29 15:00:00,
2013-03-29 10:01:00,72.7,64.3,30.10,SE,140,11.0,17.0,75,0.00,,---,0.00,VWS V14.00,2013-03-29 15:01:00,
2013-03-29 10:02:00,72.7,64.3,30.10,SE,134,15.0,17.0,75,0.00,,---,0.00,VWS V14.00,2013-03-29 15:02:00,
2013-03-29 10:03:00,72.7,64.3,30.11,SE,134,17.0,17.0,75,0.00,,---,0.00,VWS V14.00,2013-03-29 15:03:00,
2013-03-29 10:04:00,72.7,64.3,30.10,SE,142,14.0,18.0,75,0.00,,---,0.00,VWS V14.00,2013-03-29 15:04:00,
2013-03-29 10:05:00,72.7,64.3,30.11,SE,143,13.0,18.0,75,0.00,,---,0.00,VWS V14.00,2013-03-29 15:05:00,
2013-03-29 10:06:00,72.6,64.2,30.11,SE,138,14.0,17.0,75,0.00,,---,0.00,VWS V14.00,2013-03-29 15:06:00,
2013-03-29 10:07:00,72.6,64.2,30.10,SSE,148,11.0,17.0,75,0.00,,---,0.00,VWS V14.00,2013-03-29 15:07:00,
2013-03-29 10:08:00,72.8,64.4,30.11,SE,142,11.0,15.0,75,0.00,,---,0.00,VWS V14.00,2013-03-29 15:08:00,
2013-03-29 10:09:00,72.6,64.2,30.11,SE,140,13.0,14.0,75,0.00,,---,0.00,VWS V14.00,2013-03-29 15:09:00,
2013-03-29 10:10:00,72.8,64.4,30.11,SSE,147,13.0,15.0,75,0.00,,---,0.00,VWS V14.00,2013-03-29 15:10:00,
2013-03-29 10:11:00,72.8,64.4,30.11,SE,142,11.0,17.0,75,0.00,,---,0.00,VWS V14.00,2013-03-29 15:11:00,
2013-03-29 10:12:00,72.9,64.5,30.11,SE,144,15.0,18.0,75,0.00,,---,0.00,VWS V14.00,2013-03-29 15:12:00,
2013-03-29 10:13:00,73.1,64.3,30.11,SE,138,13.0,14.0,74,0.00,,---,0.00,VWS V14.00,2013-03-29 15:13:00,
2013-03-29 10:14:00,73.1,64.3,30.11,SE,134,14.0,15.0,74,0.00,,---,0.00,VWS V14.00,2013-03-29 15:14:00,
2013-03-29 10:15:00,73.1,64.3,30.11,SE,136,14.0,18.0,74,0.00,,---,0.00,VWS V14.00,2013-03-29 15:15:00,
2013-03-29 10:16:00,73.1,64.3,30.11,SE,143,14.0,15.0,74,0.00,,---,0.00,VWS V14.00,2013-03-29 15:16:00,
2013-03-29 10:17:00,73.2,64.4,30.11,SSE,147,10.0,17.0,74,0.00,,---,0.00,VWS V14.00,2013-03-29 15:17:00,
2013-03-29 10:18:00,73.4,64.2,30.11,SE,130,13.0,18.0,73,0.00,,---,0.00,VWS V14.00,2013-03-29 15:18:00,
2013-03-29 10:19:00,73.3,64.5,30.10,SE,145,10.0,15.0,74,0.00,,---,0.00,VWS V14.00,2013-03-29 15:19:00,
2013-03-29 10:20:00,73.4,64.6,30.11,SE,136,15.0,18.0,74,0.00,,---,0.00,VWS V14.00,2013-03-29 15:20:00,
2013-03-29 10:21:00,73.4,64.2,30.11,SE,132,13.0,18.0,73,0.00,,---,0.00,VWS V14.00,2013-03-29 15:21:00,
2013-03-29 10:22:00,73.5,64.3,30.11,SE,137,18.0,19.0,73,0.00,,---,0.00,VWS V14.00,2013-03-29 15:22:00,
2013-03-29 10:23:00,73.6,64.0,30.11,SE,140,17.0,18.0,72,0.00,,---,0.00,VWS V14.00,2013-03-29 15:23:00,
2013-03-29 10:24:00,73.7,64.1,30.11,SE,129,15.0,17.0,72,0.00,,---,0.00,VWS V14.00,2013-03-29 15:24:00,
2013-03-29 10:25:00,73.6,64.0,30.11,SE,131,15.0,18.0,72,0.00,,---,0.00,VWS V14.00,2013-03-29 15:25:00,
2013-03-29 10:26:00,73.6,64.4,30.11,SE,140,14.0,18.0,73,0.00,,---,0.00,VWS V14.00,2013-03-29 15:26:00,
2013-03-29 10:27:00,73.6,64.4,30.11,SE,143,11.0,17.0,73,0.00,,---,0.00,VWS V14.00,2013-03-29 15:27:00,
2013-03-29 10:28:00,73.9,64.3,30.11,SSE,151,15.0,17.0,72,0.00,,---,0.00,VWS V14.00,2013-03-29 15:28:00,
2013-03-29 10:29:00,73.7,64.1,30.11,SSE,149,17.0,19.0,72,0.00,,---,0.00,VWS V14.00,2013-03-29 15:29:00,
2013-03-29 10:30:00,73.7,64.1,30.11,SSE,148,17.0,19.0,72,0.00,,---,0.00,VWS V14.00,2013-03-29 15:30:00,
2013-03-29 10:31:00,73.9,63.9,30.11,SSE,152,12.0,17.0,71,0.00,,---,0.00,VWS V14.00,2013-03-29 15:31:00,
2013-03-29 10:32:00,74.0,64.4,30.10,SE,139,17.0,17.0,72,0.00,,---,0.00,VWS V14.00,2013-03-29 15:32:00,
2013-03-29 10:33:00,74.1,64.1,30.10,SE,135,14.0,19.0,71,0.00,,---,0.00,VWS V14.00,2013-03-29 15:33:00,
2013-03-29 10:34:00,74.1,64.1,30.10,SE,137,13.0,19.0,71,0.00,,---,0.00,VWS V14.00,2013-03-29 15:34:00,
2013-03-29 10:35:00,74.1,63.7,30.10,SE,139,14.0,17.0,70,0.00,,---,0.00,VWS V14.00,2013-03-29 15:35:00,
2013-03-29 10:36:00,74.2,64.2,30.10,SE,137,14.0,19.0,71,0.00,,---,0.00,VWS V14.00,2013-03-29 15:36:00,
2013-03-29 10:37:00,74.2,64.2,30.10,SE,136,21.0,21.0,71,0.00,,---,0.00,VWS V14.00,2013-03-29 15:37:00,
2013-03-29 10:38:00,74.2,63.8,30.11,SE,141,15.0,20.0,70,0.00,,---,0.00,VWS V14.00,2013-03-29 15:38:00,
2013-03-29 10:39:00,74.2,64.2,30.10,SE,146,18.0,18.0,71,0.00,,---,0.00,VWS V14.00,2013-03-29 15:39:00,
2013-03-29 10:40:00,74.2,63.8,30.11,SE,142,20.0,20.0,70,0.00,,---,0.00,VWS V14.00,2013-03-29 15:40:00,
2013-03-29 10:41:00,74.1,63.7,30.11,SE,141,17.0,20.0,70,0.00,,---,0.00,VWS V14.00,2013-03-29 15:41:00,
2013-03-29 10:42:00,74.2,64.2,30.10,SE,138,15.0,19.0,71,0.00,,---,0.00,VWS V14.00,2013-03-29 15:42:00,
2013-03-29 10:43:00,74.4,64.0,30.11,SE,132,19.0,23.0,70,0.00,,---,0.00,VWS V14.00,2013-03-29 15:43:00,
2013-03-29 10:44:00,74.4,64.4,30.11,SE,144,17.0,19.0,71,0.00,,---,0.00,VWS V14.00,2013-03-29 15:44:00,
2013-03-29 10:45:00,74.4,64.0,30.11,SE,136,15.0,23.0,70,0.00,,---,0.00,VWS V14.00,2013-03-29 15:45:00,
2013-03-29 10:46:00,74.4,64.0,30.11,SE,134,18.0,23.0,70,0.00,,---,0.00,VWS V14.00,2013-03-29 15:46:00,
2013-03-29 10:47:00,74.4,64.0,30.10,SE,142,15.0,20.0,70,0.00,,---,0.00,VWS V14.00,2013-03-29 15:47:00,
2013-03-29 10:48:00,74.6,64.2,30.10,SE,139,15.0,19.0,70,0.00,,---,0.00,VWS V14.00,2013-03-29 15:48:00,
2013-03-29 10:49:00,74.5,64.1,30.10,SE,124,16.0,21.0,70,0.00,,---,0.00,VWS V14.00,2013-03-29 15:49:00,
2013-03-29 10:50:00,74.5,64.5,30.10,SE,129,17.0,22.0,71,0.00,,---,0.00,VWS V14.00,2013-03-29 15:50:00,
2013-03-29 10:51:00,74.6,64.2,30.10,SE,138,18.0,19.0,70,0.00,,---,0.00,VWS V14.00,2013-03-29 15:51:00,
2013-03-29 10:52:00,74.7,64.3,30.10,SE,130,16.0,22.0,70,0.00,,---,0.00,VWS V14.00,2013-03-29 15:52:00,
2013-03-29 10:53:00,75.1,64.7,30.10,SE,134,19.0,23.0,70,0.00,,---,0.00,VWS V14.00,2013-03-29 15:53:00,
2013-03-29 10:54:00,74.8,64.4,30.10,ESE,118,22.0,23.0,70,0.00,,---,0.00,VWS V14.00,2013-03-29 15:54:00,
2013-03-29 10:55:00,74.9,64.5,30.10,ESE,122,19.0,22.0,70,0.00,,---,0.00,VWS V14.00,2013-03-29 15:55:00,
2013-03-29 10:56:00,75.1,64.7,30.10,SE,134,17.0,23.0,70,0.00,,---,0.00,VWS V14.00,2013-03-29 15:56:00,
2013-03-29 10:57:00,75.0,64.2,30.10,ESE,123,16.0,21.0,69,0.00,,---,0.00,VWS V14.00,2013-03-29 15:57:00,
2013-03-29 10:58:00,75.1,64.7,30.10,SE,144,17.0,18.0,70,0.00,,---,0.00,VWS V14.00,2013-03-29 15:58:00,
2013-03-29 10:59:00,74.9,64.5,30.10,SSE,150,17.0,20.0,70,0.00,,---,0.00,VWS V14.00,2013-03-29 15:59:00,
2013-03-29 11:00:00,74.9,64.5,30.10,SE,138,19.0,20.0,70,0.00,,---,0.00,VWS V14.00,2013-03-29 16:00:00,
2013-03-29 11:01:00,75.1,64.7,30.10,SSE,150,16.0,18.0,70,0.00,,---,0.00,VWS V14.00,2013-03-29 16:01:00,
2013-03-29 11:02:00,75.4,64.9,30.11,SE,142,14.0,19.0,70,0.00,,---,0.00,VWS V14.00,2013-03-29 16:02:00,
2013-03-29 11:03:00,75.3,64.4,30.11,SE,133,14.0,18.0,69,0.00,,---,0.00,VWS V14.00,2013-03-29 16:03:00,
2013-03-29 11:04:00,75.3,64.4,30.11,SE,127,22.0,22.0,69,0.00,,---,0.00,VWS V14.00,2013-03-29 16:04:00,
2013-03-29 11:05:00,75.2,63.9,30.11,SE,125,14.0,22.0,68,0.00,,---,0.00,VWS V14.00,2013-03-29 16:05:00,
2013-03-29 11:06:00,75.3,64.4,30.11,SE,133,14.0,18.0,69,0.00,,---,0.00,VWS V14.00,2013-03-29 16:06:00,
2013-03-29 11:07:00,75.3,64.4,30.11,SE,140,19.0,21.0,69,0.00,,---,0.00,VWS V14.00,2013-03-29 16:07:00,
2013-03-29 11:08:00,75.2,64.3,30.11,SE,137,15.0,18.0,69,0.00,,---,0.00,VWS V14.00,2013-03-29 16:08:00,
2013-03-29 11:09:00,75.1,64.2,30.11,SE,146,21.0,21.0,69,0.00,,---,0.00,VWS V14.00,2013-03-29 16:09:00,
2013-03-29 11:10:00,75.1,64.2,30.11,SE,141,14.0,21.0,69,0.00,,---,0.00,VWS V14.00,2013-03-29 16:10:00,
2013-03-29 11:11:00,75.2,64.3,30.11,SE,137,15.0,18.0,69,0.00,,---,0.00,VWS V14.00,2013-03-29 16:11:00,
2013-03-29 11:12:00,75.4,64.5,30.11,SSE,147,18.0,21.0,69,0.00,,---,0.00,VWS V14.00,2013-03-29 16:12:00,
2013-03-29 11:13:00,76.0,64.7,30.11,SE,133,15.0,20.0,68,0.00,,---,0.00,VWS V14.00,2013-03-29 16:13:00,
2013-03-29 11:14:00,75.5,64.2,30.11,SE,138,17.0,19.0,68,0.00,,---,0.00,VWS V14.00,2013-03-29 16:14:00,
2013-03-29 11:15:00,75.8,64.5,30.11,SE,138,14.0,18.0,68,0.00,,---,0.00,VWS V14.00,2013-03-29 16:15:00,
2013-03-29 11:16:00,76.0,64.7,30.11,SE,133,15.0,20.0,68,0.00,,---,0.00,VWS V14.00,2013-03-29 16:16:00,
2013-03-29 11:17:00,75.9,64.2,30.11,SE,135,18.0,21.0,67,0.00,,---,0.00,VWS V14.00,2013-03-29 16:17:00,
2013-03-29 11:18:00,76.0,64.3,30.10,SE,144,18.0,21.0,67,0.00,,---,0.00,VWS V14.00,2013-03-29 16:18:00,
2013-03-29 11:19:00,75.9,64.6,30.10,SE,145,20.0,22.0,68,0.00,,---,0.00,VWS V14.00,2013-03-29 16:19:00,
2013-03-29 11:20:00,76.0,64.7,30.10,SE,143,20.0,20.0,68,0.00,,---,0.00,VWS V14.00,2013-03-29 16:20:00,
2013-03-29 11:21:00,76.0,64.3,30.10,SE,144,18.0,21.0,67,0.00,,---,0.00,VWS V14.00,2013-03-29 16:21:00,
2013-03-29 11:22:00,76.2,64.9,30.10,SE,131,18.0,22.0,68,0.00,,---,0.00,VWS V14.00,2013-03-29 16:22:00,
2013-03-29 11:23:00,76.0,64.3,30.10,SSE,148,15.0,22.0,67,0.00,,---,0.00,VWS V14.00,2013-03-29 16:23:00,
2013-03-29 11:24:00,76.2,64.4,30.11,SE,138,14.0,19.0,67,0.00,,---,0.00,VWS V14.00,2013-03-29 16:24:00,
2013-03-29 11:25:00,76.0,64.3,30.10,SE,139,14.0,21.0,67,0.00,,---,0.00,VWS V14.00,2013-03-29 16:25:00,
2013-03-29 11:26:00,76.0,64.3,30.10,SSE,148,15.0,22.0,67,0.00,,---,0.00,VWS V14.00,2013-03-29 16:26:00,
2013-03-29 11:27:00,75.8,63.6,30.10,SE,138,17.0,19.0,66,0.00,,---,0.00,VWS V14.00,2013-03-29 16:27:00,
2013-03-29 11:28:00,76.7,64.9,30.10,SSE,148,14.0,14.0,67,0.00,,---,0.00,VWS V14.00,2013-03-29 16:28:00,
2013-03-29 11:29:00,76.0,64.3,30.10,SE,143,14.0,20.0,67,0.00,,---,0.00,VWS V14.00,2013-03-29 16:29:00,
2013-03-29 11:30:00,76.4,65.1,30.10,SE,146,17.0,21.0,68,0.00,,---,0.00,VWS V14.00,2013-03-29 16:30:00,
2013-03-29 11:31:00,76.7,64.9,30.10,SSE,148,14.0,20.0,67,0.00,,---,0.00,VWS V14.00,2013-03-29 16:31:00,
2013-03-29 11:32:00,76.9,64.7,30.10,SE,129,16.0,23.0,66,0.00,,---,0.00,VWS V14.00,2013-03-29 16:32:00,
2013-03-29 11:33:00,76.4,63.8,30.10,SE,143,15.0,17.0,65,0.00,,---,0.00,VWS V14.00,2013-03-29 16:33:00,
2013-03-29 11:34:00,76.7,64.1,30.10,SSE,161,15.0,20.0,65,0.00,,---,0.00,VWS V14.00,2013-03-29 16:34:00,
2013-03-29 11:35:00,76.7,64.1,30.10,SSE,154,14.0,23.0,65,0.00,,---,0.00,VWS V14.00,2013-03-29 16:35:00,
2013-03-29 11:36:00,76.4,63.8,30.10,SE,146,14.0,17.0,65,0.00,,---,0.00,VWS V14.00,2013-03-29 16:36:00,
2013-03-29 11:37:00,76.7,64.9,30.10,SE,128,16.0,25.0,67,0.00,,---,0.00,VWS V14.00,2013-03-29 16:37:00,
2013-03-29 11:38:00,77.0,63.9,30.10,SE,137,14.0,14.0,64,0.00,,---,0.00,VWS V14.00,2013-03-29 16:38:00,
2013-03-29 11:39:00,77.4,65.2,30.10,SSE,149,15.0,23.0,66,0.00,,---,0.00,VWS V14.00,2013-03-29 16:39:00,
2013-03-29 11:40:00,77.3,64.2,30.10,SE,142,21.0,22.0,64,0.00,,---,0.00,VWS V14.00,2013-03-29 16:40:00,
2013-03-29 11:41:00,77.1,64.0,30.10,SE,137,11.0,23.0,64,0.00,,---,0.00,VWS V14.00,2013-03-29 16:41:00,
2013-03-29 11:42:00,76.8,63.7,30.10,SE,144,18.0,23.0,64,0.00,,---,0.00,VWS V14.00,2013-03-29 16:42:00,
2013-03-29 11:43:00,76.8,63.7,30.10,SE,137,14.0,19.0,64,0.00,,---,0.00,VWS V14.00,2013-03-29 16:43:00,
2013-03-29 11:44:00,76.4,64.2,30.10,SE,146,20.0,20.0,66,0.00,,---,0.00,VWS V14.00,2013-03-29 16:44:00,
2013-03-29 11:45:00,76.6,64.4,30.10,SE,134,17.0,21.0,66,0.00,,---,0.00,VWS V14.00,2013-03-29 16:45:00,
2013-03-29 11:46:00,76.7,63.6,30.10,SE,136,19.0,23.0,64,0.00,,---,0.00,VWS V14.00,2013-03-29 16:46:00,
2013-03-29 11:47:00,76.8,64.2,30.10,SE,135,17.0,20.0,65,0.00,,---,0.00,VWS V14.00,2013-03-29 16:47:00,
2013-03-29 11:48:00,77.2,64.1,30.10,SSE,154,16.0,19.0,64,0.00,,---,0.00,VWS V14.00,2013-03-29 16:48:00,
2013-03-29 11:49:00,77.0,63.9,30.10,SE,138,19.0,22.0,64,0.00,,---,0.00,VWS V14.00,2013-03-29 16:49:00,
2013-03-29 11:50:00,77.1,64.0,30.10,SE,130,20.0,20.0,64,0.00,,---,0.00,VWS V14.00,2013-03-29 16:50:00,
2013-03-29 11:51:00,77.2,64.1,30.10,SSE,155,16.0,21.0,64,0.00,,---,0.00,VWS V14.00,2013-03-29 16:51:00,
2013-03-29 11:52:00,77.1,64.0,30.10,SE,142,15.0,19.0,64,0.00,,---,0.00,VWS V14.00,2013-03-29 16:52:00,
2013-03-29 11:53:00,77.5,63.9,30.10,SSE,161,17.0,20.0,63,0.00,,---,0.00,VWS V14.00,2013-03-29 16:53:00,
2013-03-29 11:54:00,77.0,63.5,30.10,SE,125,19.0,23.0,63,0.00,,---,0.00,VWS V14.00,2013-03-29 16:54:00,
2013-03-29 11:55:00,76.9,63.8,30.10,SSE,151,16.0,21.0,64,0.00,,---,0.00,VWS V14.00,2013-03-29 16:55:00,
2013-03-29 11:56:00,77.4,64.7,30.10,SSE,153,17.0,19.0,65,0.00,,---,0.00,VWS V14.00,2013-03-29 16:56:00,
2013-03-29 11:57:00,77.5,63.9,30.10,SE,134,17.0,20.0,63,0.00,,---,0.00,VWS V14.00,2013-03-29 16:57:00,
2013-03-29 11:58:00,77.5,64.4,30.10,SE,134,19.0,20.0,64,0.00,,---,0.00,VWS V14.00,2013-03-29 16:58:00,
2013-03-29 11:59:00,77.3,63.7,30.10,SE,132,17.0,18.0,63,0.00,,---,0.00,VWS V14.00,2013-03-29 16:59:00,
2013-03-29 12:00:00,77.6,64.0,30.10,SE,130,18.0,22.0,63,0.00,,---,0.00,VWS V14.00,2013-03-29 17:00:00,
2013-03-29 12:01:00,77.4,63.4,30.10,SSE,150,18.0,23.0,62,0.00,,---,0.00,VWS V14.00,2013-03-29 17:01:00,
2013-03-29 12:02:00,77.3,63.7,30.10,SE,140,17.0,23.0,63,0.00,,---,0.00,VWS V14.00,2013-03-29 17:02:00,
2013-03-29 12:03:00,77.4,64.3,30.10,SE,142,20.0,21.0,64,0.00,,---,0.00,VWS V14.00,2013-03-29 17:03:00,
2013-03-29 12:04:00,77.4,63.8,30.10,SE,136,18.0,22.0,63,0.00,,---,0.00,VWS V14.00,2013-03-29 17:04:00,
2013-03-29 12:05:00,77.4,63.8,30.10,ESE,120,17.0,24.0,63,0.00,,---,0.00,VWS V14.00,2013-03-29 17:05:00,
2013-03-29 12:06:00,77.5,63.9,30.10,SE,128,21.0,26.0,63,0.00,,---,0.00,VWS V14.00,2013-03-29 17:06:00,
2013-03-29 12:07:00,77.5,63.9,30.10,SSE,150,16.0,22.0,63,0.00,,---,0.00,VWS V14.00,2013-03-29 17:07:00,
2013-03-29 12:08:00,77.4,63.8,30.10,SE,127,18.0,20.0,63,0.00,,---,0.00,VWS V14.00,2013-03-29 17:08:00,
2013-03-29 12:09:00,77.6,64.0,30.09,SE,142,12.0,21.0,63,0.00,,---,0.00,VWS V14.00,2013-03-29 17:09:00,
2013-03-29 12:10:00,77.9,63.8,30.09,SE,141,17.0,21.0,62,0.00,,---,0.00,VWS V14.00,2013-03-29 17:10:00,
2013-03-29 12:11:00,77.6,64.0,30.09,ESE,121,19.0,22.0,63,0.00,,---,0.00,VWS V14.00,2013-03-29 17:11:00,
2013-03-29 12:12:00,77.6,64.0,30.09,SE,134,13.0,21.0,63,0.00,,---,0.00,VWS V14.00,2013-03-29 17:12:00,
2013-03-29 12:13:00,77.8,64.7,30.09,SE,137,14.0,28.0,64,0.00,,---,0.00,VWS V14.00,2013-03-29 17:13:00,
2013-03-29 12:14:00,78.2,64.6,30.09,SE,137,15.0,22.0,63,0.00,,---,0.00,VWS V14.00,2013-03-29 17:14:00,
2013-03-29 12:15:00,77.8,63.8,30.09,SE,130,20.0,21.0,62,0.00,,---,0.00,VWS V14.00,2013-03-29 17:15:00,
2013-03-29 12:16:00,78.1,64.0,30.09,ESE,117,19.0,25.0,62,0.00,,---,0.00,VWS V14.00,2013-03-29 17:16:00,
2013-03-29 12:17:00,78.2,64.6,30.09,SSE,155,15.0,22.0,63,0.00,,---,0.00,VWS V14.00,2013-03-29 17:17:00,
2013-03-29 12:18:00,78.3,63.8,30.09,SE,132,18.0,22.0,61,0.00,,---,0.00,VWS V14.00,2013-03-29 17:18:00,
2013-03-29 12:19:00,77.6,64.0,30.09,SE,127,24.0,24.0,63,0.00,,---,0.00,VWS V14.00,2013-03-29 17:19:00,
2013-03-29 12:20:00,78.1,64.5,30.09,SE,139,14.0,20.0,63,0.00,,---,0.00,VWS V14.00,2013-03-29 17:20:00,
2013-03-29 12:21:00,77.8,63.3,30.09,SE,136,22.0,27.0,61,0.00,,---,0.00,VWS V14.00,2013-03-29 17:21:00,
2013-03-29 12:22:00,77.6,64.0,30.09,SE,128,17.0,24.0,63,0.00,,---,0.00,VWS V14.00,2013-03-29 17:22:00,
2013-03-29 12:23:00,77.4,64.3,30.09,SE,133,20.0,24.0,64,0.00,,---,0.00,VWS V14.00,2013-03-29 17:23:00,
2013-03-29 12:24:00,77.8,64.7,30.09,SE,132,16.0,23.0,64,0.00,,---,0.00,VWS V14.00,2013-03-29 17:24:00,
2013-03-29 12:25:00,77.4,63.8,30.09,SE,140,14.0,24.0,63,0.00,,---,0.00,VWS V14.00,2013-03-29 17:25:00,
2013-03-29 12:26:00,77.6,64.5,30.09,SSE,153,15.0,22.0,64,0.00,,---,0.00,VWS V14.00,2013-03-29 17:26:00,
2013-03-29 12:27:00,77.8,64.7,30.09,SSE,156,18.0,23.0,64,0.00,,---,0.00,VWS V14.00,2013-03-29 17:27:00,
2013-03-29 12:28:00,77.8,64.2,30.09,SE,134,19.0,24.0,63,0.00,,---,0.00,VWS V14.00,2013-03-29 17:28:00,
2013-03-29 12:29:00,78.0,64.4,30.09,SE,146,14.0,21.0,63,0.00,,---,0.00,VWS V14.00,2013-03-29 17:29:00,
2013-03-29 12:30:00,77.8,64.2,30.09,SE,128,16.0,20.0,63,0.00,,---,0.00,VWS V14.00,2013-03-29 17:30:00,
2013-03-29 12:31:00,78.0,64.8,30.09,SSE,149,18.0,26.0,64,0.00,,---,0.00,VWS V14.00,2013-03-29 17:31:00,
2013-03-29 12:32:00,78.0,64.4,30.09,SSE,156,19.0,21.0,63,0.00,,---,0.00,VWS V14.00,2013-03-29 17:32:00,
2013-03-29 12:33:00,77.8,64.2,30.10,SE,130,18.0,20.0,63,0.00,,---,0.00,VWS V14.00,2013-03-29 17:33:00,
2013-03-29 12:34:00,78.1,64.0,30.09,SE,137,14.0,23.0,62,0.00,,---,0.00,VWS V14.00,2013-03-29 17:34:00,
2013-03-29 12:35:00,78.1,65.4,30.09,SE,134,18.0,23.0,65,0.00,,---,0.00,VWS V14.00,2013-03-29 17:35:00,
2013-03-29 12:36:00,78.2,64.1,30.09,SE,132,19.0,25.0,62,0.00,,---,0.00,VWS V14.00,2013-03-29 17:36:00,
2013-03-29 12:37:00,78.1,64.0,30.09,SE,139,17.0,23.0,62,0.00,,---,0.00,VWS V14.00,2013-03-29 17:37:00,
2013-03-29 12:38:00,78.1,64.5,30.09,SE,133,19.0,23.0,63,0.00,,---,0.00,VWS V14.00,2013-03-29 17:38:00,
2013-03-29 12:39:00,77.6,64.0,30.09,SE,136,24.0,26.0,63,0.00,,---,0.00,VWS V14.00,2013-03-29 17:39:00,
2013-03-29 12:40:00,78.0,64.4,30.09,SE,130,20.0,23.0,63,0.00,,---,0.00,VWS V14.00,2013-03-29 17:40:00,
2013-03-29 12:41:00,77.7,64.1,30.09,SE,128,21.0,21.0,63,0.00,,---,0.00,VWS V14.00,2013-03-29 17:41:00,
2013-03-29 12:42:00,77.6,64.0,30.09,SE,126,23.0,26.0,63,0.00,,---,0.00,VWS V14.00,2013-03-29 17:42:00,
2013-03-29 12:43:00,77.7,64.6,30.09,SE,136,18.0,24.0,64,0.00,,---,0.00,VWS V14.00,2013-03-29 17:43:00,
2013-03-29 12:44:00,77.4,64.7,30.09,ESE,120,21.0,24.0,65,0.00,,---,0.00,VWS V14.00,2013-03-29 17:44:00,
2013-03-29 12:45:00,77.7,64.6,30.09,SE,124,22.0,27.0,64,0.00,,---,0.00,VWS V14.00,2013-03-29 17:45:00,
2013-03-29 12:46:00,77.5,64.4,30.09,ESE,119,23.0,26.0,64,0.00,,---,0.00,VWS V14.00,2013-03-29 17:46:00,
2013-03-29 12:47:00,77.4,64.7,30.09,ESE,120,20.0,24.0,65,0.00,,---,0.00,VWS V14.00,2013-03-29 17:47:00,
2013-03-29 12:48:00,77.6,64.9,30.09,SSE,158,16.0,24.0,65,0.00,,---,0.00,VWS V14.00,2013-03-29 17:48:00,
2013-03-29 12:49:00,77.6,64.9,30.09,SE,145,17.0,23.0,65,0.00,,---,0.00,VWS V14.00,2013-03-29 17:49:00,
2013-03-29 12:50:00,77.5,64.8,30.09,SE,139,15.0,24.0,65,0.00,,---,0.00,VWS V14.00,2013-03-29 17:50:00,
2013-03-29 12:51:00,77.5,64.8,30.09,SE,128,15.0,24.0,65,0.00,,---,0.00,VWS V14.00,2013-03-29 17:51:00,
2013-03-29 12:52:00,77.5,64.8,30.09,SE,145,19.0,23.0,65,0.00,,---,0.00,VWS V14.00,2013-03-29 17:52:00,
2013-03-29 12:53:00,77.4,64.7,30.09,SE,124,21.0,24.0,65,0.00,,---,0.00,VWS V14.00,2013-03-29 17:53:00,
2013-03-29 12:54:00,77.6,64.9,30.09,SE,131,22.0,27.0,65,0.00,,---,0.00,VWS V14.00,2013-03-29 17:54:00,
2013-03-29 12:55:00,77.3,64.6,30.09,SE,146,20.0,25.0,65,0.00,,---,0.00,VWS V14.00,2013-03-29 17:55:00,
2013-03-29 12:56:00,77.5,64.8,30.09,SE,134,27.0,27.0,65,0.00,,---,0.00,VWS V14.00,2013-03-29 17:56:00,
2013-03-29 12:57:00,77.6,64.9,30.09,SE,135,22.0,27.0,65,0.00,,---,0.00,VWS V14.00,2013-03-29 17:57:00,
2013-03-29 12:58:00,77.4,64.7,30.09,SE,142,14.0,24.0,65,0.00,,---,0.00,VWS V14.00,2013-03-29 17:58:00,
2013-03-29 12:59:00,77.7,65.4,30.09,ESE,117,23.0,25.0,66,0.00,,---,0.00,VWS V14.00,2013-03-29 17:59:00,
2013-03-29 13:00:00,77.4,64.7,30.09,SE,136,21.0,27.0,65,0.00,,---,0.00,VWS V14.00,2013-03-29 18:00:00,
2013-03-29 13:01:00,77.5,65.7,30.09,ESE,116,19.0,23.0,67,0.00,,---,0.00,VWS V14.00,2013-03-29 18:01:00,
2013-03-29 13:02:00,77.7,65.4,30.09,ESE,112,22.0,25.0,66,0.00,,---,0.00,VWS V14.00,2013-03-29 18:02:00,
2013-03-29 13:03:00,77.8,65.5,30.09,ESE,109,19.0,23.0,66,0.00,,---,0.00,VWS V14.00,2013-03-29 18:03:00,
2013-03-29 13:04:00,77.7,64.6,30.09,ESE,116,23.0,23.0,64,0.00,,---,0.00,VWS V14.00,2013-03-29 18:04:00,
2013-03-29 13:05:00,78.0,65.3,30.09,SE,131,21.0,25.0,65,0.00,,---,0.00,VWS V14.00,2013-03-29 18:05:00,
2013-03-29 13:06:00,78.0,64.8,30.09,SE,138,21.0,23.0,64,0.00,,---,0.00,VWS V14.00,2013-03-29 18:06:00,
2013-03-29 13:07:00,77.7,64.6,30.09,ESE,112,23.0,23.0,64,0.00,,---,0.00,VWS V14.00,2013-03-29 18:07:00,
2013-03-29 13:08:00,78.0,65.3,30.08,SE,134,25.0,25.0,65,0.00,,---,0.00,VWS V14.00,2013-03-29 18:08:00,
2013-03-29 13:09:00,77.4,65.2,30.08,SE,144,17.0,20.0,66,0.00,,---,0.00,VWS V14.00,2013-03-29 18:09:00,
2013-03-29 13:10:00,77.6,64.5,30.09,SE,126,18.0,23.0,64,0.00,,---,0.00,VWS V14.00,2013-03-29 18:10:00,
2013-03-29 13:11:00,77.5,64.4,30.09,SE,135,19.0,24.0,64,0.00,,---,0.00,VWS V14.00,2013-03-29 18:11:00,
2013-03-29 13:12:00,77.4,65.2,30.08,SE,144,17.0,20.0,66,0.00,,---,0.00,VWS V14.00,2013-03-29 18:12:00,
2013-03-29 13:13:00,77.7,65.4,30.09,SE,125,18.0,25.0,66,0.00,,---,0.00,VWS V14.00,2013-03-29 18:13:00,
2013-03-29 13:14:00,78.1,65.4,30.08,SE,129,15.0,23.0,65,0.00,,---,0.00,VWS V14.00,2013-03-29 18:14:00,
2013-03-29 13:15:00,77.8,65.1,30.08,SE,136,19.0,26.0,65,0.00,,---,0.00,VWS V14.00,2013-03-29 18:15:00,
2013-03-29 13:16:00,78.0,65.3,30.08,SE,128,18.0,24.0,65,0.00,,---,0.00,VWS V14.00,2013-03-29 18:16:00,
2013-03-29 13:17:00,78.1,65.4,30.08,SE,129,15.0,23.0,65,0.00,,---,0.00,VWS V14.00,2013-03-29 18:17:00,
2013-03-29 13:18:00,78.3,65.1,30.08,SE,142,22.0,26.0,64,0.00,,---,0.00,VWS V14.00,2013-03-29 18:18:00,
2013-03-29 13:19:00,77.7,65.0,30.08,SE,145,17.0,24.0,65,0.00,,---,0.00,VWS V14.00,2013-03-29 18:19:00,
2013-03-29 13:20:00,77.9,65.2,30.08,SSE,156,16.0,26.0,65,0.00,,---,0.00,VWS V14.00,2013-03-29 18:20:00,
2013-03-29 13:21:00,77.8,65.1,30.08,SE,134,19.0,27.0,65,0.00,,---,0.00,VWS V14.00,2013-03-29 18:21:00,
2013-03-29 13:22:00,77.7,65.0,30.08,SE,145,17.0,24.0,65,0.00,,---,0.00,VWS V14.00,2013-03-29 18:22:00,
2013-03-29 13:23:00,77.5,64.8,30.08,SE,130,15.0,24.0,65,0.00,,---,0.00,VWS V14.00,2013-03-29 18:23:00,
2013-03-29 13:24:00,77.6,65.3,30.08,ESE,116,22.0,27.0,66,0.00,,---,0.00,VWS V14.00,2013-03-29 18:24:00,
2013-03-29 13:25:00,77.5,65.3,30.08,SSE,153,22.0,28.0,66,0.00,,---,0.00,VWS V14.00,2013-03-29 18:25:00,
2013-03-29 13:26:00,77.5,64.8,30.08,South,170,16.0,26.0,65,0.00,,---,0.00,VWS V14.00,2013-03-29 18:26:00,
2013-03-29 13:27:00,77.6,65.3,30.08,ESE,116,22.0,27.0,66,0.00,,---,0.00,VWS V14.00,2013-03-29 18:27:00,
2013-03-29 13:28:00,77.6,64.9,30.08,SSE,149,19.0,24.0,65,0.00,,---,0.00,VWS V14.00,2013-03-29 18:28:00,
2013-03-29 13:29:00,78.0,65.3,30.08,SSE,166,16.0,23.0,65,0.00,,---,0.00,VWS V14.00,2013-03-29 18:29:00,
2013-03-29 13:30:00,77.5,65.3,30.08,SE,140,19.0,25.0,66,0.00,,---,0.00,VWS V14.00,2013-03-29 18:30:00,
2013-03-29 13:31:00,77.8,65.5,30.08,SE,136,18.0,24.0,66,0.00,,---,0.00,VWS V14.00,2013-03-29 18:31:00,
2013-03-29 13:32:00,78.0,65.3,30.08,SSE,166,16.0,23.0,65,0.00,,---,0.00,VWS V14.00,2013-03-29 18:32:00,
2013-03-29 13:33:00,78.4,65.7,30.07,SE,134,21.0,26.0,65,0.00,,---,0.00,VWS V14.00,2013-03-29 18:33:00,
2013-03-29 13:34:00,77.9,64.8,30.07,SE,136,23.0,23.0,64,0.00,,---,0.00,VWS V14.00,2013-03-29 18:34:00,
2013-03-29 13:35:00,77.9,64.3,30.07,SE,139,12.0,21.0,63,0.00,,---,0.00,VWS V14.00,2013-03-29 18:35:00,
2013-03-29 13:36:00,77.9,65.2,30.07,SSE,148,20.0,22.0,65,0.00,,---,0.00,VWS V14.00,2013-03-29 18:36:00,
2013-03-29 13:37:00,77.9,64.8,30.07,SE,136,23.0,23.0,64,0.00,,---,0.00,VWS V14.00,2013-03-29 18:37:00,
2013-03-29 13:38:00,77.7,64.6,30.07,SE,129,23.0,26.0,64,0.00,,---,0.00,VWS V14.00,2013-03-29 18:38:00,
2013-03-29 13:39:00,77.5,64.8,30.07,SE,131,22.0,25.0,65,0.00,,---,0.00,VWS V14.00,2013-03-29 18:39:00,
2013-03-29 13:40:00,77.7,65.0,30.07,SE,131,18.0,26.0,65,0.00,,---,0.00,VWS V14.00,2013-03-29 18:40:00,
2013-03-29 13:41:00,77.6,64.9,30.07,SE,144,25.0,25.0,65,0.00,,---,0.00,VWS V14.00,2013-03-29 18:41:00,
2013-03-29 13:42:00,77.5,64.8,30.07,SE,131,22.0,25.0,65,0.00,,---,0.00,VWS V14.00,2013-03-29 18:42:00,
2013-03-29 13:43:00,77.4,64.7,30.07,SE,144,22.0,24.0,65,0.00,,---,0.00,VWS V14.00,2013-03-29 18:43:00,
2013-03-29 13:44:00,77.2,64.5,30.06,ESE,121,25.0,25.0,65,0.00,,---,0.00,VWS V14.00,2013-03-29 18:44:00,
2013-03-29 13:45:00,77.3,65.1,30.07,SSE,148,19.0,23.0,66,0.00,,---,0.00,VWS V14.00,2013-03-29 18:45:00,
2013-03-29 13:46:00,77.5,65.3,30.07,SE,138,21.0,27.0,66,0.00,,---,0.00,VWS V14.00,2013-03-29 18:46:00,
2013-03-29 13:47:00,77.2,64.5,30.06,ESE,121,25.0,25.0,65,0.00,,---,0.00,VWS V14.00,2013-03-29 18:47:00,
2013-03-29 13:48:00,77.1,64.9,30.06,SE,133,27.0,28.0,66,0.00,,---,0.00,VWS V14.00,2013-03-29 18:48:00,
2013-03-29 13:49:00,77.5,64.8,30.06,SE,134,20.0,20.0,65,0.00,,---,0.00,VWS V14.00,2013-03-29 18:49:00,
2013-03-29 13:50:00,76.9,65.5,30.06,SE,132,19.0,22.0,68,0.00,,---,0.00,VWS V14.00,2013-03-29 18:50:00,
2013-03-29 13:51:00,77.3,65.5,30.06,SE,143,19.0,26.0,67,0.00,,---,0.00,VWS V14.00,2013-03-29 18:51:00,
2013-03-29 13:52:00,77.5,64.8,30.06,SE,130,17.0,26.0,65,0.00,,---,0.00,VWS V14.00,2013-03-29 18:52:00,
2013-03-29 13:53:00,77.6,64.9,30.06,ESE,119,22.0,23.0,65,0.00,,---,0.00,VWS V14.00,2013-03-29 18:53:00,
2013-03-29 13:54:00,77.8,65.1,30.06,SE,144,23.0,23.0,65,0.00,,---,0.00,VWS V14.00,2013-03-29 18:54:00,
2013-03-29 13:55:00,77.8,65.1,30.06,SE,146,21.0,25.0,65,0.00,,---,0.00,VWS V14.00,2013-03-29 18:55:00,
2013-03-29 13:56:00,77.8,65.1,30.06,SE,129,19.0,24.0,65,0.00,,---,0.00,VWS V14.00,2013-03-29 18:56:00,
2013-03-29 13:57:00,77.9,65.2,30.06,SSE,155,23.0,26.0,65,0.00,,---,0.00,VWS V14.00,2013-03-29 18:57:00,
2013-03-29 13:58:00,77.5,64.4,30.06,SE,142,18.0,26.0,64,0.00,,---,0.00,VWS V14.00,2013-03-29 18:58:00,
2013-03-29 13:59:00,77.2,65.0,30.06,SE,128,18.0,21.0,66,0.00,,---,0.00,VWS V14.00,2013-03-29 18:59:00,
2013-03-29 14:00:00,77.5,64.8,30.06,ESE,115,19.0,22.0,65,0.00,,---,0.00,VWS V14.00,2013-03-29 19:00:00,
2013-03-29 14:01:00,77.4,64.7,30.06,SE,125,22.0,24.0,65,0.00,,---,0.00,VWS V14.00,2013-03-29 19:01:00,
2013-03-29 14:02:00,77.2,65.0,30.06,SE,130,18.0,22.0,66,0.00,,---,0.00,VWS V14.00,2013-03-29 19:02:00,
2013-03-29 14:03:00,77.2,65.0,30.06,SE,139,24.0,24.0,66,0.00,,---,0.00,VWS V14.00,2013-03-29 19:03:00,
2013-03-29 14:04:00,77.8,64.7,30.06,SE,138,15.0,18.0,64,0.00,,---,0.00,VWS V14.00,2013-03-29 19:04:00,
2013-03-29 14:05:00,77.7,65.4,30.06,SE,144,17.0,20.0,66,0.00,,---,0.00,VWS V14.00,2013-03-29 19:05:00,
2013-03-29 14:06:00,78.0,65.7,30.06,SE,136,20.0,24.0,66,0.00,,---,0.00,VWS V14.00,2013-03-29 19:06:00,
2013-03-29 14:07:00,77.8,64.7,30.06,SSE,150,13.0,24.0,64,0.00,,---,0.00,VWS V14.00,2013-03-29 19:07:00,
2013-03-29 14:08:00,77.7,64.6,30.06,SE,135,17.0,23.0,64,0.00,,---,0.00,VWS V14.00,2013-03-29 19:08:00,
2013-03-29 14:09:00,77.7,65.0,30.06,SE,142,17.0,23.0,65,0.00,,---,0.00,VWS V14.00,2013-03-29 19:09:00,
2013-03-29 14:10:00,77.8,65.1,30.06,SE,137,21.0,24.0,65,0.00,,---,0.00,VWS V14.00,2013-03-29 19:10:00,
2013-03-29 14:11:00,77.7,64.6,30.06,SSE,168,18.0,25.0,64,0.00,,---,0.00,VWS V14.00,2013-03-29 19:11:00,
2013-03-29 14:12:00,77.6,64.5,30.06,SE,140,23.0,24.0,64,0.00,,---,0.00,VWS V14.00,2013-03-29 19:12:00,
2013-03-29 14:13:00,77.9,64.8,30.06,SE,142,19.0,24.0,64,0.00,,---,0.00,VWS V14.00,2013-03-29 19:13:00,
2013-03-29 14:14:00,77.7,65.0,30.05,SE,126,18.0,24.0,65,0.00,,---,0.00,VWS V14.00,2013-03-29 19:14:00,
2013-03-29 14:15:00,78.0,64.8,30.06,ESE,121,22.0,26.0,64,0.00,,---,0.00,VWS V14.00,2013-03-29 19:15:00,
2013-03-29 14:16:00,77.9,64.8,30.06,SE,136,20.0,22.0,64,0.00,,---,0.00,VWS V14.00,2013-03-29 19:16:00,
2013-03-29 14:17:00,77.7,64.6,30.06,ESE,117,22.0,24.0,64,0.00,,---,0.00,VWS V14.00,2013-03-29 19:17:00,
2013-03-29 14:18:00,77.8,65.1,30.05,SE,142,20.0,25.0,65,0.00,,---,0.00,VWS V14.00,2013-03-29 19:18:00,
2013-03-29 14:19:00,77.5,64.8,30.05,SE,132,22.0,27.0,65,0.00,,---,0.00,VWS V14.00,2013-03-29 19:19:00,
2013-03-29 14:20:00,77.6,64.5,30.05,SE,126,20.0,27.0,64,0.00,,---,0.00,VWS V14.00,2013-03-29 19:20:00,
2013-03-29 14:21:00,77.4,64.3,30.05,SE,131,25.0,27.0,64,0.00,,---,0.00,VWS V14.00,2013-03-29 19:21:00,
2013-03-29 14:22:00,77.4,64.7,30.05,SSE,147,23.0,25.0,65,0.00,,---,0.00,VWS V14.00,2013-03-29 19:22:00,
2013-03-29 14:23:00,77.5,64.8,30.05,ESE,122,21.0,27.0,65,0.00,,---,0.00,VWS V14.00,2013-03-29 19:23:00,
2013-03-29 14:24:00,77.4,64.7,30.05,SE,140,22.0,22.0,65,0.00,,---,0.00,VWS V14.00,2013-03-29 19:24:00,
2013-03-29 14:25:00,77.6,64.9,30.05,ESE,123,21.0,26.0,65,0.00,,---,0.00,VWS V14.00,2013-03-29 19:25:00,
2013-03-29 14:26:00,77.5,64.8,30.05,SE,132,13.0,23.0,65,0.00,,---,0.00,VWS V14.00,2013-03-29 19:26:00,
2013-03-29 14:27:00,77.5,64.8,30.05,SE,140,21.0,27.0,65,0.00,,---,0.00,VWS V14.00,2013-03-29 19:27:00,
2013-03-29 14:28:00,77.1,64.4,30.05,SE,136,22.0,23.0,65,0.00,,---,0.00,VWS V14.00,2013-03-29 19:28:00,
2013-03-29 14:29:00,77.3,64.6,30.05,SE,126,16.0,19.0,65,0.00,,---,0.00,VWS V14.00,2013-03-29 19:29:00,
2013-03-29 14:30:00,77.1,64.9,30.05,SSE,155,18.0,22.0,66,0.00,,---,0.00,VWS V14.00,2013-03-29 19:30:00,
2013-03-29 14:31:00,77.3,64.6,30.05,SSE,148,18.0,23.0,65,0.00,,---,0.00,VWS V14.00,2013-03-29 19:31:00,
2013-03-29 14:32:00,77.3,64.6,30.05,SE,128,19.0,24.0,65,0.00,,---,0.00,VWS V14.00,2013-03-29 19:32:00,
2013-03-29 14:33:00,77.4,64.7,30.05,SE,142,20.0,22.0,65,0.00,,---,0.00,VWS V14.00,2013-03-29 19:33:00,
2013-03-29 14:34:00,76.9,64.7,30.05,SE,136,23.0,26.0,66,0.00,,---,0.00,VWS V14.00,2013-03-29 19:34:00,
2013-03-29 14:35:00,77.1,64.4,30.05,SSE,147,19.0,28.0,65,0.00,,---,0.00,VWS V14.00,2013-03-29 19:35:00,
2013-03-29 14:36:00,76.9,64.7,30.05,SSE,147,24.0,26.0,66,0.00,,---,0.00,VWS V14.00,2013-03-29 19:36:00,
2013-03-29 14:37:00,76.9,64.7,30.05,SSE,165,15.0,27.0,66,0.00,,---,0.00,VWS V14.00,2013-03-29 19:37:00,
2013-03-29 14:38:00,76.9,64.7,30.05,SE,137,15.0,26.0,66,0.00,,---,0.00,VWS V14.00,2013-03-29 19:38:00,
2013-03-29 14:39:00,76.8,64.6,30.05,ESE,117,20.0,25.0,66,0.00,,---,0.00,VWS V14.00,2013-03-29 19:39:00,
2013-03-29 14:40:00,76.9,64.2,30.05,SE,135,11.0,22.0,65,0.00,,---,0.00,VWS V14.00,2013-03-29 19:40:00,
2013-03-29 14:41:00,76.9,64.7,30.05,SE,143,22.0,23.0,66,0.00,,---,0.00,VWS V14.00,2013-03-29 19:41:00,
2013-03-29 14:42:00,76.8,64.6,30.05,ESE,115,20.0,25.0,66,0.00,,---,0.00,VWS V14.00,2013-03-29 19:42:00,
2013-03-29 14:43:00,76.9,65.1,30.05,SE,145,17.0,25.0,67,0.00,,---,0.00,VWS V14.00,2013-03-29 19:43:00,
2013-03-29 14:44:00,77.6,65.3,30.04,SE,142,14.0,23.0,66,0.00,,---,0.00,VWS V14.00,2013-03-29 19:44:00,
2013-03-29 14:45:00,77.8,65.1,30.05,SSE,154,20.0,24.0,65,0.00,,---,0.00,VWS V14.00,2013-03-29 19:45:00,
2013-03-29 14:46:00,77.8,65.1,30.05,SSE,148,22.0,24.0,65,0.00,,---,0.00,VWS V14.00,2013-03-29 19:46:00,
2013-03-29 14:47:00,77.6,64.9,30.04,SSE,148,23.0,23.0,65,0.00,,---,0.00,VWS V14.00,2013-03-29 19:47:00,
2013-03-29 14:48:00,77.7,65.0,30.04,SE,137,17.0,23.0,65,0.00,,---,0.00,VWS V14.00,2013-03-29 19:48:00,
2013-03-29 14:49:00,77.7,65.4,30.04,ESE,123,19.0,27.0,66,0.00,,---,0.00,VWS V14.00,2013-03-29 19:49:00,
2013-03-29 14:50:00,77.9,64.8,30.04,SE,134,16.0,25.0,64,0.00,,---,0.00,VWS V14.00,2013-03-29 19:50:00,
2013-03-29 14:51:00,78.0,65.3,30.04,SSE,147,21.0,30.0,65,0.00,,---,0.00,VWS V14.00,2013-03-29 19:51:00,
2013-03-29 14:52:00,78.0,64.8,30.04,ESE,107,24.0,24.0,64,0.00,,---,0.00,VWS V14.00,2013-03-29 19:52:00,
2013-03-29 14:53:00,78.0,64.8,30.04,SE,135,20.0,25.0,64,0.00,,---,0.00,VWS V14.00,2013-03-29 19:53:00,
2013-03-29 14:54:00,78.1,65.4,30.04,SE,128,21.0,24.0,65,0.00,,---,0.00,VWS V14.00,2013-03-29 19:54:00,
2013-03-29 14:55:00,77.7,65.0,30.04,SE,146,17.0,21.0,65,0.00,,---,0.00,VWS V14.00,2013-03-29 19:55:00,
2013-03-29 14:56:00,77.9,65.2,30.04,SE,127,24.0,25.0,65,0.00,,---,0.00,VWS V14.00,2013-03-29 19:56:00,
2013-03-29 14:57:00,77.7,65.0,30.04,SE,137,19.0,27.0,65,0.00,,---,0.00,VWS V14.00,2013-03-29 19:57:00,
2013-03-29 14:58:00,77.8,65.1,30.04,SE,142,20.0,25.0,65,0.00,,---,0.00,VWS V14.00,2013-03-29 19:58:00,
2013-03-29 15:00:00,77.2,64.5,30.05,SSE,155,22.0,25.0,65,0.00,,---,0.00,VWS V14.00,2013-03-29 20:00:00,
2013-03-29 15:01:00,77.4,64.7,30.04,SSE,155,17.0,23.0,65,0.00,,---,0.00,VWS V14.00,2013-03-29 20:01:00,
2013-03-29 15:03:00,77.1,64.4,30.05,SE,143,14.0,25.0,65,0.00,,---,0.00,VWS V14.00,2013-03-29 20:03:00,
2013-03-29 15:05:00,76.9,64.7,30.04,SE,140,19.0,23.0,66,0.00,,---,0.00,VWS V14.00,2013-03-29 20:05:00,
2013-03-29 15:06:00,76.9,64.7,30.04,SE,134,17.0,21.0,66,0.00,,---,0.00,VWS V14.00,2013-03-29 20:06:00,
2013-03-29 15:08:00,76.9,64.7,30.04,SE,139,18.0,24.0,66,0.00,,---,0.00,VWS V14.00,2013-03-29 20:08:00,
2013-03-29 15:10:00,76.9,64.7,30.04,SE,127,20.0,24.0,66,0.00,,---,0.00,VWS V14.00,2013-03-29 20:10:00,
2013-03-29 15:11:00,76.9,64.7,30.04,SSE,147,19.0,24.0,66,0.00,,---,0.00,VWS V14.00,2013-03-29 20:11:00,
2013-03-29 15:12:00,76.9,64.7,30.04,ESE,121,24.0,24.0,66,0.00,,---,0.00,VWS V14.00,2013-03-29 20:12:00,
2013-03-29 15:14:00,77.0,64.8,30.03,SE,140,17.0,25.0,66,0.00,,---,0.00,VWS V14.00,2013-03-29 20:14:00,
2013-03-29 15:15:00,76.5,64.3,30.04,SE,126,22.0,22.0,66,0.00,,---,0.00,VWS V14.00,2013-03-29 20:15:00,
2013-03-29 15:16:00,76.9,64.7,30.03,ESE,117,20.0,20.0,66,0.00,,---,0.00,VWS V14.00,2013-03-29 20:16:00,
2013-03-29 15:17:00,76.6,64.4,30.03,SE,134,18.0,25.0,66,0.00,,---,0.00,VWS V14.00,2013-03-29 20:17:00,
2013-03-29 15:18:00,76.5,64.7,30.04,SSE,161,20.0,22.0,67,0.00,,---,0.00,VWS V14.00,2013-03-29 20:18:00,
2013-03-29 15:19:00,76.5,65.2,30.03,SE,144,13.0,22.0,68,0.00,,---,0.00,VWS V14.00,2013-03-29 20:19:00,
2013-03-29 15:20:00,77.3,65.1,30.03,SE,137,14.0,24.0,66,0.00,,---,0.00,VWS V14.00,2013-03-29 20:20:00,
2013-03-29 15:21:00,76.9,65.1,30.03,SE,132,18.0,24.0,67,0.00,,---,0.00,VWS V14.00,2013-03-29 20:21:00,
2013-03-29 15:22:00,77.3,65.5,30.03,SE,138,20.0,23.0,67,0.00,,---,0.00,VWS V14.00,2013-03-29 20:22:00,
2013-03-29 15:23:00,77.4,64.7,30.04,SE,133,23.0,24.0,65,0.00,,---,0.00,VWS V14.00,2013-03-29 20:23:00,
2013-03-29 15:24:00,77.1,64.9,30.04,SE,140,18.0,23.0,66,0.00,,---,0.00,VWS V14.00,2013-03-29 20:24:00,
2013-03-29 15:25:00,77.0,65.2,30.03,SE,128,24.0,25.0,67,0.00,,---,0.00,VWS V14.00,2013-03-29 20:25:00,
2013-03-29 15:26:00,76.8,64.6,30.03,SE,128,17.0,19.0,66,0.00,,---,0.00,VWS V14.00,2013-03-29 20:26:00,
2013-03-29 15:27:00,76.9,65.1,30.03,ESE,116,19.0,25.0,67,0.00,,---,0.00,VWS V14.00,2013-03-29 20:27:00,
2013-03-29 15:28:00,76.9,65.1,30.03,SE,131,23.0,25.0,67,0.00,,---,0.00,VWS V14.00,2013-03-29 20:28:00,
2013-03-29 15:29:00,77.0,65.2,30.03,SE,124,18.0,27.0,67,0.00,,---,0.00,VWS V14.00,2013-03-29 20:29:00,
2013-03-29 15:30:00,77.0,64.8,30.03,SSE,148,14.0,24.0,66,0.00,,---,0.00,VWS V14.00,2013-03-29 20:30:00,
2013-03-29 15:31:00,77.0,65.2,30.03,South,169,18.0,21.0,67,0.00,,---,0.00,VWS V14.00,2013-03-29 20:31:00,
2013-03-29 15:32:00,77.1,65.3,30.03,SSE,152,18.0,21.0,67,0.00,,---,0.00,VWS V14.00,2013-03-29 20:32:00,
2013-03-29 15:33:00,76.9,64.7,30.03,SE,138,19.0,24.0,66,0.00,,---,0.00,VWS V14.00,2013-03-29 20:33:00,
2013-03-29 15:34:00,77.0,65.2,30.03,SSE,159,17.0,22.0,67,0.00,,---,0.00,VWS V14.00,2013-03-29 20:34:00,
2013-03-29 15:35:00,77.0,65.2,30.02,SE,142,19.0,24.0,67,0.00,,---,0.00,VWS V14.00,2013-03-29 20:35:00,
2013-03-29 15:36:00,77.2,65.0,30.03,SE,146,18.0,23.0,66,0.00,,---,0.00,VWS V14.00,2013-03-29 20:36:00,
2013-03-29 15:37:00,77.0,64.8,30.03,SSE,160,22.0,22.0,66,0.00,,---,0.00,VWS V14.00,2013-03-29 20:37:00,
2013-03-29 15:38:00,77.0,65.2,30.02,SE,136,18.0,24.0,67,0.00,,---,0.00,VWS V14.00,2013-03-29 20:38:00,
2013-03-29 15:39:00,76.9,65.1,30.02,ESE,120,18.0,22.0,67,0.00,,---,0.00,VWS V14.00,2013-03-29 20:39:00,
2013-03-29 15:40:00,77.2,65.0,30.03,SE,140,18.0,21.0,66,0.00,,---,0.00,VWS V14.00,2013-03-29 20:40:00,
2013-03-29 15:41:00,77.1,65.3,30.02,SE,138,22.0,24.0,67,0.00,,---,0.00,VWS V14.00,2013-03-29 20:41:00,
2013-03-29 15:42:00,77.1,65.3,30.02,SE,139,21.0,24.0,67,0.00,,---,0.00,VWS V14.00,2013-03-29 20:42:00,
2013-03-29 15:43:00,77.2,65.0,30.03,SE,126,22.0,22.0,66,0.00,,---,0.00,VWS V14.00,2013-03-29 20:43:00,
2013-03-29 15:44:00,77.3,65.5,30.03,SE,134,16.0,28.0,67,0.00,,---,0.00,VWS V14.00,2013-03-29 20:44:00,
2013-03-29 15:45:00,77.6,65.3,30.03,SE,126,20.0,21.0,66,0.00,,---,0.00,VWS V14.00,2013-03-29 20:45:00,
2013-03-29 15:46:00,77.6,65.3,30.02,ESE,121,19.0,23.0,66,0.00,,---,0.00,VWS V14.00,2013-03-29 20:46:00,
2013-03-29 15:47:00,77.5,65.3,30.03,SE,144,15.0,22.0,66,0.00,,---,0.00,VWS V14.00,2013-03-29 20:47:00,
2013-03-29 15:48:00,77.6,65.3,30.03,SE,127,21.0,22.0,66,0.00,,---,0.00,VWS V14.00,2013-03-29 20:48:00,
2013-03-29 15:49:00,77.5,65.3,30.03,SE,144,18.0,24.0,66,0.00,,---,0.00,VWS V14.00,2013-03-29 20:49:00,
2013-03-29 15:50:00,77.4,65.6,30.02,SE,136,15.0,25.0,67,0.00,,---,0.00,VWS V14.00,2013-03-29 20:50:00,
2013-03-29 15:51:00,77.3,65.1,30.02,SE,137,20.0,23.0,66,0.00,,---,0.00,VWS V14.00,2013-03-29 20:51:00,
2013-03-29 15:52:00,77.3,65.5,30.02,SE,142,25.0,25.0,67,0.00,,---,0.00,VWS V14.00,2013-03-29 20:52:00,
2013-03-29 15:53:00,77.3,65.1,30.02,SSE,147,20.0,25.0,66,0.00,,---,0.00,VWS V14.00,2013-03-29 20:53:00,
2013-03-29 15:54:00,77.1,64.9,30.02,ESE,119,20.0,25.0,66,0.00,,---,0.00,VWS V14.00,2013-03-29 20:54:00,
2013-03-29 15:55:00,76.3,65.0,30.02,SE,146,18.0,25.0,68,0.00,,---,0.00,VWS V14.00,2013-03-29 20:55:00,
2013-03-29 15:56:00,76.6,64.8,30.02,ESE,123,22.0,29.0,67,0.00,,---,0.00,VWS V14.00,2013-03-29 20:56:00,
2013-03-29 15:57:00,76.4,64.6,30.02,SSE,148,21.0,26.0,67,0.00,,---,0.00,VWS V14.00,2013-03-29 20:57:00,
2013-03-29 15:58:00,76.3,65.0,30.02,SE,140,21.0,25.0,68,0.00,,---,0.00,VWS V14.00,2013-03-29 20:58:00,
2013-03-29 15:59:00,76.2,64.9,30.02,SE,126,18.0,24.0,68,0.00,,---,0.00,VWS V14.00,2013-03-29 20:59:00,
2013-03-29 16:00:00,76.1,64.8,30.02,SE,143,19.0,21.0,68,0.00,,---,0.00,VWS V14.00,2013-03-29 21:00:00,
2013-03-29 16:01:00,76.2,64.9,30.02,SSE,147,18.0,24.0,68,0.00,,---,0.00,VWS V14.00,2013-03-29 21:01:00,
2013-03-29 16:02:00,76.1,64.8,30.02,SE,136,15.0,26.0,68,0.00,,---,0.00,VWS V14.00,2013-03-29 21:02:00,
2013-03-29 16:03:00,76.0,64.7,30.02,SE,125,22.0,22.0,68,0.00,,---,0.00,VWS V14.00,2013-03-29 21:03:00,
2013-03-29 16:04:00,76.0,64.7,30.02,SE,132,22.0,24.0,68,0.00,,---,0.00,VWS V14.00,2013-03-29 21:04:00,
2013-03-29 16:05:00,76.2,64.9,30.02,ESE,115,24.0,25.0,68,0.00,,---,0.00,VWS V14.00,2013-03-29 21:05:00,
2013-03-29 16:06:00,76.0,64.7,30.02,SE,130,20.0,23.0,68,0.00,,---,0.00,VWS V14.00,2013-03-29 21:06:00,
2013-03-29 16:07:00,76.2,64.9,30.02,ESE,107,22.0,24.0,68,0.00,,---,0.00,VWS V14.00,2013-03-29 21:07:00,
2013-03-29 16:08:00,76.2,64.9,30.02,ESE,123,24.0,25.0,68,0.00,,---,0.00,VWS V14.00,2013-03-29 21:08:00,
2013-03-29 16:09:00,76.2,64.9,30.02,SE,138,24.0,25.0,68,0.00,,---,0.00,VWS V14.00,2013-03-29 21:09:00,
2013-03-29 16:10:00,76.4,65.1,30.02,SSE,151,18.0,21.0,68,0.00,,---,0.00,VWS V14.00,2013-03-29 21:10:00,
2013-03-29 16:11:00,76.3,65.4,30.02,ESE,111,23.0,24.0,69,0.00,,---,0.00,VWS V14.00,2013-03-29 21:11:00,
2013-03-29 16:12:00,76.4,65.1,30.01,SE,135,21.0,23.0,68,0.00,,---,0.00,VWS V14.00,2013-03-29 21:12:00,
2013-03-29 16:13:00,76.4,65.1,30.02,SE,140,17.0,21.0,68,0.00,,---,0.00,VWS V14.00,2013-03-29 21:13:00,
2013-03-29 16:14:00,76.8,65.9,30.01,SE,134,21.0,23.0,69,0.00,,---,0.00,VWS V14.00,2013-03-29 21:14:00,
2013-03-29 16:15:00,76.7,65.3,30.01,SE,130,21.0,24.0,68,0.00,,---,0.00,VWS V14.00,2013-03-29 21:15:00,
2013-03-29 16:16:00,76.8,65.0,30.01,SE,140,19.0,23.0,67,0.00,,---,0.00,VWS V14.00,2013-03-29 21:16:00,
2013-03-29 16:17:00,76.7,64.9,30.01,ESE,113,20.0,25.0,67,0.00,,---,0.00,VWS V14.00,2013-03-29 21:17:00,
2013-03-29 16:18:00,76.7,65.3,30.01,SE,127,20.0,24.0,68,0.00,,---,0.00,VWS V14.00,2013-03-29 21:18:00,
2013-03-29 16:19:00,76.7,65.3,30.01,ESE,122,22.0,28.0,68,0.00,,---,0.00,VWS V14.00,2013-03-29 21:19:00,
2013-03-29 16:20:00,76.6,65.3,30.01,SE,127,19.0,20.0,68,0.00,,---,0.00,VWS V14.00,2013-03-29 21:20:00,
2013-03-29 16:21:00,76.5,65.2,30.01,ESE,115,19.0,22.0,68,0.00,,---,0.00,VWS V14.00,2013-03-29 21:21:00,
2013-03-29 16:22:00,76.6,65.3,30.01,SE,136,19.0,25.0,68,0.00,,---,0.00,VWS V14.00,2013-03-29 21:22:00,
2013-03-29 16:23:00,76.5,65.2,30.01,SE,133,16.0,20.0,68,0.00,,---,0.00,VWS V14.00,2013-03-29 21:23:00,
2013-03-29 16:24:00,76.5,65.6,30.01,SE,126,23.0,26.0,69,0.00,,---,0.00,VWS V14.00,2013-03-29 21:24:00,
2013-03-29 16:25:00,77.2,66.2,30.01,SE,137,24.0,24.0,69,0.00,,---,0.00,VWS V14.00,2013-03-29 21:25:00,
2013-03-29 16:26:00,76.5,65.6,30.01,SE,132,18.0,21.0,69,0.00,,---,0.00,VWS V14.00,2013-03-29 21:26:00,
2013-03-29 16:27:00,76.8,65.9,30.01,SE,140,20.0,24.0,69,0.00,,---,0.00,VWS V14.00,2013-03-29 21:27:00,
2013-03-29 16:28:00,77.2,65.4,30.01,SE,133,21.0,24.0,67,0.00,,---,0.00,VWS V14.00,2013-03-29 21:28:00,
2013-03-29 16:29:00,77.1,65.3,30.01,SSE,159,17.0,21.0,67,0.00,,---,0.00,VWS V14.00,2013-03-29 21:29:00,
2013-03-29 16:30:00,76.3,65.0,30.01,ESE,109,24.0,24.0,68,0.00,,---,0.00,VWS V14.00,2013-03-29 21:30:00,
2013-03-29 16:31:00,76.8,65.0,30.01,SE,141,20.0,24.0,67,0.00,,---,0.00,VWS V14.00,2013-03-29 21:31:00,
2013-03-29 16:32:00,76.6,65.3,30.01,SE,128,22.0,24.0,68,0.00,,---,0.00,VWS V14.00,2013-03-29 21:32:00,
2013-03-29 16:33:00,76.2,64.9,30.01,ESE,107,22.0,26.0,68,0.00,,---,0.00,VWS V14.00,2013-03-29 21:33:00,
2013-03-29 16:34:00,76.0,65.1,30.01,SE,137,24.0,25.0,69,0.00,,---,0.00,VWS V14.00,2013-03-29 21:34:00,
2013-03-29 16:35:00,75.6,65.1,30.01,SE,140,19.0,22.0,70,0.00,,---,0.00,VWS V14.00,2013-03-29 21:35:00,
2013-03-29 16:36:00,75.6,64.7,30.01,South,169,20.0,23.0,69,0.00,,---,0.00,VWS V14.00,2013-03-29 21:36:00,
2013-03-29 16:37:00,75.5,64.6,30.01,SE,146,19.0,20.0,69,0.00,,---,0.00,VWS V14.00,2013-03-29 21:37:00,
2013-03-29 16:38:00,75.6,65.1,30.01,SE,140,19.0,22.0,70,0.00,,---,0.00,VWS V14.00,2013-03-29 21:38:00,
2013-03-29 16:39:00,75.6,64.7,30.01,SE,142,19.0,21.0,69,0.00,,---,0.00,VWS V14.00,2013-03-29 21:39:00,
2013-03-29 16:40:00,76.2,65.7,30.01,SE,142,22.0,26.0,70,0.00,,---,0.00,VWS V14.00,2013-03-29 21:40:00,
2013-03-29 16:41:00,75.8,64.9,30.01,SE,125,13.0,21.0,69,0.00,,---,0.00,VWS V14.00,2013-03-29 21:41:00,
2013-03-29 16:42:00,76.0,65.5,30.01,SE,135,22.0,23.0,70,0.00,,---,0.00,VWS V14.00,2013-03-29 21:42:00,
2013-03-29 16:43:00,76.2,65.7,30.01,SE,142,22.0,26.0,70,0.00,,---,0.00,VWS V14.00,2013-03-29 21:43:00,
2013-03-29 16:44:00,76.2,65.3,30.01,SSE,147,20.0,23.0,69,0.00,,---,0.00,VWS V14.00,2013-03-29 21:44:00,
2013-03-29 16:45:00,75.8,64.9,30.01,SE,138,13.0,24.0,69,0.00,,---,0.00,VWS V14.00,2013-03-29 21:45:00,
2013-03-29 16:46:00,75.9,65.0,30.00,SE,128,23.0,24.0,69,0.00,,---,0.00,VWS V14.00,2013-03-29 21:46:00,
2013-03-29 16:47:00,75.9,65.0,30.01,SE,146,22.0,23.0,69,0.00,,---,0.00,VWS V14.00,2013-03-29 21:47:00,
2013-03-29 16:48:00,75.8,64.9,30.01,SE,138,13.0,24.0,69,0.00,,---,0.00,VWS V14.00,2013-03-29 21:48:00,
2013-03-29 16:49:00,76.0,65.5,30.01,ESE,115,19.0,26.0,70,0.00,,---,0.00,VWS V14.00,2013-03-29 21:49:00,
2013-03-29 16:50:00,76.1,65.2,30.01,ESE,121,21.0,23.0,69,0.00,,---,0.00,VWS V14.00,2013-03-29 21:50:00,
2013-03-29 16:51:00,76.0,65.5,30.00,SE,130,22.0,23.0,70,0.00,,---,0.00,VWS V14.00,2013-03-29 21:51:00,
2013-03-29 16:52:00,76.1,65.2,30.00,SSE,148,18.0,23.0,69,0.00,,---,0.00,VWS V14.00,2013-03-29 21:52:00,
2013-03-29 16:53:00,76.1,65.2,30.01,ESE,121,21.0,23.0,69,0.00,,---,0.00,VWS V14.00,2013-03-29 21:53:00,
2013-03-29 16:54:00,76.0,65.1,30.00,ESE,119,24.0,25.0,69,0.00,,---,0.00,VWS V14.00,2013-03-29 21:54:00,
2013-03-29 16:55:00,75.8,65.3,30.00,ESE,120,20.0,24.0,70,0.00,,---,0.00,VWS V14.00,2013-03-29 21:55:00,
2013-03-29 16:56:00,75.8,64.9,30.00,SE,141,19.0,22.0,69,0.00,,---,0.00,VWS V14.00,2013-03-29 21:56:00,
2013-03-29 16:57:00,75.7,64.8,30.00,SE,134,22.0,23.0,69,0.00,,---,0.00,VWS V14.00,2013-03-29 21:57:00,
2013-03-29 16:58:00,75.8,65.3,30.00,ESE,120,20.0,24.0,70,0.00,,---,0.00,VWS V14.00,2013-03-29 21:58:00,
2013-03-29 16:59:00,75.9,65.4,30.00,SE,134,17.0,25.0,70,0.00,,---,0.00,VWS V14.00,2013-03-29 21:59:00,
2013-03-29 17:00:00,76.0,64.7,30.00,SE,132,17.0,23.0,68,0.00,,---,0.00,VWS V14.00,2013-03-29 22:00:00,
2013-03-29 17:01:00,76.0,65.1,30.00,SSE,149,14.0,20.0,69,0.00,,---,0.00,VWS V14.00,2013-03-29 22:01:00,
2013-03-29 17:02:00,76.0,65.1,30.00,SE,142,22.0,22.0,69,0.00,,---,0.00,VWS V14.00,2013-03-29 22:02:00,
2013-03-29 17:03:00,76.0,64.7,30.00,SE,132,17.0,23.0,68,0.00,,---,0.00,VWS V14.00,2013-03-29 22:03:00,
2013-03-29 17:04:00,75.7,64.4,30.00,SE,140,23.0,23.0,68,0.00,,---,0.00,VWS V14.00,2013-03-29 22:04:00,
2013-03-29 17:05:00,75.3,64.8,30.00,ESE,117,19.0,22.0,70,0.00,,---,0.00,VWS V14.00,2013-03-29 22:05:00,
2013-03-29 17:06:00,75.2,64.3,30.00,SE,139,20.0,21.0,69,0.00,,---,0.00,VWS V14.00,2013-03-29 22:06:00,
2013-03-29 17:07:00,75.3,64.8,30.00,ESE,121,18.0,21.0,70,0.00,,---,0.00,VWS V14.00,2013-03-29 22:07:00,
2013-03-29 17:08:00,75.3,64.8,30.00,ESE,117,19.0,22.0,70,0.00,,---,0.00,VWS V14.00,2013-03-29 22:08:00,
2013-03-29 17:09:00,75.3,64.8,30.00,SE,130,21.0,22.0,70,0.00,,---,0.00,VWS V14.00,2013-03-29 22:09:00,
2013-03-29 17:10:00,74.6,64.2,30.00,ESE,123,18.0,21.0,70,0.00,,---,0.00,VWS V14.00,2013-03-29 22:10:00,
2013-03-29 17:11:00,75.0,64.6,30.00,ESE,117,22.0,24.0,70,0.00,,---,0.00,VWS V14.00,2013-03-29 22:11:00,
2013-03-29 17:12:00,74.8,64.4,30.00,SE,141,19.0,25.0,70,0.00,,---,0.00,VWS V14.00,2013-03-29 22:12:00,
2013-03-29 17:13:00,74.6,64.2,30.00,ESE,123,18.0,21.0,70,0.00,,---,0.00,VWS V14.00,2013-03-29 22:13:00,
2013-03-29 17:14:00,74.6,65.0,30.00,SE,126,19.0,22.0,72,0.00,,---,0.00,VWS V14.00,2013-03-29 22:14:00,
2013-03-29 17:15:00,74.6,64.6,30.00,SE,144,19.0,24.0,71,0.00,,---,0.00,VWS V14.00,2013-03-29 22:15:00,
2013-03-29 17:16:00,74.6,64.6,30.00,SE,134,19.0,25.0,71,0.00,,---,0.00,VWS V14.00,2013-03-29 22:16:00,
2013-03-29 17:17:00,74.6,64.6,30.00,SE,137,24.0,24.0,71,0.00,,---,0.00,VWS V14.00,2013-03-29 22:17:00,
2013-03-29 17:18:00,74.6,64.6,30.00,SE,144,19.0,24.0,71,0.00,,---,0.00,VWS V14.00,2013-03-29 22:18:00,
2013-03-29 17:19:00,74.7,65.1,30.00,SE,134,14.0,22.0,72,0.00,,---,0.00,VWS V14.00,2013-03-29 22:19:00,
2013-03-29 17:20:00,74.8,65.2,30.00,ESE,121,22.0,23.0,72,0.00,,---,0.00,VWS V14.00,2013-03-29 22:20:00,
2013-03-29 17:21:00,74.8,64.8,30.00,ESE,123,22.0,24.0,71,0.00,,---,0.00,VWS V14.00,2013-03-29 22:21:00,
2013-03-29 17:22:00,74.8,64.8,30.00,SE,124,20.0,22.0,71,0.00,,---,0.00,VWS V14.00,2013-03-29 22:22:00,
2013-03-29 17:23:00,74.8,65.2,30.00,ESE,121,22.0,23.0,72,0.00,,---,0.00,VWS V14.00,2013-03-29 22:23:00,
2013-03-29 17:24:00,74.7,65.1,30.00,SE,126,17.0,22.0,72,0.00,,---,0.00,VWS V14.00,2013-03-29 22:24:00,
2013-03-29 17:25:00,74.9,65.7,30.01,ESE,121,22.0,22.0,73,0.00,,---,0.00,VWS V14.00,2013-03-29 22:25:00,
2013-03-29 17:27:00,74.8,65.6,30.01,SE,140,18.0,21.0,73,0.00,,---,0.00,VWS V14.00,2013-03-29 22:27:00,
2013-03-29 17:28:00,74.9,65.7,30.01,ESE,121,22.0,22.0,73,0.00,,---,0.00,VWS V14.00,2013-03-29 22:28:00,
2013-03-29 17:29:00,75.1,65.5,30.01,SE,129,17.0,22.0,72,0.00,,---,0.00,VWS V14.00,2013-03-29 22:29:00,
2013-03-29 17:30:00,75.1,65.5,30.01,SSE,153,17.0,21.0,72,0.00,,---,0.00,VWS V14.00,2013-03-29 22:30:00,
2013-03-29 17:31:00,75.2,65.6,30.01,SE,132,19.0,25.0,72,0.00,,---,0.00,VWS V14.00,2013-03-29 22:31:00,
2013-03-29 17:32:00,75.2,65.6,30.01,SE,146,21.0,23.0,72,0.00,,---,0.00,VWS V14.00,2013-03-29 22:32:00,
2013-03-29 17:33:00,75.1,65.5,30.01,SSE,153,17.0,21.0,72,0.00,,---,0.00,VWS V14.00,2013-03-29 22:33:00,
2013-03-29 17:34:00,75.2,65.6,30.01,SE,138,17.0,20.0,72,0.00,,---,0.00,VWS V14.00,2013-03-29 22:34:00,
2013-03-29 17:35:00,75.3,65.7,30.01,SSE,152,20.0,20.0,72,0.00,,---,0.00,VWS V14.00,2013-03-29 22:35:00,
2013-03-29 17:36:00,75.2,65.6,30.01,ESE,122,17.0,25.0,72,0.00,,---,0.00,VWS V14.00,2013-03-29 22:36:00,
2013-03-29 17:37:00,75.2,65.6,30.01,SE,141,17.0,21.0,72,0.00,,---,0.00,VWS V14.00,2013-03-29 22:37:00,
2013-03-29 17:38:00,75.3,65.7,30.01,SSE,152,20.0,20.0,72,0.00,,---,0.00,VWS V14.00,2013-03-29 22:38:00,
2013-03-29 17:39:00,75.2,65.6,30.01,SE,136,15.0,21.0,72,0.00,,---,0.00,VWS V14.00,2013-03-29 22:39:00,
2013-03-29 17:40:00,75.2,66.0,30.00,SE,132,16.0,21.0,73,0.00,,---,0.00,VWS V14.00,2013-03-29 22:40:00,
2013-03-29 17:41:00,75.0,65.4,30.00,SE,132,17.0,21.0,72,0.00,,---,0.00,VWS V14.00,2013-03-29 22:41:00,
2013-03-29 17:42:00,75.0,65.4,30.00,SE,143,14.0,22.0,72,0.00,,---,0.00,VWS V14.00,2013-03-29 22:42:00,
2013-03-29 17:43:00,75.2,66.0,30.00,SE,132,16.0,21.0,73,0.00,,---,0.00,VWS V14.00,2013-03-29 22:43:00,
2013-03-29 17:44:00,75.3,65.7,30.00,SE,130,21.0,27.0,72,0.00,,---,0.00,VWS V14.00,2013-03-29 22:44:00,
2013-03-29 17:45:00,75.1,65.5,30.00,SE,145,15.0,22.0,72,0.00,,---,0.00,VWS V14.00,2013-03-29 22:45:00,
2013-03-29 17:46:00,75.1,65.5,30.00,SE,129,15.0,23.0,72,0.00,,---,0.00,VWS V14.00,2013-03-29 22:46:00,
2013-03-29 17:47:00,75.1,65.5,30.00,SSE,168,17.0,22.0,72,0.00,,---,0.00,VWS V14.00,2013-03-29 22:47:00,
2013-03-29 17:48:00,75.1,65.5,30.00,SE,145,15.0,22.0,72,0.00,,---,0.00,VWS V14.00,2013-03-29 22:48:00,
2013-03-29 17:49:00,75.3,65.7,30.00,SSE,153,19.0,23.0,72,0.00,,---,0.00,VWS V14.00,2013-03-29 22:49:00,
2013-03-29 17:50:00,75.0,65.4,30.00,SE,144,17.0,23.0,72,0.00,,---,0.00,VWS V14.00,2013-03-29 22:50:00,
2013-03-29 17:51:00,75.1,65.5,30.00,SE,138,17.0,22.0,72,0.00,,---,0.00,VWS V14.00,2013-03-29 22:51:00,
2013-03-29 17:52:00,75.0,65.4,30.00,SE,134,23.0,24.0,72,0.00,,---,0.00,VWS V14.00,2013-03-29 22:52:00,
2013-03-29 17:53:00,75.0,65.4,30.00,SE,144,17.0,23.0,72,0.00,,---,0.00,VWS V14.00,2013-03-29 22:53:00,
2013-03-29 17:54:00,75.1,65.5,30.00,SSE,147,22.0,22.0,72,0.00,,---,0.00,VWS V14.00,2013-03-29 22:54:00,
2013-03-29 17:55:00,74.9,65.3,30.00,SE,137,19.0,25.0,72,0.00,,---,0.00,VWS V14.00,2013-03-29 22:55:00,
2013-03-29 17:56:00,75.0,65.0,30.00,SSE,153,19.0,25.0,71,0.00,,---,0.00,VWS V14.00,2013-03-29 22:56:00,
2013-03-29 17:57:00,75.0,65.4,30.00,SSE,151,19.0,20.0,72,0.00,,---,0.00,VWS V14.00,2013-03-29 22:57:00,
2013-03-29 17:58:00,74.9,65.3,30.00,SE,137,19.0,25.0,72,0.00,,---,0.00,VWS V14.00,2013-03-29 22:58:00,
2013-03-29 17:59:00,74.8,65.2,30.00,SE,126,21.0,22.0,72,0.00,,---,0.00,VWS V14.00,2013-03-29 22:59:00,
2013-03-29 18:00:00,74.9,65.3,30.00,SE,140,17.0,19.0,72,0.00,,---,0.00,VWS V14.00,2013-03-29 23:00:00,
2013-03-29 18:01:00,74.8,65.2,30.01,SE,140,17.0,20.0,72,0.00,,---,0.00,VWS V14.00,2013-03-29 23:01:00,
2013-03-29 18:02:00,74.9,65.3,30.00,SE,128,18.0,21.0,72,0.00,,---,0.00,VWS V14.00,2013-03-29 23:02:00,
2013-03-29 18:03:00,74.9,65.3,30.00,SE,143,14.0,21.0,72,0.00,,---,0.00,VWS V14.00,2013-03-29 23:03:00,
2013-03-29 18:04:00,74.9,65.3,30.00,SE,130,18.0,19.0,72,0.00,,---,0.00,VWS V14.00,2013-03-29 23:04:00,
2013-03-29 18:05:00,74.8,65.2,30.00,SE,127,18.0,24.0,72,0.00,,---,0.00,VWS V14.00,2013-03-29 23:05:00,
2013-03-29 18:06:00,75.0,65.4,30.00,SE,139,17.0,21.0,72,0.00,,---,0.00,VWS V14.00,2013-03-29 23:06:00,
2013-03-29 18:07:00,75.0,65.4,30.00,SSE,149,20.0,21.0,72,0.00,,---,0.00,VWS V14.00,2013-03-29 23:07:00,
2013-03-29 18:08:00,74.8,65.2,30.00,ESE,116,19.0,20.0,72,0.00,,---,0.00,VWS V14.00,2013-03-29 23:08:00,
2013-03-29 18:09:00,74.8,65.2,30.00,SE,140,20.0,24.0,72,0.00,,---,0.00,VWS V14.00,2013-03-29 23:09:00,
2013-03-29 18:10:00,74.4,65.2,30.01,SE,128,20.0,20.0,73,0.00,,---,0.00,VWS V14.00,2013-03-29 23:10:00,
2013-03-29 18:11:00,74.6,65.0,30.00,SE,128,18.0,23.0,72,0.00,,---,0.00,VWS V14.00,2013-03-29 23:11:00,
2013-03-29 18:12:00,74.5,64.9,30.00,ESE,123,24.0,25.0,72,0.00,,---,0.00,VWS V14.00,2013-03-29 23:12:00,
2013-03-29 18:13:00,74.4,65.2,30.00,ESE,123,15.0,25.0,73,0.00,,---,0.00,VWS V14.00,2013-03-29 23:13:00,
2013-03-29 18:14:00,74.4,65.2,30.01,SE,133,13.0,20.0,73,0.00,,---,0.00,VWS V14.00,2013-03-29 23:14:00,
2013-03-29 18:15:00,74.2,65.0,30.00,SE,136,25.0,25.0,73,0.00,,---,0.00,VWS V14.00,2013-03-29 23:15:00,
2013-03-29 18:16:00,74.3,65.1,30.00,SE,131,18.0,21.0,73,0.00,,---,0.00,VWS V14.00,2013-03-29 23:16:00,
2013-03-29 18:17:00,74.3,65.1,30.00,SE,126,18.0,23.0,73,0.00,,---,0.00,VWS V14.00,2013-03-29 23:17:00,
2013-03-29 18:18:00,74.2,65.0,30.00,SE,138,22.0,22.0,73,0.00,,---,0.00,VWS V14.00,2013-03-29 23:18:00,
2013-03-29 18:19:00,74.0,64.8,30.00,SE,133,16.0,25.0,73,0.00,,---,0.00,VWS V14.00,2013-03-29 23:19:00,
2013-03-29 18:20:00,73.5,64.7,30.00,ESE,123,18.0,22.0,74,0.00,,---,0.00,VWS V14.00,2013-03-29 23:20:00,
2013-03-29 18:21:00,73.6,64.8,30.00,SE,126,19.0,21.0,74,0.00,,---,0.00,VWS V14.00,2013-03-29 23:21:00,
2013-03-29 18:22:00,73.6,64.8,30.01,ESE,123,19.0,23.0,74,0.00,,---,0.00,VWS V14.00,2013-03-29 23:22:00,
2013-03-29 18:23:00,73.6,64.8,30.00,SE,140,19.0,22.0,74,0.00,,---,0.00,VWS V14.00,2013-03-29 23:23:00,
2013-03-29 18:24:00,73.6,64.8,30.00,ESE,119,15.0,22.0,74,0.00,,---,0.00,VWS V14.00,2013-03-29 23:24:00,
2013-03-29 18:25:00,73.2,64.8,30.00,SE,134,18.0,20.0,75,0.00,,---,0.00,VWS V14.00,2013-03-29 23:25:00,
2013-03-29 18:26:00,73.4,65.0,30.01,SE,129,16.0,20.0,75,0.00,,---,0.00,VWS V14.00,2013-03-29 23:26:00,
2013-03-29 18:27:00,73.3,64.9,30.00,SE,138,19.0,23.0,75,0.00,,---,0.00,VWS V14.00,2013-03-29 23:27:00,
2013-03-29 18:28:00,73.3,64.9,30.01,SE,135,18.0,21.0,75,0.00,,---,0.00,VWS V14.00,2013-03-29 23:28:00,
2013-03-29 18:29:00,73.1,64.7,30.00,SE,127,20.0,20.0,75,0.00,,---,0.00,VWS V14.00,2013-03-29 23:29:00,
2013-03-29 18:30:00,73.1,64.7,30.01,SE,139,17.0,18.0,75,0.00,,---,0.00,VWS V14.00,2013-03-29 23:30:00,
2013-03-29 18:31:00,73.1,64.7,30.01,ESE,120,16.0,17.0,75,0.00,,---,0.00,VWS V14.00,2013-03-29 23:31:00,
2013-03-29 18:32:00,73.1,64.7,30.01,SE,144,17.0,19.0,75,0.00,,---,0.00,VWS V14.00,2013-03-29 23:32:00,
2013-03-29 18:33:00,73.1,64.7,30.01,SE,134,17.0,21.0,75,0.00,,---,0.00,VWS V14.00,2013-03-29 23:33:00,
2013-03-29 18:34:00,73.0,64.6,30.01,SE,136,18.0,18.0,75,0.00,,---,0.00,VWS V14.00,2013-03-29 23:34:00,
2013-03-29 18:35:00,72.9,64.9,30.01,SE,138,15.0,17.0,76,0.00,,---,0.00,VWS V14.00,2013-03-29 23:35:00,
2013-03-29 18:36:00,73.0,65.0,30.01,SE,130,15.0,20.0,76,0.00,,---,0.00,VWS V14.00,2013-03-29 23:36:00,
2013-03-29 18:37:00,72.9,64.9,30.01,SE,132,15.0,18.0,76,0.00,,---,0.00,VWS V14.00,2013-03-29 23:37:00,
2013-03-29 18:38:00,72.9,64.9,30.01,SE,126,15.0,20.0,76,0.00,,---,0.00,VWS V14.00,2013-03-29 23:38:00,
2013-03-29 18:39:00,72.9,64.9,30.01,SE,131,17.0,18.0,76,0.00,,---,0.00,VWS V14.00,2013-03-29 23:39:00,
2013-03-29 18:40:00,72.9,64.9,30.01,SE,125,16.0,19.0,76,0.00,,---,0.00,VWS V14.00,2013-03-29 23:40:00,
2013-03-29 18:41:00,72.8,64.8,30.01,SE,134,13.0,14.0,76,0.00,,---,0.00,VWS V14.00,2013-03-29 23:41:00,
2013-03-29 18:42:00,72.8,64.8,30.01,SE,139,13.0,19.0,76,0.00,,---,0.00,VWS V14.00,2013-03-29 23:42:00,
2013-03-29 18:43:00,72.9,64.9,30.01,SE,133,13.0,18.0,76,0.00,,---,0.00,VWS V14.00,2013-03-29 23:43:00,
2013-03-29 18:44:00,72.8,64.8,30.01,SE,138,13.0,15.0,76,0.00,,---,0.00,VWS V14.00,2013-03-29 23:44:00,
2013-03-29 18:45:00,72.8,64.8,30.01,SE,138,15.0,21.0,76,0.00,,---,0.00,VWS V14.00,2013-03-29 23:45:00,
2013-03-29 18:46:00,72.7,65.1,30.01,SE,136,10.0,15.0,77,0.00,,---,0.00,VWS V14.00,2013-03-29 23:46:00,
2013-03-29 18:47:00,72.7,65.1,30.01,SE,128,12.0,19.0,77,0.00,,---,0.00,VWS V14.00,2013-03-29 23:47:00,
2013-03-29 18:48:00,72.7,65.1,30.01,SSE,151,13.0,15.0,77,0.00,,---,0.00,VWS V14.00,2013-03-29 23:48:00,
2013-03-29 18:49:00,72.6,65.0,30.01,ESE,119,19.0,19.0,77,0.00,,---,0.00,VWS V14.00,2013-03-29 23:49:00,
2013-03-29 18:50:00,72.6,65.0,30.01,SSE,152,15.0,19.0,77,0.00,,---,0.00,VWS V14.00,2013-03-29 23:50:00,
2013-03-29 18:51:00,72.4,64.8,30.01,SE,128,14.0,17.0,77,0.00,,---,0.00,VWS V14.00,2013-03-29 23:51:00,
2013-03-29 18:53:00,72.3,64.7,30.01,ESE,122,12.0,19.0,77,0.00,,---,0.00,VWS V14.00,2013-03-29 23:53:00,
2013-03-29 18:54:00,72.3,64.7,30.01,ESE,115,20.0,20.0,77,0.00,,---,0.00,VWS V14.00,2013-03-29 23:54:00,
2013-03-29 18:55:00,72.3,64.7,30.01,SE,127,15.0,20.0,77,0.00,,---,0.00,VWS V14.00,2013-03-29 23:55:00,
2013-03-29 18:56:00,72.0,64.8,30.01,ESE,123,17.0,18.0,78,0.00,,---,0.00,VWS V14.00,2013-03-29 23:56:00,
2013-03-29 18:58:00,72.1,64.9,30.01,SE,136,17.0,18.0,78,0.00,,---,0.00,VWS V14.00,2013-03-29 23:58:00,
2013-03-29 18:59:00,72.0,64.8,30.01,ESE,123,17.0,18.0,78,0.00,,---,0.00,VWS V14.00,2013-03-29 23:59:00,
2013-03-29 19:00:00,72.0,64.8,30.01,SE,134,13.0,19.0,78,0.00,,---,0.00,VWS V14.00,2013-03-30 00:00:00,
2013-03-29 19:01:00,71.7,64.5,30.01,ESE,121,14.0,20.0,78,0.00,,---,0.00,VWS V14.00,2013-03-30 00:01:00,
2013-03-29 19:02:00,71.8,64.6,30.01,SE,127,16.0,18.0,78,0.00,,---,0.00,VWS V14.00,2013-03-30 00:02:00,
2013-03-29 19:03:00,71.8,64.6,30.01,SE,126,16.0,19.0,78,0.00,,---,0.00,VWS V14.00,2013-03-30 00:03:00,
2013-03-29 19:04:00,71.7,64.5,30.01,ESE,121,14.0,20.0,78,0.00,,---,0.00,VWS V14.00,2013-03-30 00:04:00,
2013-03-29 19:05:00,71.7,64.8,30.01,SE,131,18.0,23.0,79,0.00,,---,0.00,VWS V14.00,2013-03-30 00:05:00,
2013-03-29 19:06:00,71.6,64.8,30.00,SE,128,19.0,20.0,79,0.00,,---,0.00,VWS V14.00,2013-03-30 00:06:00,
2013-03-29 19:07:00,71.6,64.8,30.01,SE,125,12.0,18.0,79,0.00,,---,0.00,VWS V14.00,2013-03-30 00:07:00,
2013-03-29 19:08:00,71.6,64.8,30.01,ESE,123,16.0,20.0,79,0.00,,---,0.00,VWS V14.00,2013-03-30 00:08:00,
2013-03-29 19:09:00,71.6,64.8,30.00,SE,128,19.0,20.0,79,0.00,,---,0.00,VWS V14.00,2013-03-30 00:09:00,
2013-03-29 19:10:00,71.5,64.7,30.00,ESE,121,17.0,19.0,79,0.00,,---,0.00,VWS V14.00,2013-03-30 00:10:00,
2013-03-29 19:11:00,71.3,64.8,30.00,SE,139,18.0,20.0,80,0.00,,---,0.00,VWS V14.00,2013-03-30 00:11:00,
2013-03-29 19:12:00,71.4,64.6,30.00,ESE,113,18.0,20.0,79,0.00,,---,0.00,VWS V14.00,2013-03-30 00:12:00,
2013-03-29 19:13:00,71.4,64.9,30.00,SE,133,15.0,20.0,80,0.00,,---,0.00,VWS V14.00,2013-03-30 00:13:00,
2013-03-29 19:14:00,71.3,64.8,30.00,SE,139,18.0,20.0,80,0.00,,---,0.00,VWS V14.00,2013-03-30 00:14:00,
2013-03-29 19:15:00,71.3,64.8,30.00,ESE,119,16.0,21.0,80,0.00,,---,0.00,VWS V14.00,2013-03-30 00:15:00,
2013-03-29 19:16:00,71.2,64.7,30.00,ESE,116,18.0,20.0,80,0.00,,---,0.00,VWS V14.00,2013-03-30 00:16:00,
2013-03-29 19:17:00,71.2,64.7,30.00,SE,132,16.0,20.0,80,0.00,,---,0.00,VWS V14.00,2013-03-30 00:17:00,
2013-03-29 19:18:00,71.2,64.7,30.00,ESE,116,20.0,21.0,80,0.00,,---,0.00,VWS V14.00,2013-03-30 00:18:00,
2013-03-29 19:19:00,71.2,64.7,30.00,ESE,116,18.0,20.0,80,0.00,,---,0.00,VWS V14.00,2013-03-30 00:19:00,
2013-03-29 19:20:00,71.2,64.7,30.00,SE,132,22.0,22.0,80,0.00,,---,0.00,VWS V14.00,2013-03-30 00:20:00,
2013-03-29 19:21:00,71.0,64.9,30.00,ESE,111,19.0,20.0,81,0.00,,---,0.00,VWS V14.00,2013-03-30 00:21:00,
2013-03-29 19:22:00,71.1,65.0,30.00,ESE,122,20.0,20.0,81,0.00,,---,0.00,VWS V14.00,2013-03-30 00:22:00,
2013-03-29 19:23:00,71.1,65.0,30.00,ESE,114,14.0,21.0,81,0.00,,---,0.00,VWS V14.00,2013-03-30 00:23:00,
2013-03-29 19:24:00,71.0,64.9,30.00,ESE,111,19.0,20.0,81,0.00,,---,0.00,VWS V14.00,2013-03-30 00:24:00,
2013-03-29 19:25:00,71.1,65.0,30.00,SE,133,14.0,20.0,81,0.00,,---,0.00,VWS V14.00,2013-03-30 00:25:00,
2013-03-29 19:26:00,71.0,64.9,30.00,SE,129,15.0,21.0,81,0.00,,---,0.00,VWS V14.00,2013-03-30 00:26:00,
2013-03-29 19:27:00,71.0,64.9,30.00,SE,136,14.0,17.0,81,0.00,,---,0.00,VWS V14.00,2013-03-30 00:27:00,
2013-03-29 19:28:00,71.0,64.9,30.00,SE,130,17.0,22.0,81,0.00,,---,0.00,VWS V14.00,2013-03-30 00:28:00,
2013-03-29 19:29:00,71.0,64.9,30.00,SE,129,15.0,21.0,81,0.00,,---,0.00,VWS V14.00,2013-03-30 00:29:00,
2013-03-29 19:30:00,70.9,64.8,30.00,SE,128,14.0,20.0,81,0.00,,---,0.00,VWS V14.00,2013-03-30 00:30:00,
2013-03-29 19:31:00,70.8,64.7,30.00,SE,146,18.0,19.0,81,0.00,,---,0.00,VWS V14.00,2013-03-30 00:31:00,
2013-03-29 19:32:00,70.9,64.8,30.00,SE,144,10.0,17.0,81,0.00,,---,0.00,VWS V14.00,2013-03-30 00:32:00,
2013-03-29 19:33:00,70.8,64.7,30.00,ESE,120,17.0,17.0,81,0.00,,---,0.00,VWS V14.00,2013-03-30 00:33:00,
2013-03-29 19:34:00,70.8,64.7,30.00,SE,146,18.0,19.0,81,0.00,,---,0.00,VWS V14.00,2013-03-30 00:34:00,
2013-03-29 19:35:00,70.8,64.7,30.00,SE,124,18.0,18.0,81,0.00,,---,0.00,VWS V14.00,2013-03-30 00:35:00,
2013-03-29 19:36:00,70.6,64.8,30.01,SE,139,13.0,17.0,82,0.00,,---,0.00,VWS V14.00,2013-03-30 00:36:00,
2013-03-29 19:37:00,70.7,64.9,30.00,SE,142,10.0,17.0,82,0.00,,---,0.00,VWS V14.00,2013-03-30 00:37:00,
2013-03-29 19:38:00,70.7,64.9,30.00,SE,144,13.0,17.0,82,0.00,,---,0.00,VWS V14.00,2013-03-30 00:38:00,
2013-03-29 19:39:00,70.6,64.8,30.01,SE,139,13.0,17.0,82,0.00,,---,0.00,VWS V14.00,2013-03-30 00:39:00,
2013-03-29 19:40:00,70.6,64.8,30.01,SSE,149,13.0,17.0,82,0.00,,---,0.00,VWS V14.00,2013-03-30 00:40:00,
2013-03-29 19:41:00,70.5,64.8,30.01,SE,138,14.0,15.0,82,0.00,,---,0.00,VWS V14.00,2013-03-30 00:41:00,
2013-03-29 19:42:00,70.5,64.8,30.01,SE,135,15.0,16.0,82,0.00,,---,0.00,VWS V14.00,2013-03-30 00:42:00,
2013-03-29 19:43:00,70.5,64.8,30.01,SE,126,15.0,16.0,82,0.00,,---,0.00,VWS V14.00,2013-03-30 00:43:00,
2013-03-29 19:44:00,70.4,64.7,30.01,SE,139,15.0,19.0,82,0.00,,---,0.00,VWS V14.00,2013-03-30 00:44:00,
2013-03-29 19:45:00,70.4,64.7,30.01,SE,127,15.0,17.0,82,0.00,,---,0.00,VWS V14.00,2013-03-30 00:45:00,
2013-03-29 19:46:00,70.4,64.7,30.01,SE,137,13.0,18.0,82,0.00,,---,0.00,VWS V14.00,2013-03-30 00:46:00,
2013-03-29 19:47:00,70.3,64.6,30.00,ESE,123,13.0,15.0,82,0.00,,---,0.00,VWS V14.00,2013-03-30 00:47:00,
2013-03-29 19:48:00,70.3,64.6,30.01,SE,137,14.0,17.0,82,0.00,,---,0.00,VWS V14.00,2013-03-30 00:48:00,
2013-03-29 19:49:00,70.3,64.6,30.01,SE,125,9.0,19.0,82,0.00,,---,0.00,VWS V14.00,2013-03-30 00:49:00,
2013-03-29 19:50:00,70.3,64.6,30.00,ESE,120,15.0,16.0,82,0.00,,---,0.00,VWS V14.00,2013-03-30 00:50:00,
2013-03-29 19:51:00,70.3,64.6,30.00,SE,137,14.0,18.0,82,0.00,,---,0.00,VWS V14.00,2013-03-30 00:51:00,
2013-03-29 19:52:00,70.2,64.8,30.00,SE,132,17.0,17.0,83,0.00,,---,0.00,VWS V14.00,2013-03-30 00:52:00,
2013-03-29 19:53:00,70.3,64.9,30.00,SE,136,13.0,18.0,83,0.00,,---,0.00,VWS V14.00,2013-03-30 00:53:00,
2013-03-29 19:54:00,70.2,64.8,30.00,SE,134,14.0,19.0,83,0.00,,---,0.00,VWS V14.00,2013-03-30 00:54:00,
2013-03-29 19:55:00,70.2,64.8,30.00,SE,126,12.0,17.0,83,0.00,,---,0.00,VWS V14.00,2013-03-30 00:55:00,
2013-03-29 19:56:00,70.2,64.8,30.00,SE,126,17.0,17.0,83,0.00,,---,0.00,VWS V14.00,2013-03-30 00:56:00,
2013-03-29 19:57:00,70.1,64.7,29.99,SE,126,14.0,20.0,83,0.00,,---,0.00,VWS V14.00,2013-03-30 00:57:00,
2013-03-29 19:58:00,70.1,64.7,30.00,SE,127,11.0,22.0,83,0.00,,---,0.00,VWS V14.00,2013-03-30 00:58:00,
2013-03-29 19:59:00,70.1,64.7,30.00,SE,124,16.0,18.0,83,0.00,,---,0.00,VWS V14.00,2013-03-30 00:59:00,
2013-03-29 20:00:00,70.1,64.7,29.99,ESE,117,13.0,20.0,83,0.00,,---,0.00,VWS V14.00,2013-03-30 01:00:00,
2013-03-29 20:01:00,70.1,64.7,29.99,SE,127,12.0,19.0,83,0.00,,---,0.00,VWS V14.00,2013-03-30 01:01:00,
2013-03-29 20:02:00,70.1,64.7,29.99,SE,136,17.0,18.0,83,0.00,,---,0.00,VWS V14.00,2013-03-30 01:02:00,
2013-03-29 20:03:00,70.1,64.7,29.99,ESE,123,16.0,19.0,83,0.00,,---,0.00,VWS V14.00,2013-03-30 01:03:00,
2013-03-29 20:04:00,70.1,64.7,29.99,ESE,118,16.0,18.0,83,0.00,,---,0.00,VWS V14.00,2013-03-30 01:04:00,
2013-03-29 20:05:00,70.1,64.7,29.99,SE,127,15.0,18.0,83,0.00,,---,0.00,VWS V14.00,2013-03-30 01:05:00,
2013-03-29 20:06:00,70.0,64.6,29.99,SE,136,13.0,16.0,83,0.00,,---,0.00,VWS V14.00,2013-03-30 01:06:00,
2013-03-29 20:07:00,70.0,64.6,30.00,SE,134,14.0,19.0,83,0.00,,---,0.00,VWS V14.00,2013-03-30 01:07:00,
2013-03-29 20:08:00,70.1,64.7,29.99,SE,129,18.0,18.0,83,0.00,,---,0.00,VWS V14.00,2013-03-30 01:08:00,
2013-03-29 20:09:00,70.0,64.6,30.00,SE,131,15.0,19.0,83,0.00,,---,0.00,VWS V14.00,2013-03-30 01:09:00,
2013-03-29 20:10:00,70.0,64.6,30.00,SE,136,17.0,20.0,83,0.00,,---,0.00,VWS V14.00,2013-03-30 01:10:00,
2013-03-29 20:11:00,70.0,64.9,30.00,SE,128,17.0,20.0,84,0.00,,---,0.00,VWS V14.00,2013-03-30 01:11:00,
2013-03-29 20:12:00,70.0,64.9,30.00,SSE,150,13.0,18.0,84,0.00,,---,0.00,VWS V14.00,2013-03-30 01:12:00,
2013-03-29 20:13:00,70.0,64.9,30.00,SE,131,15.0,17.0,84,0.00,,---,0.00,VWS V14.00,2013-03-30 01:13:00,
2013-03-29 20:14:00,70.0,64.9,30.00,SE,145,18.0,19.0,84,0.00,,---,0.00,VWS V14.00,2013-03-30 01:14:00,
2013-03-29 20:15:00,70.0,64.9,30.00,SE,138,11.0,18.0,84,0.00,,---,0.00,VWS V14.00,2013-03-30 01:15:00,
2013-03-29 20:17:00,70.0,64.9,30.01,SE,141,9.0,17.0,84,0.00,,---,0.00,VWS V14.00,2013-03-30 01:17:00,
2013-03-29 20:18:00,70.1,65.1,30.01,SE,143,12.0,17.0,84,0.00,,---,0.00,VWS V14.00,2013-03-30 01:18:00,
2013-03-29 20:19:00,70.0,64.9,30.01,SSE,159,13.0,14.0,84,0.00,,---,0.00,VWS V14.00,2013-03-30 01:19:00,
2013-03-29 20:21:00,70.0,64.9,30.02,SE,140,10.0,14.0,84,0.00,,---,0.00,VWS V14.00,2013-03-30 01:21:00,
2013-03-29 20:22:00,69.9,64.8,30.02,SE,146,8.0,12.0,84,0.00,,---,0.00,VWS V14.00,2013-03-30 01:22:00,
2013-03-29 20:23:00,69.9,64.8,30.02,SSE,158,11.0,13.0,84,0.00,,---,0.00,VWS V14.00,2013-03-30 01:23:00,
2013-03-29 20:24:00,69.9,64.8,30.02,SSE,160,9.0,14.0,84,0.00,,---,0.00,VWS V14.00,2013-03-30 01:24:00,
2013-03-29 20:25:00,69.9,64.8,30.02,SE,146,8.0,12.0,84,0.00,,---,0.00,VWS V14.00,2013-03-30 01:25:00,
2013-03-29 20:26:00,69.9,64.8,30.02,SSE,151,10.0,12.0,84,0.00,,---,0.00,VWS V14.00,2013-03-30 01:26:00,
2013-03-29 20:27:00,69.9,64.8,30.02,SSE,154,11.0,14.0,84,0.00,,---,0.00,VWS V14.00,2013-03-30 01:27:00,
2013-03-29 20:28:00,69.9,64.8,30.02,SSE,160,14.0,15.0,84,0.00,,---,0.00,VWS V14.00,2013-03-30 01:28:00,
2013-03-29 20:29:00,69.9,64.8,30.02,SSE,153,13.0,15.0,84,0.00,,---,0.00,VWS V14.00,2013-03-30 01:29:00,
2013-03-29 20:30:00,69.9,64.8,30.02,SSE,154,11.0,14.0,84,0.00,,---,0.00,VWS V14.00,2013-03-30 01:30:00,
2013-03-29 20:31:00,69.8,64.8,30.02,SSE,152,12.0,14.0,84,0.00,,---,0.00,VWS V14.00,2013-03-30 01:31:00,
2013-03-29 20:32:00,69.8,64.8,30.02,SSE,155,10.0,14.0,84,0.00,,---,0.00,VWS V14.00,2013-03-30 01:32:00,
2013-03-29 20:33:00,69.8,64.8,30.02,SE,145,11.0,13.0,84,0.00,,---,0.00,VWS V14.00,2013-03-30 01:33:00,
2013-03-29 20:34:00,69.8,64.8,30.02,SSE,165,11.0,16.0,84,0.00,,---,0.00,VWS V14.00,2013-03-30 01:34:00,
2013-03-29 20:35:00,69.8,64.8,30.02,SSE,155,10.0,14.0,84,0.00,,---,0.00,VWS V14.00,2013-03-30 01:35:00,
2013-03-29 20:36:00,69.8,64.8,30.02,SE,145,10.0,14.0,84,0.00,,---,0.00,VWS V14.00,2013-03-30 01:36:00,
2013-03-29 20:37:00,69.7,64.7,30.02,SE,134,12.0,13.0,84,0.00,,---,0.00,VWS V14.00,2013-03-30 01:37:00,
2013-03-29 20:38:00,69.8,64.8,30.02,SE,141,13.0,15.0,84,0.00,,---,0.00,VWS V14.00,2013-03-30 01:38:00,
2013-03-29 20:39:00,69.8,64.8,30.02,SSE,148,7.0,13.0,84,0.00,,---,0.00,VWS V14.00,2013-03-30 01:39:00,
2013-03-29 20:40:00,69.7,64.7,30.02,SE,134,12.0,13.0,84,0.00,,---,0.00,VWS V14.00,2013-03-30 01:40:00,
2013-03-29 20:41:00,69.7,64.7,30.02,SE,131,11.0,13.0,84,0.00,,---,0.00,VWS V14.00,2013-03-30 01:41:00,
2013-03-29 20:42:00,69.7,65.0,30.02,SE,142,13.0,13.0,85,0.00,,---,0.00,VWS V14.00,2013-03-30 01:42:00,
2013-03-29 20:43:00,69.7,64.7,30.02,SE,136,11.0,14.0,84,0.00,,---,0.00,VWS V14.00,2013-03-30 01:43:00,
2013-03-29 20:44:00,69.7,65.0,30.02,SSE,149,10.0,16.0,85,0.00,,---,0.00,VWS V14.00,2013-03-30 01:44:00,
2013-03-29 20:45:00,69.7,65.0,30.02,SE,142,13.0,13.0,85,0.00,,---,0.00,VWS V14.00,2013-03-30 01:45:00,
2013-03-29 20:46:00,69.6,64.9,30.03,SE,137,12.0,15.0,85,0.00,,---,0.00,VWS V14.00,2013-03-30 01:46:00,
2013-03-29 20:47:00,69.5,64.8,30.03,SE,129,9.0,12.0,85,0.00,,---,0.00,VWS V14.00,2013-03-30 01:47:00,
2013-03-29 20:48:00,69.6,64.9,30.03,SE,136,8.0,12.0,85,0.00,,---,0.00,VWS V14.00,2013-03-30 01:48:00,
2013-03-29 20:49:00,69.6,64.9,30.03,SE,135,9.0,12.0,85,0.00,,---,0.00,VWS V14.00,2013-03-30 01:49:00,
2013-03-29 20:50:00,69.5,64.8,30.03,SE,129,9.0,12.0,85,0.00,,---,0.00,VWS V14.00,2013-03-30 01:50:00,
2013-03-29 20:51:00,69.5,64.8,30.03,SE,132,9.0,13.0,85,0.00,,---,0.00,VWS V14.00,2013-03-30 01:51:00,
2013-03-29 20:52:00,69.5,64.8,30.02,ESE,121,11.0,12.0,85,0.00,,---,0.00,VWS V14.00,2013-03-30 01:52:00,
2013-03-29 20:53:00,69.5,64.8,30.02,ESE,123,11.0,15.0,85,0.00,,---,0.00,VWS V14.00,2013-03-30 01:53:00,
2013-03-29 20:54:00,69.5,64.8,30.02,ESE,122,9.0,15.0,85,0.00,,---,0.00,VWS V14.00,2013-03-30 01:54:00,
2013-03-29 20:55:00,69.5,64.8,30.02,ESE,121,11.0,12.0,85,0.00,,---,0.00,VWS V14.00,2013-03-30 01:55:00,
2013-03-29 20:56:00,69.4,64.7,30.02,ESE,122,12.0,13.0,85,0.00,,---,0.00,VWS V14.00,2013-03-30 01:56:00,
2013-03-29 20:57:00,69.4,64.7,30.02,SE,125,12.0,14.0,85,0.00,,---,0.00,VWS V14.00,2013-03-30 01:57:00,
2013-03-29 20:58:00,69.4,64.7,30.02,SE,126,11.0,14.0,85,0.00,,---,0.00,VWS V14.00,2013-03-30 01:58:00,
2013-03-29 20:59:00,69.4,64.7,30.02,SE,127,11.0,13.0,85,0.00,,---,0.00,VWS V14.00,2013-03-30 01:59:00,
2013-03-29 21:00:00,69.4,64.7,30.02,SE,125,12.0,14.0,85,0.00,,---,0.00,VWS V14.00,2013-03-30 02:00:00,
2013-03-29 21:01:00,69.4,64.7,30.02,SE,124,12.0,13.0,85,0.00,,---,0.00,VWS V14.00,2013-03-30 02:01:00,
2013-03-29 21:02:00,69.4,65.0,30.02,SE,128,12.0,14.0,86,0.00,,---,0.00,VWS V14.00,2013-03-30 02:02:00,
2013-03-29 21:03:00,69.4,65.0,30.02,ESE,120,13.0,14.0,86,0.00,,---,0.00,VWS V14.00,2013-03-30 02:03:00,
2013-03-29 21:04:00,69.4,65.0,30.02,ESE,117,14.0,16.0,86,0.00,,---,0.00,VWS V14.00,2013-03-30 02:04:00,
2013-03-29 21:05:00,69.4,65.0,30.02,SE,128,12.0,14.0,86,0.00,,---,0.00,VWS V14.00,2013-03-30 02:05:00,
2013-03-29 21:06:00,69.4,65.0,30.02,SE,126,13.0,15.0,86,0.00,,---,0.00,VWS V14.00,2013-03-30 02:06:00,
2013-03-29 21:07:00,69.4,65.0,30.02,ESE,116,14.0,14.0,86,0.00,,---,0.00,VWS V14.00,2013-03-30 02:07:00,
2013-03-29 21:08:00,69.4,65.0,30.02,ESE,123,9.0,14.0,86,0.00,,---,0.00,VWS V14.00,2013-03-30 02:08:00,
2013-03-29 21:09:00,69.4,65.0,30.02,SE,124,12.0,14.0,86,0.00,,---,0.00,VWS V14.00,2013-03-30 02:09:00,
2013-03-29 21:10:00,69.4,65.0,30.02,ESE,116,14.0,14.0,86,0.00,,---,0.00,VWS V14.00,2013-03-30 02:10:00,
2013-03-29 21:11:00,69.4,65.0,30.02,ESE,119,12.0,15.0,86,0.00,,---,0.00,VWS V14.00,2013-03-30 02:11:00,
2013-03-29 21:12:00,69.3,64.9,30.02,SE,124,7.0,13.0,86,0.00,,---,0.00,VWS V14.00,2013-03-30 02:12:00,
2013-03-29 21:13:00,69.3,64.9,30.02,ESE,119,14.0,14.0,86,0.00,,---,0.00,VWS V14.00,2013-03-30 02:13:00,
2013-03-29 21:14:00,69.3,64.9,30.02,ESE,121,12.0,16.0,86,0.00,,---,0.00,VWS V14.00,2013-03-30 02:14:00,
2013-03-29 21:15:00,69.3,64.9,30.02,SE,124,7.0,13.0,86,0.00,,---,0.00,VWS V14.00,2013-03-30 02:15:00,
2013-03-29 21:16:00,69.3,64.9,30.02,ESE,123,11.0,13.0,86,0.00,,---,0.00,VWS V14.00,2013-03-30 02:16:00,
2013-03-29 21:17:00,69.3,64.9,30.03,SE,126,8.0,13.0,86,0.00,,---,0.00,VWS V14.00,2013-03-30 02:17:00,
2013-03-29 21:18:00,69.2,64.8,30.03,SE,124,12.0,12.0,86,0.00,,---,0.00,VWS V14.00,2013-03-30 02:18:00,
2013-03-29 21:19:00,69.2,64.8,30.03,SE,126,13.0,13.0,86,0.00,,---,0.00,VWS V14.00,2013-03-30 02:19:00,
2013-03-29 21:20:00,69.3,64.9,30.03,SE,126,8.0,13.0,86,0.00,,---,0.00,VWS V14.00,2013-03-30 02:20:00,
2013-03-29 21:21:00,69.2,64.8,30.03,SE,126,11.0,13.0,86,0.00,,---,0.00,VWS V14.00,2013-03-30 02:21:00,
2013-03-29 21:22:00,69.2,64.8,30.03,SE,130,14.0,14.0,86,0.00,,---,0.00,VWS V14.00,2013-03-30 02:22:00,
2013-03-29 21:23:00,69.2,64.8,30.03,SE,128,8.0,15.0,86,0.00,,---,0.00,VWS V14.00,2013-03-30 02:23:00,
2013-03-29 21:24:00,69.2,64.8,30.03,SE,130,11.0,13.0,86,0.00,,---,0.00,VWS V14.00,2013-03-30 02:24:00,
2013-03-29 21:25:00,69.2,64.8,30.03,SE,130,14.0,14.0,86,0.00,,---,0.00,VWS V14.00,2013-03-30 02:25:00,
2013-03-29 21:26:00,69.2,64.8,30.03,SE,126,11.0,14.0,86,0.00,,---,0.00,VWS V14.00,2013-03-30 02:26:00,
2013-03-29 21:27:00,69.2,64.8,30.03,SE,126,11.0,12.0,86,0.00,,---,0.00,VWS V14.00,2013-03-30 02:27:00,
2013-03-29 21:28:00,69.2,64.8,30.03,SE,126,8.0,12.0,86,0.00,,---,0.00,VWS V14.00,2013-03-30 02:28:00,
2013-03-29 21:29:00,69.2,64.8,30.03,SE,126,12.0,13.0,86,0.00,,---,0.00,VWS V14.00,2013-03-30 02:29:00,
2013-03-29 21:30:00,69.2,64.8,30.03,SE,126,11.0,12.0,86,0.00,,---,0.00,VWS V14.00,2013-03-30 02:30:00,
2013-03-29 21:31:00,69.2,64.8,30.03,SE,126,13.0,13.0,86,0.00,,---,0.00,VWS V14.00,2013-03-30 02:31:00,
2013-03-29 21:32:00,69.1,64.7,30.03,SE,126,8.0,14.0,86,0.00,,---,0.00,VWS V14.00,2013-03-30 02:32:00,
2013-03-29 21:33:00,69.1,64.7,30.03,SE,127,12.0,13.0,86,0.00,,---,0.00,VWS V14.00,2013-03-30 02:33:00,
2013-03-29 21:34:00,69.1,64.7,30.03,SE,126,13.0,14.0,86,0.00,,---,0.00,VWS V14.00,2013-03-30 02:34:00,
2013-03-29 21:35:00,69.1,64.7,30.03,SE,126,8.0,14.0,86,0.00,,---,0.00,VWS V14.00,2013-03-30 02:35:00,
2013-03-29 21:36:00,69.1,64.7,30.03,ESE,123,11.0,13.0,86,0.00,,---,0.00,VWS V14.00,2013-03-30 02:36:00,
2013-03-29 21:37:00,69.0,64.6,30.03,SE,127,11.0,13.0,86,0.00,,---,0.00,VWS V14.00,2013-03-30 02:37:00,
2013-03-29 21:38:00,69.1,64.7,30.03,SE,127,13.0,15.0,86,0.00,,---,0.00,VWS V14.00,2013-03-30 02:38:00,
2013-03-29 21:39:00,69.1,64.7,30.03,SE,127,9.0,13.0,86,0.00,,---,0.00,VWS V14.00,2013-03-30 02:39:00,
2013-03-29 21:40:00,69.0,64.6,30.03,SE,127,11.0,13.0,86,0.00,,---,0.00,VWS V14.00,2013-03-30 02:40:00,
2013-03-29 21:41:00,69.0,64.6,30.03,SE,127,12.0,14.0,86,0.00,,---,0.00,VWS V14.00,2013-03-30 02:41:00,
2013-03-29 21:42:00,69.0,65.0,30.02,ESE,119,13.0,18.0,87,0.00,,---,0.00,VWS V14.00,2013-03-30 02:42:00,
2013-03-29 21:43:00,69.0,64.6,30.03,SE,124,7.0,12.0,86,0.00,,---,0.00,VWS V14.00,2013-03-30 02:43:00,
2013-03-29 21:44:00,69.0,64.6,30.03,ESE,119,12.0,15.0,86,0.00,,---,0.00,VWS V14.00,2013-03-30 02:44:00,
2013-03-29 21:45:00,69.0,65.0,30.02,ESE,119,13.0,18.0,87,0.00,,---,0.00,VWS V14.00,2013-03-30 02:45:00,
2013-03-29 21:46:00,69.0,64.6,30.03,ESE,123,15.0,15.0,86,0.00,,---,0.00,VWS V14.00,2013-03-30 02:46:00,
2013-03-29 21:47:00,69.0,64.6,30.03,SE,125,9.0,13.0,86,0.00,,---,0.00,VWS V14.00,2013-03-30 02:47:00,
2013-03-29 21:48:00,69.0,64.6,30.03,SE,128,14.0,17.0,86,0.00,,---,0.00,VWS V14.00,2013-03-30 02:48:00,
2013-03-29 21:49:00,69.1,65.1,30.03,SE,127,12.0,15.0,87,0.00,,---,0.00,VWS V14.00,2013-03-30 02:49:00,
2013-03-29 21:50:00,69.0,64.6,30.03,SE,125,9.0,13.0,86,0.00,,---,0.00,VWS V14.00,2013-03-30 02:50:00,
2013-03-29 21:51:00,69.0,65.0,30.03,SE,130,12.0,17.0,87,0.00,,---,0.00,VWS V14.00,2013-03-30 02:51:00,
2013-03-29 21:52:00,69.0,65.0,30.03,SE,126,15.0,15.0,87,0.00,,---,0.00,VWS V14.00,2013-03-30 02:52:00,
2013-03-29 21:53:00,69.0,65.0,30.02,SE,129,13.0,15.0,87,0.00,,---,0.00,VWS V14.00,2013-03-30 02:53:00,
2013-03-29 21:54:00,69.0,65.0,30.03,SE,128,11.0,13.0,87,0.00,,---,0.00,VWS V14.00,2013-03-30 02:54:00,
2013-03-29 21:55:00,69.0,65.0,30.03,SE,126,15.0,15.0,87,0.00,,---,0.00,VWS V14.00,2013-03-30 02:55:00,
2013-03-29 21:56:00,69.0,65.0,30.03,SE,126,11.0,15.0,87,0.00,,---,0.00,VWS V14.00,2013-03-30 02:56:00,
2013-03-29 21:57:00,69.0,65.0,30.03,SE,127,12.0,14.0,87,0.00,,---,0.00,VWS V14.00,2013-03-30 02:57:00,
2013-03-29 21:58:00,69.0,65.0,30.03,SE,126,12.0,13.0,87,0.00,,---,0.00,VWS V14.00,2013-03-30 02:58:00,
2013-03-29 21:59:00,69.0,65.0,30.03,SE,126,13.0,13.0,87,0.00,,---,0.00,VWS V14.00,2013-03-30 02:59:00,
2013-03-29 22:00:00,69.0,65.0,30.03,SE,127,12.0,14.0,87,0.00,,---,0.00,VWS V14.00,2013-03-30 03:00:00,
2013-03-29 22:01:00,69.0,65.0,30.03,ESE,123,11.0,15.0,87,0.00,,---,0.00,VWS V14.00,2013-03-30 03:01:00,
2013-03-29 22:02:00,68.9,64.9,30.03,ESE,123,14.0,14.0,87,0.00,,---,0.00,VWS V14.00,2013-03-30 03:02:00,
2013-03-29 22:03:00,69.0,65.0,30.03,SE,128,13.0,13.0,87,0.00,,---,0.00,VWS V14.00,2013-03-30 03:03:00,
2013-03-29 22:04:00,68.9,64.9,30.03,SE,126,12.0,15.0,87,0.00,,---,0.00,VWS V14.00,2013-03-30 03:04:00,
2013-03-29 22:05:00,68.9,64.9,30.03,ESE,123,14.0,14.0,87,0.00,,---,0.00,VWS V14.00,2013-03-30 03:05:00,
2013-03-29 22:06:00,68.9,64.9,30.03,SE,130,12.0,15.0,87,0.00,,---,0.00,VWS V14.00,2013-03-30 03:06:00,
2013-03-29 22:07:00,69.0,65.0,30.03,SE,133,14.0,16.0,87,0.00,,---,0.00,VWS V14.00,2013-03-30 03:07:00,
2013-03-29 22:08:00,68.9,64.9,30.03,SE,124,13.0,15.0,87,0.00,,---,0.00,VWS V14.00,2013-03-30 03:08:00,
2013-03-29 22:09:00,69.0,65.0,30.03,ESE,118,12.0,15.0,87,0.00,,---,0.00,VWS V14.00,2013-03-30 03:09:00,
2013-03-29 22:10:00,69.0,65.0,30.03,SE,133,14.0,16.0,87,0.00,,---,0.00,VWS V14.00,2013-03-30 03:10:00,
2013-03-29 22:11:00,69.0,65.0,30.03,SE,128,16.0,16.0,87,0.00,,---,0.00,VWS V14.00,2013-03-30 03:11:00,
2013-03-29 22:12:00,68.9,64.9,30.03,SE,134,14.0,15.0,87,0.00,,---,0.00,VWS V14.00,2013-03-30 03:12:00,
2013-03-29 22:13:00,69.0,65.0,30.03,SE,128,9.0,12.0,87,0.00,,---,0.00,VWS V14.00,2013-03-30 03:13:00,
2013-03-29 22:14:00,68.9,64.9,30.03,SE,138,13.0,15.0,87,0.00,,---,0.00,VWS V14.00,2013-03-30 03:14:00,
2013-03-29 22:15:00,68.9,64.9,30.03,SE,134,14.0,15.0,87,0.00,,---,0.00,VWS V14.00,2013-03-30 03:15:00,
2013-03-29 22:16:00,69.0,65.0,30.03,SE,132,13.0,15.0,87,0.00,,---,0.00,VWS V14.00,2013-03-30 03:16:00,
2013-03-29 22:17:00,68.8,64.8,30.04,SE,133,7.0,12.0,87,0.00,,---,0.00,VWS V14.00,2013-03-30 03:17:00,
2013-03-29 22:18:00,68.9,64.9,30.04,SE,134,9.0,12.0,87,0.00,,---,0.00,VWS V14.00,2013-03-30 03:18:00,
2013-03-29 22:19:00,68.9,64.9,30.04,SE,134,9.0,14.0,87,0.00,,---,0.00,VWS V14.00,2013-03-30 03:19:00,
2013-03-29 22:20:00,68.8,64.8,30.04,SE,133,7.0,12.0,87,0.00,,---,0.00,VWS V14.00,2013-03-30 03:20:00,
2013-03-29 22:21:00,68.8,64.8,30.04,SE,134,13.0,13.0,87,0.00,,---,0.00,VWS V14.00,2013-03-30 03:21:00,
2013-03-29 22:22:00,68.8,64.8,30.04,SE,134,13.0,13.0,87,0.00,,---,0.00,VWS V14.00,2013-03-30 03:22:00,
2013-03-29 22:23:00,68.8,64.8,30.04,SE,134,13.0,13.0,87,0.00,,---,0.00,VWS V14.00,2013-03-30 03:23:00,
2013-03-29 22:24:00,68.8,64.8,30.04,SE,133,8.0,13.0,87,0.00,,---,0.00,VWS V14.00,2013-03-30 03:24:00,
2013-03-29 22:25:00,68.8,64.8,30.04,SE,134,13.0,13.0,87,0.00,,---,0.00,VWS V14.00,2013-03-30 03:25:00,
2013-03-29 22:26:00,68.8,64.8,30.04,SE,132,9.0,13.0,87,0.00,,---,0.00,VWS V14.00,2013-03-30 03:26:00,
2013-03-29 22:27:00,68.8,64.8,30.04,SE,135,11.0,11.0,87,0.00,,---,0.00,VWS V14.00,2013-03-30 03:27:00,
2013-03-29 22:28:00,68.8,64.8,30.04,SE,134,9.0,13.0,87,0.00,,---,0.00,VWS V14.00,2013-03-30 03:28:00,
2013-03-29 22:29:00,68.8,64.8,30.04,SE,134,11.0,12.0,87,0.00,,---,0.00,VWS V14.00,2013-03-30 03:29:00,
2013-03-29 22:30:00,68.8,64.8,30.04,SE,135,10.0,12.0,87,0.00,,---,0.00,VWS V14.00,2013-03-30 03:30:00,
2013-03-29 22:31:00,68.7,64.7,30.04,SE,135,10.0,12.0,87,0.00,,---,0.00,VWS V14.00,2013-03-30 03:31:00,
2013-03-29 22:32:00,68.7,65.0,30.04,SE,136,10.0,12.0,88,0.00,,---,0.00,VWS V14.00,2013-03-30 03:32:00,
2013-03-29 22:33:00,68.7,64.7,30.04,SE,135,11.0,13.0,87,0.00,,---,0.00,VWS V14.00,2013-03-30 03:33:00,
2013-03-29 22:34:00,68.7,65.0,30.04,SE,136,12.0,13.0,88,0.00,,---,0.00,VWS V14.00,2013-03-30 03:34:00,
2013-03-29 22:35:00,68.7,65.0,30.04,SE,136,10.0,12.0,88,0.00,,---,0.00,VWS V14.00,2013-03-30 03:35:00,
2013-03-29 22:36:00,68.8,65.1,30.04,SE,137,9.0,14.0,88,0.00,,---,0.00,VWS V14.00,2013-03-30 03:36:00,
2013-03-29 22:37:00,68.7,65.0,30.05,SE,134,9.0,13.0,88,0.00,,---,0.00,VWS V14.00,2013-03-30 03:37:00,
2013-03-29 22:38:00,68.7,64.7,30.04,SE,137,10.0,10.0,87,0.00,,---,0.00,VWS V14.00,2013-03-30 03:38:00,
2013-03-29 22:39:00,68.7,65.0,30.04,SE,137,9.0,12.0,88,0.00,,---,0.00,VWS V14.00,2013-03-30 03:39:00,
2013-03-29 22:40:00,68.7,65.0,30.05,SE,134,9.0,13.0,88,0.00,,---,0.00,VWS V14.00,2013-03-30 03:40:00,
2013-03-29 22:41:00,68.7,65.0,30.05,SE,135,10.0,11.0,88,0.00,,---,0.00,VWS V14.00,2013-03-30 03:41:00,
2013-03-29 22:42:00,68.7,65.0,30.05,SE,134,9.0,11.0,88,0.00,,---,0.00,VWS V14.00,2013-03-30 03:42:00,
2013-03-29 22:43:00,68.7,65.0,30.05,SE,134,9.0,13.0,88,0.00,,---,0.00,VWS V14.00,2013-03-30 03:43:00,
2013-03-29 22:44:00,68.7,65.0,30.05,SE,134,7.0,12.0,88,0.00,,---,0.00,VWS V14.00,2013-03-30 03:44:00,
2013-03-29 22:45:00,68.7,65.0,30.05,SE,134,9.0,11.0,88,0.00,,---,0.00,VWS V14.00,2013-03-30 03:45:00,
2013-03-29 22:46:00,68.7,65.0,30.05,SE,134,9.0,12.0,88,0.00,,---,0.00,VWS V14.00,2013-03-30 03:46:00,
2013-03-29 22:47:00,68.8,65.1,30.05,SE,131,12.0,13.0,88,0.00,,---,0.00,VWS V14.00,2013-03-30 03:47:00,
2013-03-29 22:48:00,68.7,65.0,30.05,SE,132,11.0,12.0,88,0.00,,---,0.00,VWS V14.00,2013-03-30 03:48:00,
2013-03-29 22:49:00,68.8,65.1,30.05,SE,134,12.0,14.0,88,0.00,,---,0.00,VWS V14.00,2013-03-30 03:49:00,
2013-03-29 22:50:00,68.8,65.1,30.05,SE,131,12.0,13.0,88,0.00,,---,0.00,VWS V14.00,2013-03-30 03:50:00,
2013-03-29 22:51:00,68.8,65.1,30.05,SE,132,9.0,13.0,88,0.00,,---,0.00,VWS V14.00,2013-03-30 03:51:00,
2013-03-29 22:52:00,68.8,65.1,30.05,SE,130,11.0,13.0,88,0.00,,---,0.00,VWS V14.00,2013-03-30 03:52:00,
2013-03-29 22:53:00,68.8,65.1,30.05,SE,130,11.0,15.0,88,0.00,,---,0.00,VWS V14.00,2013-03-30 03:53:00,
2013-03-29 22:54:00,68.7,65.0,30.05,SE,130,11.0,13.0,88,0.00,,---,0.00,VWS V14.00,2013-03-30 03:54:00,
2013-03-29 22:55:00,68.8,65.1,30.05,SE,130,11.0,13.0,88,0.00,,---,0.00,VWS V14.00,2013-03-30 03:55:00,
2013-03-29 22:56:00,68.7,65.0,30.05,SE,136,11.0,15.0,88,0.00,,---,0.00,VWS V14.00,2013-03-30 03:56:00,
2013-03-29 22:57:00,68.8,65.1,30.05,SE,136,9.0,12.0,88,0.00,,---,0.00,VWS V14.00,2013-03-30 03:57:00,
2013-03-29 22:58:00,68.8,65.1,30.05,SE,137,9.0,13.0,88,0.00,,---,0.00,VWS V14.00,2013-03-30 03:58:00,
2013-03-29 22:59:00,68.8,65.1,30.05,SE,136,12.0,12.0,88,0.00,,---,0.00,VWS V14.00,2013-03-30 03:59:00,
2013-03-29 23:00:00,68.7,65.0,30.05,SE,136,7.0,10.0,88,0.00,,---,0.00,VWS V14.00,2013-03-30 04:00:00,
2013-03-29 23:01:00,68.8,65.1,30.05,SE,137,12.0,13.0,88,0.00,,---,0.00,VWS V14.00,2013-03-30 04:01:00,
2013-03-29 23:02:00,68.7,65.0,30.05,SE,136,9.0,12.0,88,0.00,,---,0.00,VWS V14.00,2013-03-30 04:02:00,
2013-03-29 23:03:00,68.7,65.0,30.05,SE,136,10.0,10.0,88,0.00,,---,0.00,VWS V14.00,2013-03-30 04:03:00,
2013-03-29 23:04:00,68.8,65.1,30.05,SE,137,8.0,12.0,88,0.00,,---,0.00,VWS V14.00,2013-03-30 04:04:00,
2013-03-29 23:05:00,68.8,65.1,30.05,SE,134,11.0,12.0,88,0.00,,---,0.00,VWS V14.00,2013-03-30 04:05:00,
2013-03-29 23:06:00,68.7,65.0,30.05,SE,134,11.0,13.0,88,0.00,,---,0.00,VWS V14.00,2013-03-30 04:06:00,
2013-03-29 23:07:00,68.8,65.1,30.05,SE,134,13.0,14.0,88,0.00,,---,0.00,VWS V14.00,2013-03-30 04:07:00,
2013-03-29 23:08:00,68.8,65.1,30.05,SE,134,11.0,14.0,88,0.00,,---,0.00,VWS V14.00,2013-03-30 04:08:00,
2013-03-29 23:09:00,68.8,65.1,30.05,SE,134,9.0,12.0,88,0.00,,---,0.00,VWS V14.00,2013-03-30 04:09:00,
2013-03-29 23:10:00,68.8,65.1,30.05,SE,134,13.0,13.0,88,0.00,,---,0.00,VWS V14.00,2013-03-30 04:10:00,
2013-03-29 23:11:00,68.8,65.1,30.05,SE,134,9.0,12.0,88,0.00,,---,0.00,VWS V14.00,2013-03-30 04:11:00,
2013-03-29 23:12:00,68.8,65.1,30.05,SE,135,8.0,11.0,88,0.00,,---,0.00,VWS V14.00,2013-03-30 04:12:00,
2013-03-29 23:13:00,68.8,65.1,30.05,SE,134,9.0,13.0,88,0.00,,---,0.00,VWS V14.00,2013-03-30 04:13:00,
2013-03-29 23:14:00,68.8,65.1,30.05,SE,134,11.0,13.0,88,0.00,,---,0.00,VWS V14.00,2013-03-30 04:14:00,
2013-03-29 23:15:00,68.8,65.1,30.05,SE,134,7.0,12.0,88,0.00,,---,0.00,VWS V14.00,2013-03-30 04:15:00,
2013-03-29 23:16:00,68.8,65.1,30.05,SE,133,7.0,9.0,88,0.00,,---,0.00,VWS V14.00,2013-03-30 04:16:00,
2013-03-29 23:17:00,68.8,65.1,30.05,SE,133,12.0,12.0,88,0.00,,---,0.00,VWS V14.00,2013-03-30 04:17:00,
2013-03-29 23:18:00,68.8,65.1,30.05,SE,133,9.0,12.0,88,0.00,,---,0.00,VWS V14.00,2013-03-30 04:18:00,
2013-03-29 23:19:00,68.8,65.1,30.05,SE,133,11.0,12.0,88,0.00,,---,0.00,VWS V14.00,2013-03-30 04:19:00,
2013-03-29 23:20:00,68.8,65.1,30.05,SE,133,9.0,13.0,88,0.00,,---,0.00,VWS V14.00,2013-03-30 04:20:00,
2013-03-29 23:21:00,68.8,65.1,30.05,SE,133,8.0,12.0,88,0.00,,---,0.00,VWS V14.00,2013-03-30 04:21:00,
2013-03-29 23:22:00,68.8,65.1,30.05,SE,133,9.0,12.0,88,0.00,,---,0.00,VWS V14.00,2013-03-30 04:22:00,
2013-03-29 23:23:00,68.8,65.1,30.05,SE,133,11.0,12.0,88,0.00,,---,0.00,VWS V14.00,2013-03-30 04:23:00,
2013-03-29 23:24:00,68.8,65.1,30.05,SE,134,9.0,15.0,88,0.00,,---,0.00,VWS V14.00,2013-03-30 04:24:00,
2013-03-29 23:25:00,68.8,65.1,30.05,SE,134,12.0,12.0,88,0.00,,---,0.00,VWS V14.00,2013-03-30 04:25:00,
2013-03-29 23:26:00,68.8,65.1,30.05,SE,134,9.0,12.0,88,0.00,,---,0.00,VWS V14.00,2013-03-30 04:26:00,
2013-03-29 23:27:00,68.8,65.1,30.05,SE,133,9.0,12.0,88,0.00,,---,0.00,VWS V14.00,2013-03-30 04:27:00,
2013-03-29 23:28:00,68.8,65.1,30.05,SE,134,9.0,11.0,88,0.00,,---,0.00,VWS V14.00,2013-03-30 04:28:00,
2013-03-29 23:29:00,68.8,65.1,30.05,SE,133,11.0,12.0,88,0.00,,---,0.00,VWS V14.00,2013-03-30 04:29:00,
2013-03-29 23:30:00,68.8,65.1,30.04,SE,133,13.0,13.0,88,0.00,,---,0.00,VWS V14.00,2013-03-30 04:30:00,
2013-03-29 23:31:00,68.8,65.1,30.04,SE,132,8.0,11.0,88,0.00,,---,0.00,VWS V14.00,2013-03-30 04:31:00,
2013-03-29 23:32:00,68.8,65.1,30.04,SE,132,11.0,11.0,88,0.00,,---,0.00,VWS V14.00,2013-03-30 04:32:00,
2013-03-29 23:33:00,68.8,65.1,30.04,SE,132,11.0,11.0,88,0.00,,---,0.00,VWS V14.00,2013-03-30 04:33:00,
2013-03-29 23:34:00,68.8,65.1,30.04,SE,132,8.0,11.0,88,0.00,,---,0.00,VWS V14.00,2013-03-30 04:34:00,
2013-03-29 23:35:00,68.7,65.0,30.04,SE,132,8.0,12.0,88,0.00,,---,0.00,VWS V14.00,2013-03-30 04:35:00,
2013-03-29 23:36:00,68.7,65.0,30.04,SE,130,9.0,12.0,88,0.00,,---,0.00,VWS V14.00,2013-03-30 04:36:00,
2013-03-29 23:37:00,68.8,65.1,30.04,SE,133,8.0,11.0,88,0.00,,---,0.00,VWS V14.00,2013-03-30 04:37:00,
2013-03-29 23:38:00,68.7,65.0,30.04,SE,131,12.0,13.0,88,0.00,,---,0.00,VWS V14.00,2013-03-30 04:38:00,
2013-03-29 23:39:00,68.7,65.0,30.04,SE,130,9.0,12.0,88,0.00,,---,0.00,VWS V14.00,2013-03-30 04:39:00,
2013-03-29 23:40:00,68.7,65.0,30.04,SE,128,9.0,13.0,88,0.00,,---,0.00,VWS V14.00,2013-03-30 04:40:00,
2013-03-29 23:41:00,68.6,64.9,30.04,SE,128,12.0,12.0,88,0.00,,---,0.00,VWS V14.00,2013-03-30 04:41:00,
2013-03-29 23:42:00,68.7,65.0,30.04,SE,128,11.0,13.0,88,0.00,,---,0.00,VWS V14.00,2013-03-30 04:42:00,
2013-03-29 23:43:00,68.7,65.0,30.04,SE,128,13.0,13.0,88,0.00,,---,0.00,VWS V14.00,2013-03-30 04:43:00,
2013-03-29 23:44:00,68.7,65.0,30.04,SE,128,8.0,13.0,88,0.00,,---,0.00,VWS V14.00,2013-03-30 04:44:00,
2013-03-29 23:45:00,68.6,64.9,30.04,SE,128,9.0,12.0,88,0.00,,---,0.00,VWS V14.00,2013-03-30 04:45:00,
2013-03-29 23:46:00,68.6,64.6,30.04,SE,128,8.0,11.0,87,0.00,,---,0.00,VWS V14.00,2013-03-30 04:46:00,
2013-03-29 23:47:00,68.6,64.6,30.04,SE,128,13.0,13.0,87,0.00,,---,0.00,VWS V14.00,2013-03-30 04:47:00,
2013-03-29 23:48:00,68.6,64.6,30.04,SE,128,9.0,13.0,87,0.00,,---,0.00,VWS V14.00,2013-03-30 04:48:00,
2013-03-29 23:49:00,68.6,64.6,30.04,SE,128,11.0,13.0,87,0.00,,---,0.00,VWS V14.00,2013-03-30 04:49:00,
2013-03-29 23:50:00,68.6,64.6,30.04,SE,128,9.0,11.0,87,0.00,,---,0.00,VWS V14.00,2013-03-30 04:50:00,
2013-03-29 23:51:00,68.6,64.6,30.04,SE,132,12.0,14.0,87,0.00,,---,0.00,VWS V14.00,2013-03-30 04:51:00,
2013-03-29 23:52:00,68.6,64.6,30.04,SE,133,13.0,15.0,87,0.00,,---,0.00,VWS V14.00,2013-03-30 04:52:00,
2013-03-29 23:53:00,68.6,64.9,30.04,SE,134,8.0,14.0,88,0.00,,---,0.00,VWS V14.00,2013-03-30 04:53:00,
2013-03-29 23:54:00,68.6,64.6,30.04,SE,135,8.0,11.0,87,0.00,,---,0.00,VWS V14.00,2013-03-30 04:54:00,
2013-03-29 23:55:00,68.6,64.6,30.04,SE,134,14.0,15.0,87,0.00,,---,0.00,VWS V14.00,2013-03-30 04:55:00,
2013-03-29 23:56:00,68.5,64.5,30.04,SE,134,12.0,12.0,87,0.00,,---,0.00,VWS V14.00,2013-03-30 04:56:00,
2013-03-29 23:57:00,68.6,64.6,30.04,SE,132,8.0,14.0,87,0.00,,---,0.00,VWS V14.00,2013-03-30 04:57:00,
2013-03-29 23:58:00,68.6,64.6,30.04,SE,133,12.0,13.0,87,0.00,,---,0.00,VWS V14.00,2013-03-30 04:58:00,
2013-03-29 23:59:00,68.5,64.5,30.04,SE,133,9.0,12.0,87,0.00,,---,0.00,VWS V14.00,2013-03-30 04:59:00,